<?xml version="1.0" encoding="UTF-8" standalone="no" ?>
<gpx xmlns="http://www.topografix.com/GPX/1/1" xmlns:xsi="http://www.w3.org/2001/XMLSchema-instance" xsi:schemaLocation="http://www.topografix.com/GPX/1/1 http://www.topografix.com/GPX/1/1/gpx.xsd" version="1.1" creator="VisuGPX - https://www.visugpx.com">
  <metadata>
    <name>Bocages de Parthenay</name>
    <desc><![CDATA[Bocages de Parthenay]]></desc>
  </metadata>
  <trk>
    <name><![CDATA[005-2012/09/16-09:46:36]]></name>
    <trkseg>
      <trkpt lat="46.64043" lon="-0.26574">
        <ele>133</ele>
        <time>2012-09-16T07:46:36Z</time>
      </trkpt>
      <trkpt lat="46.64016" lon="-0.26574">
        <ele>134</ele>
        <time>2012-09-16T07:47:09Z</time>
      </trkpt>
      <trkpt lat="46.64009" lon="-0.26569">
        <ele>134</ele>
        <time>2012-09-16T07:47:15Z</time>
      </trkpt>
      <trkpt lat="46.64003" lon="-0.26561">
        <ele>134</ele>
        <time>2012-09-16T07:47:21Z</time>
      </trkpt>
      <trkpt lat="46.63998" lon="-0.26556">
        <ele>134</ele>
        <time>2012-09-16T07:47:26Z</time>
      </trkpt>
      <trkpt lat="46.63992" lon="-0.2655">
        <ele>134</ele>
        <time>2012-09-16T07:47:32Z</time>
      </trkpt>
      <trkpt lat="46.63988" lon="-0.26543">
        <ele>133</ele>
        <time>2012-09-16T07:47:37Z</time>
      </trkpt>
      <trkpt lat="46.63985" lon="-0.26536">
        <ele>133</ele>
        <time>2012-09-16T07:47:42Z</time>
      </trkpt>
      <trkpt lat="46.63985" lon="-0.26527">
        <ele>133</ele>
        <time>2012-09-16T07:47:48Z</time>
      </trkpt>
      <trkpt lat="46.63985" lon="-0.26518">
        <ele>133</ele>
        <time>2012-09-16T07:47:54Z</time>
      </trkpt>
      <trkpt lat="46.63986" lon="-0.2651">
        <ele>132</ele>
        <time>2012-09-16T07:47:59Z</time>
      </trkpt>
      <trkpt lat="46.63988" lon="-0.265">
        <ele>132</ele>
        <time>2012-09-16T07:48:05Z</time>
      </trkpt>
      <trkpt lat="46.6399" lon="-0.26491">
        <ele>132</ele>
        <time>2012-09-16T07:48:11Z</time>
      </trkpt>
      <trkpt lat="46.63991" lon="-0.26482">
        <ele>132</ele>
        <time>2012-09-16T07:48:16Z</time>
      </trkpt>
      <trkpt lat="46.63992" lon="-0.26473">
        <ele>132</ele>
        <time>2012-09-16T07:48:21Z</time>
      </trkpt>
      <trkpt lat="46.63994" lon="-0.26465">
        <ele>132</ele>
        <time>2012-09-16T07:48:26Z</time>
      </trkpt>
      <trkpt lat="46.63996" lon="-0.26457">
        <ele>132</ele>
        <time>2012-09-16T07:48:31Z</time>
      </trkpt>
      <trkpt lat="46.64" lon="-0.26447">
        <ele>132</ele>
        <time>2012-09-16T07:48:37Z</time>
      </trkpt>
      <trkpt lat="46.64004" lon="-0.26436">
        <ele>131</ele>
        <time>2012-09-16T07:48:43Z</time>
      </trkpt>
      <trkpt lat="46.64008" lon="-0.26428">
        <ele>132</ele>
        <time>2012-09-16T07:48:48Z</time>
      </trkpt>
      <trkpt lat="46.64012" lon="-0.2642">
        <ele>132</ele>
        <time>2012-09-16T07:48:53Z</time>
      </trkpt>
      <trkpt lat="46.64015" lon="-0.26411">
        <ele>132</ele>
        <time>2012-09-16T07:48:58Z</time>
      </trkpt>
      <trkpt lat="46.64017" lon="-0.26402">
        <ele>132</ele>
        <time>2012-09-16T07:49:03Z</time>
      </trkpt>
      <trkpt lat="46.64018" lon="-0.26395">
        <ele>133</ele>
        <time>2012-09-16T07:49:08Z</time>
      </trkpt>
      <trkpt lat="46.64019" lon="-0.26386">
        <ele>133</ele>
        <time>2012-09-16T07:49:13Z</time>
      </trkpt>
      <trkpt lat="46.64021" lon="-0.26376">
        <ele>133</ele>
        <time>2012-09-16T07:49:18Z</time>
      </trkpt>
      <trkpt lat="46.64019" lon="-0.26368">
        <ele>133</ele>
        <time>2012-09-16T07:49:23Z</time>
      </trkpt>
      <trkpt lat="46.64015" lon="-0.2636">
        <ele>134</ele>
        <time>2012-09-16T07:49:29Z</time>
      </trkpt>
      <trkpt lat="46.6401" lon="-0.26353">
        <ele>134</ele>
        <time>2012-09-16T07:49:34Z</time>
      </trkpt>
      <trkpt lat="46.64005" lon="-0.26345">
        <ele>135</ele>
        <time>2012-09-16T07:49:39Z</time>
      </trkpt>
      <trkpt lat="46.63997" lon="-0.26337">
        <ele>136</ele>
        <time>2012-09-16T07:49:46Z</time>
      </trkpt>
      <trkpt lat="46.63991" lon="-0.26329">
        <ele>137</ele>
        <time>2012-09-16T07:49:52Z</time>
      </trkpt>
      <trkpt lat="46.63986" lon="-0.26321">
        <ele>137</ele>
        <time>2012-09-16T07:49:58Z</time>
      </trkpt>
      <trkpt lat="46.63982" lon="-0.26314">
        <ele>137</ele>
        <time>2012-09-16T07:50:04Z</time>
      </trkpt>
      <trkpt lat="46.63977" lon="-0.26307">
        <ele>137</ele>
        <time>2012-09-16T07:50:10Z</time>
      </trkpt>
      <trkpt lat="46.63973" lon="-0.26302">
        <ele>137</ele>
        <time>2012-09-16T07:50:16Z</time>
      </trkpt>
      <trkpt lat="46.63968" lon="-0.263">
        <ele>138</ele>
        <time>2012-09-16T07:50:21Z</time>
      </trkpt>
      <trkpt lat="46.63963" lon="-0.26297">
        <ele>138</ele>
        <time>2012-09-16T07:50:27Z</time>
      </trkpt>
      <trkpt lat="46.63958" lon="-0.26292">
        <ele>138</ele>
        <time>2012-09-16T07:50:33Z</time>
      </trkpt>
      <trkpt lat="46.63952" lon="-0.26289">
        <ele>138</ele>
        <time>2012-09-16T07:50:38Z</time>
      </trkpt>
      <trkpt lat="46.63946" lon="-0.26297">
        <ele>138</ele>
        <time>2012-09-16T07:50:44Z</time>
      </trkpt>
      <trkpt lat="46.63942" lon="-0.26303">
        <ele>138</ele>
        <time>2012-09-16T07:50:49Z</time>
      </trkpt>
      <trkpt lat="46.63938" lon="-0.26311">
        <ele>137</ele>
        <time>2012-09-16T07:50:55Z</time>
      </trkpt>
      <trkpt lat="46.63932" lon="-0.2632">
        <ele>137</ele>
        <time>2012-09-16T07:51:01Z</time>
      </trkpt>
      <trkpt lat="46.63928" lon="-0.26327">
        <ele>137</ele>
        <time>2012-09-16T07:51:06Z</time>
      </trkpt>
      <trkpt lat="46.63923" lon="-0.26335">
        <ele>136</ele>
        <time>2012-09-16T07:51:11Z</time>
      </trkpt>
      <trkpt lat="46.63919" lon="-0.26343">
        <ele>135</ele>
        <time>2012-09-16T07:51:16Z</time>
      </trkpt>
      <trkpt lat="46.63915" lon="-0.2635">
        <ele>136</ele>
        <time>2012-09-16T07:51:21Z</time>
      </trkpt>
      <trkpt lat="46.6391" lon="-0.26357">
        <ele>136</ele>
        <time>2012-09-16T07:51:26Z</time>
      </trkpt>
      <trkpt lat="46.63904" lon="-0.26367">
        <ele>136</ele>
        <time>2012-09-16T07:51:33Z</time>
      </trkpt>
      <trkpt lat="46.63901" lon="-0.26375">
        <ele>136</ele>
        <time>2012-09-16T07:51:38Z</time>
      </trkpt>
      <trkpt lat="46.63896" lon="-0.26382">
        <ele>136</ele>
        <time>2012-09-16T07:51:44Z</time>
      </trkpt>
      <trkpt lat="46.63891" lon="-0.2639">
        <ele>136</ele>
        <time>2012-09-16T07:51:50Z</time>
      </trkpt>
      <trkpt lat="46.63886" lon="-0.26399">
        <ele>136</ele>
        <time>2012-09-16T07:51:56Z</time>
      </trkpt>
      <trkpt lat="46.63883" lon="-0.26408">
        <ele>136</ele>
        <time>2012-09-16T07:52:02Z</time>
      </trkpt>
      <trkpt lat="46.63879" lon="-0.26417">
        <ele>136</ele>
        <time>2012-09-16T07:52:08Z</time>
      </trkpt>
      <trkpt lat="46.63877" lon="-0.26425">
        <ele>135</ele>
        <time>2012-09-16T07:52:14Z</time>
      </trkpt>
      <trkpt lat="46.63872" lon="-0.26434">
        <ele>135</ele>
        <time>2012-09-16T07:52:21Z</time>
      </trkpt>
      <trkpt lat="46.63868" lon="-0.26442">
        <ele>135</ele>
        <time>2012-09-16T07:52:26Z</time>
      </trkpt>
      <trkpt lat="46.63865" lon="-0.2645">
        <ele>135</ele>
        <time>2012-09-16T07:52:31Z</time>
      </trkpt>
      <trkpt lat="46.63861" lon="-0.26457">
        <ele>135</ele>
        <time>2012-09-16T07:52:37Z</time>
      </trkpt>
      <trkpt lat="46.63851" lon="-0.26453">
        <ele>135</ele>
        <time>2012-09-16T07:52:45Z</time>
      </trkpt>
      <trkpt lat="46.63843" lon="-0.26456">
        <ele>135</ele>
        <time>2012-09-16T07:52:51Z</time>
      </trkpt>
      <trkpt lat="46.63838" lon="-0.26464">
        <ele>135</ele>
        <time>2012-09-16T07:52:57Z</time>
      </trkpt>
      <trkpt lat="46.63835" lon="-0.26472">
        <ele>135</ele>
        <time>2012-09-16T07:53:04Z</time>
      </trkpt>
      <trkpt lat="46.63831" lon="-0.2648">
        <ele>138</ele>
        <time>2012-09-16T07:53:09Z</time>
      </trkpt>
      <trkpt lat="46.63826" lon="-0.26487">
        <ele>137</ele>
        <time>2012-09-16T07:53:16Z</time>
      </trkpt>
      <trkpt lat="46.63823" lon="-0.26493">
        <ele>137</ele>
        <time>2012-09-16T07:53:21Z</time>
      </trkpt>
      <trkpt lat="46.63818" lon="-0.26497">
        <ele>137</ele>
        <time>2012-09-16T07:53:26Z</time>
      </trkpt>
      <trkpt lat="46.63814" lon="-0.26504">
        <ele>137</ele>
        <time>2012-09-16T07:53:32Z</time>
      </trkpt>
      <trkpt lat="46.63809" lon="-0.26511">
        <ele>137</ele>
        <time>2012-09-16T07:53:37Z</time>
      </trkpt>
      <trkpt lat="46.63805" lon="-0.26516">
        <ele>138</ele>
        <time>2012-09-16T07:53:42Z</time>
      </trkpt>
      <trkpt lat="46.63798" lon="-0.26519">
        <ele>138</ele>
        <time>2012-09-16T07:53:48Z</time>
      </trkpt>
      <trkpt lat="46.63787" lon="-0.2652">
        <ele>139</ele>
        <time>2012-09-16T07:53:53Z</time>
      </trkpt>
      <trkpt lat="46.63782" lon="-0.26517">
        <ele>139</ele>
        <time>2012-09-16T07:53:58Z</time>
      </trkpt>
      <trkpt lat="46.63777" lon="-0.26514">
        <ele>139</ele>
        <time>2012-09-16T07:54:06Z</time>
      </trkpt>
      <trkpt lat="46.63774" lon="-0.2652">
        <ele>139</ele>
        <time>2012-09-16T07:54:12Z</time>
      </trkpt>
      <trkpt lat="46.63774" lon="-0.26526">
        <ele>139</ele>
        <time>2012-09-16T07:54:17Z</time>
      </trkpt>
      <trkpt lat="46.63775" lon="-0.26533">
        <ele>139</ele>
        <time>2012-09-16T07:54:22Z</time>
      </trkpt>
      <trkpt lat="46.63775" lon="-0.26541">
        <ele>139</ele>
        <time>2012-09-16T07:54:27Z</time>
      </trkpt>
      <trkpt lat="46.63773" lon="-0.26549">
        <ele>139</ele>
        <time>2012-09-16T07:54:32Z</time>
      </trkpt>
      <trkpt lat="46.63767" lon="-0.26556">
        <ele>139</ele>
        <time>2012-09-16T07:54:39Z</time>
      </trkpt>
      <trkpt lat="46.6376" lon="-0.26562">
        <ele>139</ele>
        <time>2012-09-16T07:54:44Z</time>
      </trkpt>
      <trkpt lat="46.63753" lon="-0.26564">
        <ele>139</ele>
        <time>2012-09-16T07:54:50Z</time>
      </trkpt>
      <trkpt lat="46.63747" lon="-0.26568">
        <ele>141</ele>
        <time>2012-09-16T07:54:55Z</time>
      </trkpt>
      <trkpt lat="46.6374" lon="-0.26571">
        <ele>141</ele>
        <time>2012-09-16T07:55:01Z</time>
      </trkpt>
      <trkpt lat="46.63736" lon="-0.26576">
        <ele>141</ele>
        <time>2012-09-16T07:55:07Z</time>
      </trkpt>
      <trkpt lat="46.63729" lon="-0.26579">
        <ele>142</ele>
        <time>2012-09-16T07:55:12Z</time>
      </trkpt>
      <trkpt lat="46.63723" lon="-0.26581">
        <ele>142</ele>
        <time>2012-09-16T07:55:18Z</time>
      </trkpt>
      <trkpt lat="46.63713" lon="-0.26586">
        <ele>141</ele>
        <time>2012-09-16T07:55:24Z</time>
      </trkpt>
      <trkpt lat="46.63708" lon="-0.26589">
        <ele>141</ele>
        <time>2012-09-16T07:55:29Z</time>
      </trkpt>
      <trkpt lat="46.63702" lon="-0.26593">
        <ele>141</ele>
        <time>2012-09-16T07:55:36Z</time>
      </trkpt>
      <trkpt lat="46.63695" lon="-0.26596">
        <ele>141</ele>
        <time>2012-09-16T07:55:41Z</time>
      </trkpt>
      <trkpt lat="46.63689" lon="-0.26598">
        <ele>142</ele>
        <time>2012-09-16T07:55:47Z</time>
      </trkpt>
      <trkpt lat="46.63684" lon="-0.26602">
        <ele>142</ele>
        <time>2012-09-16T07:55:52Z</time>
      </trkpt>
      <trkpt lat="46.63676" lon="-0.26604">
        <ele>142</ele>
        <time>2012-09-16T07:55:58Z</time>
      </trkpt>
      <trkpt lat="46.63669" lon="-0.26607">
        <ele>142</ele>
        <time>2012-09-16T07:56:03Z</time>
      </trkpt>
      <trkpt lat="46.63663" lon="-0.26609">
        <ele>145</ele>
        <time>2012-09-16T07:56:08Z</time>
      </trkpt>
      <trkpt lat="46.63657" lon="-0.26611">
        <ele>145</ele>
        <time>2012-09-16T07:56:14Z</time>
      </trkpt>
      <trkpt lat="46.63649" lon="-0.26613">
        <ele>145</ele>
        <time>2012-09-16T07:56:19Z</time>
      </trkpt>
      <trkpt lat="46.63643" lon="-0.26616">
        <ele>145</ele>
        <time>2012-09-16T07:56:26Z</time>
      </trkpt>
      <trkpt lat="46.63637" lon="-0.26619">
        <ele>145</ele>
        <time>2012-09-16T07:56:31Z</time>
      </trkpt>
      <trkpt lat="46.6363" lon="-0.26622">
        <ele>146</ele>
        <time>2012-09-16T07:56:37Z</time>
      </trkpt>
      <trkpt lat="46.63625" lon="-0.26625">
        <ele>146</ele>
        <time>2012-09-16T07:56:43Z</time>
      </trkpt>
      <trkpt lat="46.63619" lon="-0.26627">
        <ele>146</ele>
        <time>2012-09-16T07:56:49Z</time>
      </trkpt>
      <trkpt lat="46.63614" lon="-0.26629">
        <ele>146</ele>
        <time>2012-09-16T07:56:56Z</time>
      </trkpt>
      <trkpt lat="46.63605" lon="-0.26633">
        <ele>146</ele>
        <time>2012-09-16T07:57:02Z</time>
      </trkpt>
      <trkpt lat="46.63598" lon="-0.26638">
        <ele>146</ele>
        <time>2012-09-16T07:57:07Z</time>
      </trkpt>
      <trkpt lat="46.63591" lon="-0.26641">
        <ele>147</ele>
        <time>2012-09-16T07:57:12Z</time>
      </trkpt>
      <trkpt lat="46.63586" lon="-0.26642">
        <ele>147</ele>
        <time>2012-09-16T07:57:17Z</time>
      </trkpt>
      <trkpt lat="46.6358" lon="-0.26642">
        <ele>148</ele>
        <time>2012-09-16T07:57:27Z</time>
      </trkpt>
      <trkpt lat="46.63578" lon="-0.26636">
        <ele>148</ele>
        <time>2012-09-16T07:57:32Z</time>
      </trkpt>
      <trkpt lat="46.63574" lon="-0.26632">
        <ele>148</ele>
        <time>2012-09-16T07:57:39Z</time>
      </trkpt>
      <trkpt lat="46.63568" lon="-0.26633">
        <ele>148</ele>
        <time>2012-09-16T07:57:45Z</time>
      </trkpt>
      <trkpt lat="46.63568" lon="-0.26636">
        <ele>148</ele>
        <time>2012-09-16T07:57:53Z</time>
      </trkpt>
      <trkpt lat="46.63573" lon="-0.26643">
        <ele>148</ele>
        <time>2012-09-16T07:58:00Z</time>
      </trkpt>
      <trkpt lat="46.63569" lon="-0.26645">
        <ele>148</ele>
        <time>2012-09-16T07:58:06Z</time>
      </trkpt>
      <trkpt lat="46.63564" lon="-0.26644">
        <ele>148</ele>
        <time>2012-09-16T07:58:11Z</time>
      </trkpt>
      <trkpt lat="46.63559" lon="-0.2664">
        <ele>148</ele>
        <time>2012-09-16T07:58:17Z</time>
      </trkpt>
      <trkpt lat="46.63554" lon="-0.26635">
        <ele>148</ele>
        <time>2012-09-16T07:58:23Z</time>
      </trkpt>
      <trkpt lat="46.63549" lon="-0.2663">
        <ele>148</ele>
        <time>2012-09-16T07:58:28Z</time>
      </trkpt>
      <trkpt lat="46.63544" lon="-0.26629">
        <ele>148</ele>
        <time>2012-09-16T07:58:34Z</time>
      </trkpt>
      <trkpt lat="46.63538" lon="-0.26626">
        <ele>148</ele>
        <time>2012-09-16T07:58:40Z</time>
      </trkpt>
      <trkpt lat="46.6353" lon="-0.26624">
        <ele>148</ele>
        <time>2012-09-16T07:58:46Z</time>
      </trkpt>
      <trkpt lat="46.63524" lon="-0.26623">
        <ele>148</ele>
        <time>2012-09-16T07:58:52Z</time>
      </trkpt>
      <trkpt lat="46.63518" lon="-0.26623">
        <ele>148</ele>
        <time>2012-09-16T07:58:57Z</time>
      </trkpt>
      <trkpt lat="46.63511" lon="-0.26623">
        <ele>148</ele>
        <time>2012-09-16T07:59:03Z</time>
      </trkpt>
      <trkpt lat="46.63505" lon="-0.26623">
        <ele>148</ele>
        <time>2012-09-16T07:59:08Z</time>
      </trkpt>
      <trkpt lat="46.63498" lon="-0.26623">
        <ele>147</ele>
        <time>2012-09-16T07:59:13Z</time>
      </trkpt>
      <trkpt lat="46.63491" lon="-0.26625">
        <ele>146</ele>
        <time>2012-09-16T07:59:18Z</time>
      </trkpt>
      <trkpt lat="46.63483" lon="-0.26629">
        <ele>146</ele>
        <time>2012-09-16T07:59:24Z</time>
      </trkpt>
      <trkpt lat="46.63476" lon="-0.26633">
        <ele>146</ele>
        <time>2012-09-16T07:59:30Z</time>
      </trkpt>
      <trkpt lat="46.6347" lon="-0.26637">
        <ele>146</ele>
        <time>2012-09-16T07:59:35Z</time>
      </trkpt>
      <trkpt lat="46.63464" lon="-0.26641">
        <ele>146</ele>
        <time>2012-09-16T07:59:40Z</time>
      </trkpt>
      <trkpt lat="46.63457" lon="-0.26645">
        <ele>146</ele>
        <time>2012-09-16T07:59:45Z</time>
      </trkpt>
      <trkpt lat="46.63451" lon="-0.26648">
        <ele>145</ele>
        <time>2012-09-16T07:59:50Z</time>
      </trkpt>
      <trkpt lat="46.63445" lon="-0.26653">
        <ele>145</ele>
        <time>2012-09-16T07:59:55Z</time>
      </trkpt>
      <trkpt lat="46.63439" lon="-0.26658">
        <ele>145</ele>
        <time>2012-09-16T08:00:01Z</time>
      </trkpt>
      <trkpt lat="46.63436" lon="-0.26661">
        <ele>145</ele>
        <time>2012-09-16T08:00:06Z</time>
      </trkpt>
      <trkpt lat="46.63434" lon="-0.26665">
        <ele>144</ele>
        <time>2012-09-16T08:00:13Z</time>
      </trkpt>
      <trkpt lat="46.63431" lon="-0.2667">
        <ele>143</ele>
        <time>2012-09-16T08:00:19Z</time>
      </trkpt>
      <trkpt lat="46.63426" lon="-0.26677">
        <ele>143</ele>
        <time>2012-09-16T08:00:25Z</time>
      </trkpt>
      <trkpt lat="46.63423" lon="-0.26684">
        <ele>143</ele>
        <time>2012-09-16T08:00:30Z</time>
      </trkpt>
      <trkpt lat="46.63419" lon="-0.26692">
        <ele>143</ele>
        <time>2012-09-16T08:00:36Z</time>
      </trkpt>
      <trkpt lat="46.63414" lon="-0.267">
        <ele>141</ele>
        <time>2012-09-16T08:00:42Z</time>
      </trkpt>
      <trkpt lat="46.63411" lon="-0.26707">
        <ele>141</ele>
        <time>2012-09-16T08:00:47Z</time>
      </trkpt>
      <trkpt lat="46.63406" lon="-0.26714">
        <ele>141</ele>
        <time>2012-09-16T08:00:52Z</time>
      </trkpt>
      <trkpt lat="46.63402" lon="-0.26723">
        <ele>140</ele>
        <time>2012-09-16T08:00:58Z</time>
      </trkpt>
      <trkpt lat="46.63399" lon="-0.2673">
        <ele>140</ele>
        <time>2012-09-16T08:01:03Z</time>
      </trkpt>
      <trkpt lat="46.63395" lon="-0.26738">
        <ele>140</ele>
        <time>2012-09-16T08:01:09Z</time>
      </trkpt>
      <trkpt lat="46.6339" lon="-0.26746">
        <ele>140</ele>
        <time>2012-09-16T08:01:15Z</time>
      </trkpt>
      <trkpt lat="46.63385" lon="-0.26754">
        <ele>138</ele>
        <time>2012-09-16T08:01:21Z</time>
      </trkpt>
      <trkpt lat="46.6338" lon="-0.26761">
        <ele>138</ele>
        <time>2012-09-16T08:01:27Z</time>
      </trkpt>
      <trkpt lat="46.63374" lon="-0.26764">
        <ele>137</ele>
        <time>2012-09-16T08:01:32Z</time>
      </trkpt>
      <trkpt lat="46.63367" lon="-0.26764">
        <ele>137</ele>
        <time>2012-09-16T08:01:38Z</time>
      </trkpt>
      <trkpt lat="46.6336" lon="-0.26761">
        <ele>137</ele>
        <time>2012-09-16T08:01:43Z</time>
      </trkpt>
      <trkpt lat="46.63354" lon="-0.26758">
        <ele>137</ele>
        <time>2012-09-16T08:01:48Z</time>
      </trkpt>
      <trkpt lat="46.63347" lon="-0.26754">
        <ele>137</ele>
        <time>2012-09-16T08:01:54Z</time>
      </trkpt>
      <trkpt lat="46.63341" lon="-0.26752">
        <ele>137</ele>
        <time>2012-09-16T08:01:59Z</time>
      </trkpt>
      <trkpt lat="46.63334" lon="-0.26748">
        <ele>137</ele>
        <time>2012-09-16T08:02:04Z</time>
      </trkpt>
      <trkpt lat="46.63327" lon="-0.26743">
        <ele>137</ele>
        <time>2012-09-16T08:02:10Z</time>
      </trkpt>
      <trkpt lat="46.63322" lon="-0.26738">
        <ele>138</ele>
        <time>2012-09-16T08:02:15Z</time>
      </trkpt>
      <trkpt lat="46.63316" lon="-0.26734">
        <ele>138</ele>
        <time>2012-09-16T08:02:20Z</time>
      </trkpt>
      <trkpt lat="46.63311" lon="-0.26729">
        <ele>138</ele>
        <time>2012-09-16T08:02:26Z</time>
      </trkpt>
      <trkpt lat="46.63304" lon="-0.26724">
        <ele>138</ele>
        <time>2012-09-16T08:02:32Z</time>
      </trkpt>
      <trkpt lat="46.633" lon="-0.26719">
        <ele>138</ele>
        <time>2012-09-16T08:02:37Z</time>
      </trkpt>
      <trkpt lat="46.63294" lon="-0.26715">
        <ele>138</ele>
        <time>2012-09-16T08:02:42Z</time>
      </trkpt>
      <trkpt lat="46.63288" lon="-0.2671">
        <ele>138</ele>
        <time>2012-09-16T08:02:48Z</time>
      </trkpt>
      <trkpt lat="46.63283" lon="-0.26708">
        <ele>138</ele>
        <time>2012-09-16T08:02:53Z</time>
      </trkpt>
      <trkpt lat="46.63277" lon="-0.26705">
        <ele>138</ele>
        <time>2012-09-16T08:02:58Z</time>
      </trkpt>
      <trkpt lat="46.6327" lon="-0.26701">
        <ele>138</ele>
        <time>2012-09-16T08:03:04Z</time>
      </trkpt>
      <trkpt lat="46.63263" lon="-0.26701">
        <ele>138</ele>
        <time>2012-09-16T08:03:09Z</time>
      </trkpt>
      <trkpt lat="46.63258" lon="-0.26701">
        <ele>138</ele>
        <time>2012-09-16T08:03:14Z</time>
      </trkpt>
      <trkpt lat="46.63252" lon="-0.26701">
        <ele>138</ele>
        <time>2012-09-16T08:03:19Z</time>
      </trkpt>
      <trkpt lat="46.63245" lon="-0.26699">
        <ele>138</ele>
        <time>2012-09-16T08:03:25Z</time>
      </trkpt>
      <trkpt lat="46.63239" lon="-0.26698">
        <ele>138</ele>
        <time>2012-09-16T08:03:30Z</time>
      </trkpt>
      <trkpt lat="46.63231" lon="-0.26696">
        <ele>138</ele>
        <time>2012-09-16T08:03:36Z</time>
      </trkpt>
      <trkpt lat="46.63225" lon="-0.26694">
        <ele>138</ele>
        <time>2012-09-16T08:03:42Z</time>
      </trkpt>
      <trkpt lat="46.6322" lon="-0.26692">
        <ele>138</ele>
        <time>2012-09-16T08:03:47Z</time>
      </trkpt>
      <trkpt lat="46.63213" lon="-0.26691">
        <ele>138</ele>
        <time>2012-09-16T08:03:52Z</time>
      </trkpt>
      <trkpt lat="46.63206" lon="-0.26689">
        <ele>138</ele>
        <time>2012-09-16T08:03:58Z</time>
      </trkpt>
      <trkpt lat="46.632" lon="-0.26691">
        <ele>138</ele>
        <time>2012-09-16T08:04:04Z</time>
      </trkpt>
      <trkpt lat="46.63194" lon="-0.26698">
        <ele>138</ele>
        <time>2012-09-16T08:04:10Z</time>
      </trkpt>
      <trkpt lat="46.63189" lon="-0.26707">
        <ele>138</ele>
        <time>2012-09-16T08:04:17Z</time>
      </trkpt>
      <trkpt lat="46.63185" lon="-0.26712">
        <ele>137</ele>
        <time>2012-09-16T08:04:22Z</time>
      </trkpt>
      <trkpt lat="46.6318" lon="-0.26718">
        <ele>137</ele>
        <time>2012-09-16T08:04:31Z</time>
      </trkpt>
      <trkpt lat="46.63177" lon="-0.26718">
        <ele>137</ele>
        <time>2012-09-16T08:04:36Z</time>
      </trkpt>
      <trkpt lat="46.63172" lon="-0.2672">
        <ele>137</ele>
        <time>2012-09-16T08:04:44Z</time>
      </trkpt>
      <trkpt lat="46.63169" lon="-0.26721">
        <ele>137</ele>
        <time>2012-09-16T08:04:51Z</time>
      </trkpt>
      <trkpt lat="46.63167" lon="-0.26725">
        <ele>137</ele>
        <time>2012-09-16T08:04:58Z</time>
      </trkpt>
      <trkpt lat="46.63167" lon="-0.26728">
        <ele>137</ele>
        <time>2012-09-16T08:05:03Z</time>
      </trkpt>
      <trkpt lat="46.63165" lon="-0.26735">
        <ele>138</ele>
        <time>2012-09-16T08:05:09Z</time>
      </trkpt>
      <trkpt lat="46.63162" lon="-0.26738">
        <ele>137</ele>
        <time>2012-09-16T08:05:14Z</time>
      </trkpt>
      <trkpt lat="46.63152" lon="-0.26749">
        <ele>138</ele>
        <time>2012-09-16T08:05:25Z</time>
      </trkpt>
      <trkpt lat="46.6315" lon="-0.26752">
        <ele>138</ele>
        <time>2012-09-16T08:05:31Z</time>
      </trkpt>
      <trkpt lat="46.63144" lon="-0.26754">
        <ele>138</ele>
        <time>2012-09-16T08:05:37Z</time>
      </trkpt>
      <trkpt lat="46.63137" lon="-0.26753">
        <ele>139</ele>
        <time>2012-09-16T08:05:42Z</time>
      </trkpt>
      <trkpt lat="46.63131" lon="-0.26752">
        <ele>139</ele>
        <time>2012-09-16T08:05:48Z</time>
      </trkpt>
      <trkpt lat="46.63126" lon="-0.2675">
        <ele>139</ele>
        <time>2012-09-16T08:05:53Z</time>
      </trkpt>
      <trkpt lat="46.63121" lon="-0.2675">
        <ele>139</ele>
        <time>2012-09-16T08:05:58Z</time>
      </trkpt>
      <trkpt lat="46.63114" lon="-0.26748">
        <ele>139</ele>
        <time>2012-09-16T08:06:05Z</time>
      </trkpt>
      <trkpt lat="46.63107" lon="-0.26747">
        <ele>139</ele>
        <time>2012-09-16T08:06:12Z</time>
      </trkpt>
      <trkpt lat="46.63101" lon="-0.26747">
        <ele>139</ele>
        <time>2012-09-16T08:06:18Z</time>
      </trkpt>
      <trkpt lat="46.63095" lon="-0.26748">
        <ele>140</ele>
        <time>2012-09-16T08:06:23Z</time>
      </trkpt>
      <trkpt lat="46.63087" lon="-0.26748">
        <ele>140</ele>
        <time>2012-09-16T08:06:29Z</time>
      </trkpt>
      <trkpt lat="46.63082" lon="-0.26749">
        <ele>141</ele>
        <time>2012-09-16T08:06:34Z</time>
      </trkpt>
      <trkpt lat="46.63076" lon="-0.26748">
        <ele>141</ele>
        <time>2012-09-16T08:06:39Z</time>
      </trkpt>
      <trkpt lat="46.6307" lon="-0.26749">
        <ele>140</ele>
        <time>2012-09-16T08:06:44Z</time>
      </trkpt>
      <trkpt lat="46.63063" lon="-0.2675">
        <ele>140</ele>
        <time>2012-09-16T08:06:50Z</time>
      </trkpt>
      <trkpt lat="46.63056" lon="-0.26749">
        <ele>140</ele>
        <time>2012-09-16T08:06:56Z</time>
      </trkpt>
      <trkpt lat="46.6305" lon="-0.26752">
        <ele>141</ele>
        <time>2012-09-16T08:07:02Z</time>
      </trkpt>
      <trkpt lat="46.63044" lon="-0.26751">
        <ele>141</ele>
        <time>2012-09-16T08:07:07Z</time>
      </trkpt>
      <trkpt lat="46.63037" lon="-0.26751">
        <ele>141</ele>
        <time>2012-09-16T08:07:13Z</time>
      </trkpt>
      <trkpt lat="46.6303" lon="-0.26753">
        <ele>141</ele>
        <time>2012-09-16T08:07:18Z</time>
      </trkpt>
      <trkpt lat="46.63023" lon="-0.26755">
        <ele>141</ele>
        <time>2012-09-16T08:07:24Z</time>
      </trkpt>
      <trkpt lat="46.63016" lon="-0.26756">
        <ele>141</ele>
        <time>2012-09-16T08:07:29Z</time>
      </trkpt>
      <trkpt lat="46.63011" lon="-0.26757">
        <ele>141</ele>
        <time>2012-09-16T08:07:34Z</time>
      </trkpt>
      <trkpt lat="46.63005" lon="-0.2676">
        <ele>141</ele>
        <time>2012-09-16T08:07:39Z</time>
      </trkpt>
      <trkpt lat="46.62999" lon="-0.26761">
        <ele>142</ele>
        <time>2012-09-16T08:07:44Z</time>
      </trkpt>
      <trkpt lat="46.62992" lon="-0.26762">
        <ele>142</ele>
        <time>2012-09-16T08:07:49Z</time>
      </trkpt>
      <trkpt lat="46.62983" lon="-0.26763">
        <ele>142</ele>
        <time>2012-09-16T08:07:55Z</time>
      </trkpt>
      <trkpt lat="46.62978" lon="-0.26768">
        <ele>142</ele>
        <time>2012-09-16T08:08:01Z</time>
      </trkpt>
      <trkpt lat="46.62973" lon="-0.26771">
        <ele>142</ele>
        <time>2012-09-16T08:08:06Z</time>
      </trkpt>
      <trkpt lat="46.62968" lon="-0.26774">
        <ele>142</ele>
        <time>2012-09-16T08:08:11Z</time>
      </trkpt>
      <trkpt lat="46.62965" lon="-0.2678">
        <ele>142</ele>
        <time>2012-09-16T08:08:16Z</time>
      </trkpt>
      <trkpt lat="46.62959" lon="-0.26784">
        <ele>142</ele>
        <time>2012-09-16T08:08:22Z</time>
      </trkpt>
      <trkpt lat="46.62952" lon="-0.26789">
        <ele>142</ele>
        <time>2012-09-16T08:08:28Z</time>
      </trkpt>
      <trkpt lat="46.62946" lon="-0.26794">
        <ele>142</ele>
        <time>2012-09-16T08:08:34Z</time>
      </trkpt>
      <trkpt lat="46.62941" lon="-0.26796">
        <ele>143</ele>
        <time>2012-09-16T08:08:39Z</time>
      </trkpt>
      <trkpt lat="46.62933" lon="-0.26797">
        <ele>143</ele>
        <time>2012-09-16T08:08:44Z</time>
      </trkpt>
      <trkpt lat="46.62926" lon="-0.26798">
        <ele>143</ele>
        <time>2012-09-16T08:08:50Z</time>
      </trkpt>
      <trkpt lat="46.6292" lon="-0.26797">
        <ele>143</ele>
        <time>2012-09-16T08:08:55Z</time>
      </trkpt>
      <trkpt lat="46.62914" lon="-0.26798">
        <ele>144</ele>
        <time>2012-09-16T08:09:00Z</time>
      </trkpt>
      <trkpt lat="46.62908" lon="-0.26801">
        <ele>144</ele>
        <time>2012-09-16T08:09:06Z</time>
      </trkpt>
      <trkpt lat="46.62902" lon="-0.26803">
        <ele>144</ele>
        <time>2012-09-16T08:09:11Z</time>
      </trkpt>
      <trkpt lat="46.62894" lon="-0.26805">
        <ele>144</ele>
        <time>2012-09-16T08:09:17Z</time>
      </trkpt>
      <trkpt lat="46.62888" lon="-0.26807">
        <ele>144</ele>
        <time>2012-09-16T08:09:22Z</time>
      </trkpt>
      <trkpt lat="46.62883" lon="-0.26808">
        <ele>144</ele>
        <time>2012-09-16T08:09:27Z</time>
      </trkpt>
      <trkpt lat="46.62875" lon="-0.2681">
        <ele>145</ele>
        <time>2012-09-16T08:09:33Z</time>
      </trkpt>
      <trkpt lat="46.6287" lon="-0.26812">
        <ele>145</ele>
        <time>2012-09-16T08:09:39Z</time>
      </trkpt>
      <trkpt lat="46.62861" lon="-0.26814">
        <ele>145</ele>
        <time>2012-09-16T08:09:45Z</time>
      </trkpt>
      <trkpt lat="46.62853" lon="-0.26816">
        <ele>145</ele>
        <time>2012-09-16T08:09:51Z</time>
      </trkpt>
      <trkpt lat="46.62847" lon="-0.26817">
        <ele>145</ele>
        <time>2012-09-16T08:09:56Z</time>
      </trkpt>
      <trkpt lat="46.6284" lon="-0.2682">
        <ele>146</ele>
        <time>2012-09-16T08:10:02Z</time>
      </trkpt>
      <trkpt lat="46.62833" lon="-0.26822">
        <ele>146</ele>
        <time>2012-09-16T08:10:07Z</time>
      </trkpt>
      <trkpt lat="46.62827" lon="-0.26824">
        <ele>146</ele>
        <time>2012-09-16T08:10:12Z</time>
      </trkpt>
      <trkpt lat="46.6282" lon="-0.26826">
        <ele>145</ele>
        <time>2012-09-16T08:10:17Z</time>
      </trkpt>
      <trkpt lat="46.62814" lon="-0.26829">
        <ele>145</ele>
        <time>2012-09-16T08:10:23Z</time>
      </trkpt>
      <trkpt lat="46.62807" lon="-0.2683">
        <ele>145</ele>
        <time>2012-09-16T08:10:29Z</time>
      </trkpt>
      <trkpt lat="46.62801" lon="-0.26832">
        <ele>145</ele>
        <time>2012-09-16T08:10:34Z</time>
      </trkpt>
      <trkpt lat="46.62796" lon="-0.26833">
        <ele>144</ele>
        <time>2012-09-16T08:10:39Z</time>
      </trkpt>
      <trkpt lat="46.6279" lon="-0.26834">
        <ele>146</ele>
        <time>2012-09-16T08:10:44Z</time>
      </trkpt>
      <trkpt lat="46.62782" lon="-0.26836">
        <ele>146</ele>
        <time>2012-09-16T08:10:50Z</time>
      </trkpt>
      <trkpt lat="46.62776" lon="-0.26836">
        <ele>146</ele>
        <time>2012-09-16T08:10:55Z</time>
      </trkpt>
      <trkpt lat="46.62769" lon="-0.26837">
        <ele>146</ele>
        <time>2012-09-16T08:11:01Z</time>
      </trkpt>
      <trkpt lat="46.62764" lon="-0.26839">
        <ele>146</ele>
        <time>2012-09-16T08:11:06Z</time>
      </trkpt>
      <trkpt lat="46.62759" lon="-0.26841">
        <ele>145</ele>
        <time>2012-09-16T08:11:11Z</time>
      </trkpt>
      <trkpt lat="46.62752" lon="-0.26842">
        <ele>145</ele>
        <time>2012-09-16T08:11:16Z</time>
      </trkpt>
      <trkpt lat="46.62746" lon="-0.26844">
        <ele>146</ele>
        <time>2012-09-16T08:11:21Z</time>
      </trkpt>
      <trkpt lat="46.62741" lon="-0.26846">
        <ele>146</ele>
        <time>2012-09-16T08:11:26Z</time>
      </trkpt>
      <trkpt lat="46.62734" lon="-0.26849">
        <ele>146</ele>
        <time>2012-09-16T08:11:32Z</time>
      </trkpt>
      <trkpt lat="46.62726" lon="-0.26851">
        <ele>146</ele>
        <time>2012-09-16T08:11:39Z</time>
      </trkpt>
      <trkpt lat="46.6272" lon="-0.26852">
        <ele>146</ele>
        <time>2012-09-16T08:11:44Z</time>
      </trkpt>
      <trkpt lat="46.62713" lon="-0.26855">
        <ele>146</ele>
        <time>2012-09-16T08:11:49Z</time>
      </trkpt>
      <trkpt lat="46.62706" lon="-0.26856">
        <ele>146</ele>
        <time>2012-09-16T08:11:54Z</time>
      </trkpt>
      <trkpt lat="46.627" lon="-0.2686">
        <ele>146</ele>
        <time>2012-09-16T08:12:00Z</time>
      </trkpt>
      <trkpt lat="46.62694" lon="-0.26866">
        <ele>146</ele>
        <time>2012-09-16T08:12:06Z</time>
      </trkpt>
      <trkpt lat="46.62689" lon="-0.26871">
        <ele>147</ele>
        <time>2012-09-16T08:12:11Z</time>
      </trkpt>
      <trkpt lat="46.62683" lon="-0.26877">
        <ele>147</ele>
        <time>2012-09-16T08:12:17Z</time>
      </trkpt>
      <trkpt lat="46.62678" lon="-0.26882">
        <ele>147</ele>
        <time>2012-09-16T08:12:22Z</time>
      </trkpt>
      <trkpt lat="46.62672" lon="-0.26886">
        <ele>147</ele>
        <time>2012-09-16T08:12:27Z</time>
      </trkpt>
      <trkpt lat="46.62665" lon="-0.2689">
        <ele>148</ele>
        <time>2012-09-16T08:12:32Z</time>
      </trkpt>
      <trkpt lat="46.62659" lon="-0.26894">
        <ele>148</ele>
        <time>2012-09-16T08:12:37Z</time>
      </trkpt>
      <trkpt lat="46.62654" lon="-0.269">
        <ele>148</ele>
        <time>2012-09-16T08:12:42Z</time>
      </trkpt>
      <trkpt lat="46.62648" lon="-0.26904">
        <ele>148</ele>
        <time>2012-09-16T08:12:47Z</time>
      </trkpt>
      <trkpt lat="46.62641" lon="-0.2691">
        <ele>148</ele>
        <time>2012-09-16T08:12:53Z</time>
      </trkpt>
      <trkpt lat="46.62636" lon="-0.26918">
        <ele>148</ele>
        <time>2012-09-16T08:12:59Z</time>
      </trkpt>
      <trkpt lat="46.62631" lon="-0.26923">
        <ele>147</ele>
        <time>2012-09-16T08:13:04Z</time>
      </trkpt>
      <trkpt lat="46.62625" lon="-0.26928">
        <ele>147</ele>
        <time>2012-09-16T08:13:09Z</time>
      </trkpt>
      <trkpt lat="46.6262" lon="-0.26933">
        <ele>147</ele>
        <time>2012-09-16T08:13:14Z</time>
      </trkpt>
      <trkpt lat="46.62614" lon="-0.26938">
        <ele>148</ele>
        <time>2012-09-16T08:13:19Z</time>
      </trkpt>
      <trkpt lat="46.62607" lon="-0.26942">
        <ele>148</ele>
        <time>2012-09-16T08:13:25Z</time>
      </trkpt>
      <trkpt lat="46.626" lon="-0.26945">
        <ele>148</ele>
        <time>2012-09-16T08:13:30Z</time>
      </trkpt>
      <trkpt lat="46.62593" lon="-0.26945">
        <ele>148</ele>
        <time>2012-09-16T08:13:35Z</time>
      </trkpt>
      <trkpt lat="46.62586" lon="-0.26945">
        <ele>148</ele>
        <time>2012-09-16T08:13:40Z</time>
      </trkpt>
      <trkpt lat="46.6258" lon="-0.26943">
        <ele>149</ele>
        <time>2012-09-16T08:13:45Z</time>
      </trkpt>
      <trkpt lat="46.62574" lon="-0.26942">
        <ele>149</ele>
        <time>2012-09-16T08:13:50Z</time>
      </trkpt>
      <trkpt lat="46.62567" lon="-0.2694">
        <ele>149</ele>
        <time>2012-09-16T08:13:55Z</time>
      </trkpt>
      <trkpt lat="46.6256" lon="-0.26936">
        <ele>149</ele>
        <time>2012-09-16T08:14:01Z</time>
      </trkpt>
      <trkpt lat="46.62554" lon="-0.26934">
        <ele>149</ele>
        <time>2012-09-16T08:14:06Z</time>
      </trkpt>
      <trkpt lat="46.62547" lon="-0.26931">
        <ele>149</ele>
        <time>2012-09-16T08:14:11Z</time>
      </trkpt>
      <trkpt lat="46.6254" lon="-0.26929">
        <ele>149</ele>
        <time>2012-09-16T08:14:17Z</time>
      </trkpt>
      <trkpt lat="46.62534" lon="-0.26928">
        <ele>149</ele>
        <time>2012-09-16T08:14:22Z</time>
      </trkpt>
      <trkpt lat="46.62528" lon="-0.26928">
        <ele>149</ele>
        <time>2012-09-16T08:14:27Z</time>
      </trkpt>
      <trkpt lat="46.62522" lon="-0.26929">
        <ele>149</ele>
        <time>2012-09-16T08:14:32Z</time>
      </trkpt>
      <trkpt lat="46.62516" lon="-0.26931">
        <ele>149</ele>
        <time>2012-09-16T08:14:37Z</time>
      </trkpt>
      <trkpt lat="46.62508" lon="-0.26933">
        <ele>149</ele>
        <time>2012-09-16T08:14:43Z</time>
      </trkpt>
      <trkpt lat="46.62501" lon="-0.26936">
        <ele>149</ele>
        <time>2012-09-16T08:14:49Z</time>
      </trkpt>
      <trkpt lat="46.62495" lon="-0.2694">
        <ele>151</ele>
        <time>2012-09-16T08:14:54Z</time>
      </trkpt>
      <trkpt lat="46.62488" lon="-0.26943">
        <ele>151</ele>
        <time>2012-09-16T08:14:59Z</time>
      </trkpt>
      <trkpt lat="46.62482" lon="-0.26945">
        <ele>151</ele>
        <time>2012-09-16T08:15:04Z</time>
      </trkpt>
      <trkpt lat="46.62476" lon="-0.2695">
        <ele>151</ele>
        <time>2012-09-16T08:15:10Z</time>
      </trkpt>
      <trkpt lat="46.6247" lon="-0.26953">
        <ele>151</ele>
        <time>2012-09-16T08:15:15Z</time>
      </trkpt>
      <trkpt lat="46.62463" lon="-0.26958">
        <ele>151</ele>
        <time>2012-09-16T08:15:21Z</time>
      </trkpt>
      <trkpt lat="46.62456" lon="-0.2696">
        <ele>151</ele>
        <time>2012-09-16T08:15:26Z</time>
      </trkpt>
      <trkpt lat="46.62451" lon="-0.26965">
        <ele>151</ele>
        <time>2012-09-16T08:15:31Z</time>
      </trkpt>
      <trkpt lat="46.62445" lon="-0.26968">
        <ele>152</ele>
        <time>2012-09-16T08:15:36Z</time>
      </trkpt>
      <trkpt lat="46.62439" lon="-0.26971">
        <ele>152</ele>
        <time>2012-09-16T08:15:41Z</time>
      </trkpt>
      <trkpt lat="46.62432" lon="-0.26974">
        <ele>152</ele>
        <time>2012-09-16T08:15:46Z</time>
      </trkpt>
      <trkpt lat="46.62426" lon="-0.26977">
        <ele>152</ele>
        <time>2012-09-16T08:15:51Z</time>
      </trkpt>
      <trkpt lat="46.6242" lon="-0.2698">
        <ele>152</ele>
        <time>2012-09-16T08:15:56Z</time>
      </trkpt>
      <trkpt lat="46.62414" lon="-0.26983">
        <ele>154</ele>
        <time>2012-09-16T08:16:01Z</time>
      </trkpt>
      <trkpt lat="46.62407" lon="-0.26987">
        <ele>154</ele>
        <time>2012-09-16T08:16:07Z</time>
      </trkpt>
      <trkpt lat="46.62402" lon="-0.2699">
        <ele>154</ele>
        <time>2012-09-16T08:16:12Z</time>
      </trkpt>
      <trkpt lat="46.62395" lon="-0.26993">
        <ele>154</ele>
        <time>2012-09-16T08:16:18Z</time>
      </trkpt>
      <trkpt lat="46.62387" lon="-0.26998">
        <ele>154</ele>
        <time>2012-09-16T08:16:24Z</time>
      </trkpt>
      <trkpt lat="46.62382" lon="-0.27001">
        <ele>154</ele>
        <time>2012-09-16T08:16:29Z</time>
      </trkpt>
      <trkpt lat="46.62374" lon="-0.27003">
        <ele>155</ele>
        <time>2012-09-16T08:16:34Z</time>
      </trkpt>
      <trkpt lat="46.62368" lon="-0.27005">
        <ele>155</ele>
        <time>2012-09-16T08:16:39Z</time>
      </trkpt>
      <trkpt lat="46.6236" lon="-0.2701">
        <ele>155</ele>
        <time>2012-09-16T08:16:46Z</time>
      </trkpt>
      <trkpt lat="46.62354" lon="-0.27013">
        <ele>155</ele>
        <time>2012-09-16T08:16:51Z</time>
      </trkpt>
      <trkpt lat="46.62348" lon="-0.27015">
        <ele>155</ele>
        <time>2012-09-16T08:16:56Z</time>
      </trkpt>
      <trkpt lat="46.62341" lon="-0.27019">
        <ele>156</ele>
        <time>2012-09-16T08:17:02Z</time>
      </trkpt>
      <trkpt lat="46.62335" lon="-0.27022">
        <ele>156</ele>
        <time>2012-09-16T08:17:07Z</time>
      </trkpt>
      <trkpt lat="46.62329" lon="-0.27024">
        <ele>157</ele>
        <time>2012-09-16T08:17:12Z</time>
      </trkpt>
      <trkpt lat="46.62325" lon="-0.27027">
        <ele>157</ele>
        <time>2012-09-16T08:17:17Z</time>
      </trkpt>
      <trkpt lat="46.6232" lon="-0.27028">
        <ele>157</ele>
        <time>2012-09-16T08:17:23Z</time>
      </trkpt>
      <trkpt lat="46.62316" lon="-0.27031">
        <ele>157</ele>
        <time>2012-09-16T08:17:29Z</time>
      </trkpt>
      <trkpt lat="46.62314" lon="-0.27031">
        <ele>157</ele>
        <time>2012-09-16T08:17:35Z</time>
      </trkpt>
      <trkpt lat="46.62312" lon="-0.27034">
        <ele>157</ele>
        <time>2012-09-16T08:17:45Z</time>
      </trkpt>
      <trkpt lat="46.62306" lon="-0.27036">
        <ele>157</ele>
        <time>2012-09-16T08:17:52Z</time>
      </trkpt>
      <trkpt lat="46.62303" lon="-0.27037">
        <ele>157</ele>
        <time>2012-09-16T08:17:59Z</time>
      </trkpt>
      <trkpt lat="46.62308" lon="-0.27037">
        <ele>157</ele>
        <time>2012-09-16T08:18:08Z</time>
      </trkpt>
      <trkpt lat="46.62301" lon="-0.27034">
        <ele>157</ele>
        <time>2012-09-16T08:18:29Z</time>
      </trkpt>
      <trkpt lat="46.62296" lon="-0.27036">
        <ele>157</ele>
        <time>2012-09-16T08:18:35Z</time>
      </trkpt>
      <trkpt lat="46.6229" lon="-0.2704">
        <ele>157</ele>
        <time>2012-09-16T08:18:40Z</time>
      </trkpt>
      <trkpt lat="46.62282" lon="-0.2704">
        <ele>157</ele>
        <time>2012-09-16T08:18:47Z</time>
      </trkpt>
      <trkpt lat="46.62275" lon="-0.27041">
        <ele>157</ele>
        <time>2012-09-16T08:18:53Z</time>
      </trkpt>
      <trkpt lat="46.62269" lon="-0.27043">
        <ele>157</ele>
        <time>2012-09-16T08:18:58Z</time>
      </trkpt>
      <trkpt lat="46.62262" lon="-0.27044">
        <ele>157</ele>
        <time>2012-09-16T08:19:04Z</time>
      </trkpt>
      <trkpt lat="46.62254" lon="-0.27045">
        <ele>157</ele>
        <time>2012-09-16T08:19:10Z</time>
      </trkpt>
      <trkpt lat="46.62248" lon="-0.27046">
        <ele>157</ele>
        <time>2012-09-16T08:19:15Z</time>
      </trkpt>
      <trkpt lat="46.62242" lon="-0.27047">
        <ele>157</ele>
        <time>2012-09-16T08:19:20Z</time>
      </trkpt>
      <trkpt lat="46.62234" lon="-0.27048">
        <ele>157</ele>
        <time>2012-09-16T08:19:26Z</time>
      </trkpt>
      <trkpt lat="46.62225" lon="-0.27048">
        <ele>157</ele>
        <time>2012-09-16T08:19:32Z</time>
      </trkpt>
      <trkpt lat="46.62219" lon="-0.27047">
        <ele>157</ele>
        <time>2012-09-16T08:19:37Z</time>
      </trkpt>
      <trkpt lat="46.62212" lon="-0.27044">
        <ele>157</ele>
        <time>2012-09-16T08:19:42Z</time>
      </trkpt>
      <trkpt lat="46.62206" lon="-0.27041">
        <ele>157</ele>
        <time>2012-09-16T08:19:47Z</time>
      </trkpt>
      <trkpt lat="46.622" lon="-0.27039">
        <ele>157</ele>
        <time>2012-09-16T08:19:52Z</time>
      </trkpt>
      <trkpt lat="46.62193" lon="-0.27036">
        <ele>157</ele>
        <time>2012-09-16T08:19:57Z</time>
      </trkpt>
      <trkpt lat="46.62187" lon="-0.27034">
        <ele>157</ele>
        <time>2012-09-16T08:20:02Z</time>
      </trkpt>
      <trkpt lat="46.6218" lon="-0.27032">
        <ele>157</ele>
        <time>2012-09-16T08:20:08Z</time>
      </trkpt>
      <trkpt lat="46.62174" lon="-0.2703">
        <ele>157</ele>
        <time>2012-09-16T08:20:13Z</time>
      </trkpt>
      <trkpt lat="46.62169" lon="-0.27028">
        <ele>157</ele>
        <time>2012-09-16T08:20:18Z</time>
      </trkpt>
      <trkpt lat="46.62163" lon="-0.27026">
        <ele>158</ele>
        <time>2012-09-16T08:20:24Z</time>
      </trkpt>
      <trkpt lat="46.62157" lon="-0.27024">
        <ele>158</ele>
        <time>2012-09-16T08:20:29Z</time>
      </trkpt>
      <trkpt lat="46.62148" lon="-0.27023">
        <ele>158</ele>
        <time>2012-09-16T08:20:35Z</time>
      </trkpt>
      <trkpt lat="46.62142" lon="-0.27021">
        <ele>158</ele>
        <time>2012-09-16T08:20:40Z</time>
      </trkpt>
      <trkpt lat="46.62134" lon="-0.27019">
        <ele>158</ele>
        <time>2012-09-16T08:20:46Z</time>
      </trkpt>
      <trkpt lat="46.62128" lon="-0.27016">
        <ele>159</ele>
        <time>2012-09-16T08:20:51Z</time>
      </trkpt>
      <trkpt lat="46.62121" lon="-0.27012">
        <ele>159</ele>
        <time>2012-09-16T08:20:57Z</time>
      </trkpt>
      <trkpt lat="46.62114" lon="-0.27006">
        <ele>159</ele>
        <time>2012-09-16T08:21:03Z</time>
      </trkpt>
      <trkpt lat="46.62109" lon="-0.26997">
        <ele>157</ele>
        <time>2012-09-16T08:21:09Z</time>
      </trkpt>
      <trkpt lat="46.62105" lon="-0.26987">
        <ele>157</ele>
        <time>2012-09-16T08:21:14Z</time>
      </trkpt>
      <trkpt lat="46.62104" lon="-0.26978">
        <ele>156</ele>
        <time>2012-09-16T08:21:19Z</time>
      </trkpt>
      <trkpt lat="46.62103" lon="-0.26967">
        <ele>156</ele>
        <time>2012-09-16T08:21:24Z</time>
      </trkpt>
      <trkpt lat="46.62103" lon="-0.26958">
        <ele>156</ele>
        <time>2012-09-16T08:21:29Z</time>
      </trkpt>
      <trkpt lat="46.62102" lon="-0.26947">
        <ele>156</ele>
        <time>2012-09-16T08:21:35Z</time>
      </trkpt>
      <trkpt lat="46.62102" lon="-0.26939">
        <ele>156</ele>
        <time>2012-09-16T08:21:40Z</time>
      </trkpt>
      <trkpt lat="46.62102" lon="-0.26927">
        <ele>155</ele>
        <time>2012-09-16T08:21:46Z</time>
      </trkpt>
      <trkpt lat="46.62103" lon="-0.26917">
        <ele>155</ele>
        <time>2012-09-16T08:21:52Z</time>
      </trkpt>
      <trkpt lat="46.62103" lon="-0.26905">
        <ele>155</ele>
        <time>2012-09-16T08:21:58Z</time>
      </trkpt>
      <trkpt lat="46.62104" lon="-0.26894">
        <ele>154</ele>
        <time>2012-09-16T08:22:04Z</time>
      </trkpt>
      <trkpt lat="46.62103" lon="-0.26883">
        <ele>154</ele>
        <time>2012-09-16T08:22:10Z</time>
      </trkpt>
      <trkpt lat="46.62102" lon="-0.26871">
        <ele>154</ele>
        <time>2012-09-16T08:22:16Z</time>
      </trkpt>
      <trkpt lat="46.62103" lon="-0.26861">
        <ele>154</ele>
        <time>2012-09-16T08:22:21Z</time>
      </trkpt>
      <trkpt lat="46.62101" lon="-0.26852">
        <ele>154</ele>
        <time>2012-09-16T08:22:26Z</time>
      </trkpt>
      <trkpt lat="46.62099" lon="-0.26841">
        <ele>154</ele>
        <time>2012-09-16T08:22:32Z</time>
      </trkpt>
      <trkpt lat="46.62097" lon="-0.26833">
        <ele>154</ele>
        <time>2012-09-16T08:22:37Z</time>
      </trkpt>
      <trkpt lat="46.62093" lon="-0.26823">
        <ele>154</ele>
        <time>2012-09-16T08:22:43Z</time>
      </trkpt>
      <trkpt lat="46.62088" lon="-0.26814">
        <ele>154</ele>
        <time>2012-09-16T08:22:49Z</time>
      </trkpt>
      <trkpt lat="46.62083" lon="-0.26806">
        <ele>153</ele>
        <time>2012-09-16T08:22:55Z</time>
      </trkpt>
      <trkpt lat="46.62078" lon="-0.26796">
        <ele>153</ele>
        <time>2012-09-16T08:23:01Z</time>
      </trkpt>
      <trkpt lat="46.62074" lon="-0.26789">
        <ele>153</ele>
        <time>2012-09-16T08:23:06Z</time>
      </trkpt>
      <trkpt lat="46.6207" lon="-0.26781">
        <ele>152</ele>
        <time>2012-09-16T08:23:11Z</time>
      </trkpt>
      <trkpt lat="46.62065" lon="-0.26773">
        <ele>152</ele>
        <time>2012-09-16T08:23:16Z</time>
      </trkpt>
      <trkpt lat="46.6206" lon="-0.26765">
        <ele>152</ele>
        <time>2012-09-16T08:23:21Z</time>
      </trkpt>
      <trkpt lat="46.62054" lon="-0.26756">
        <ele>152</ele>
        <time>2012-09-16T08:23:27Z</time>
      </trkpt>
      <trkpt lat="46.62049" lon="-0.26747">
        <ele>151</ele>
        <time>2012-09-16T08:23:33Z</time>
      </trkpt>
      <trkpt lat="46.62044" lon="-0.26738">
        <ele>151</ele>
        <time>2012-09-16T08:23:39Z</time>
      </trkpt>
      <trkpt lat="46.62041" lon="-0.2673">
        <ele>151</ele>
        <time>2012-09-16T08:23:44Z</time>
      </trkpt>
      <trkpt lat="46.62036" lon="-0.26718">
        <ele>151</ele>
        <time>2012-09-16T08:23:50Z</time>
      </trkpt>
      <trkpt lat="46.62033" lon="-0.26708">
        <ele>151</ele>
        <time>2012-09-16T08:23:55Z</time>
      </trkpt>
      <trkpt lat="46.62031" lon="-0.26698">
        <ele>151</ele>
        <time>2012-09-16T08:24:00Z</time>
      </trkpt>
      <trkpt lat="46.62029" lon="-0.26687">
        <ele>151</ele>
        <time>2012-09-16T08:24:06Z</time>
      </trkpt>
      <trkpt lat="46.62026" lon="-0.26678">
        <ele>151</ele>
        <time>2012-09-16T08:24:12Z</time>
      </trkpt>
      <trkpt lat="46.62024" lon="-0.26668">
        <ele>151</ele>
        <time>2012-09-16T08:24:17Z</time>
      </trkpt>
      <trkpt lat="46.62022" lon="-0.26659">
        <ele>152</ele>
        <time>2012-09-16T08:24:22Z</time>
      </trkpt>
      <trkpt lat="46.62019" lon="-0.26648">
        <ele>152</ele>
        <time>2012-09-16T08:24:28Z</time>
      </trkpt>
      <trkpt lat="46.62016" lon="-0.26639">
        <ele>152</ele>
        <time>2012-09-16T08:24:34Z</time>
      </trkpt>
      <trkpt lat="46.62012" lon="-0.2663">
        <ele>152</ele>
        <time>2012-09-16T08:24:40Z</time>
      </trkpt>
      <trkpt lat="46.62009" lon="-0.26621">
        <ele>152</ele>
        <time>2012-09-16T08:24:45Z</time>
      </trkpt>
      <trkpt lat="46.62005" lon="-0.26611">
        <ele>153</ele>
        <time>2012-09-16T08:24:50Z</time>
      </trkpt>
      <trkpt lat="46.62002" lon="-0.26602">
        <ele>153</ele>
        <time>2012-09-16T08:24:55Z</time>
      </trkpt>
      <trkpt lat="46.61996" lon="-0.26592">
        <ele>155</ele>
        <time>2012-09-16T08:25:02Z</time>
      </trkpt>
      <trkpt lat="46.61991" lon="-0.26583">
        <ele>155</ele>
        <time>2012-09-16T08:25:08Z</time>
      </trkpt>
      <trkpt lat="46.61985" lon="-0.26574">
        <ele>156</ele>
        <time>2012-09-16T08:25:14Z</time>
      </trkpt>
      <trkpt lat="46.61979" lon="-0.26567">
        <ele>156</ele>
        <time>2012-09-16T08:25:20Z</time>
      </trkpt>
      <trkpt lat="46.61974" lon="-0.26559">
        <ele>156</ele>
        <time>2012-09-16T08:25:25Z</time>
      </trkpt>
      <trkpt lat="46.61969" lon="-0.2655">
        <ele>156</ele>
        <time>2012-09-16T08:25:31Z</time>
      </trkpt>
      <trkpt lat="46.61964" lon="-0.26541">
        <ele>156</ele>
        <time>2012-09-16T08:25:37Z</time>
      </trkpt>
      <trkpt lat="46.6196" lon="-0.26534">
        <ele>156</ele>
        <time>2012-09-16T08:25:42Z</time>
      </trkpt>
      <trkpt lat="46.61955" lon="-0.2653">
        <ele>156</ele>
        <time>2012-09-16T08:25:47Z</time>
      </trkpt>
      <trkpt lat="46.61951" lon="-0.26529">
        <ele>156</ele>
        <time>2012-09-16T08:25:52Z</time>
      </trkpt>
      <trkpt lat="46.61946" lon="-0.26531">
        <ele>156</ele>
        <time>2012-09-16T08:25:59Z</time>
      </trkpt>
      <trkpt lat="46.61937" lon="-0.26539">
        <ele>156</ele>
        <time>2012-09-16T08:26:05Z</time>
      </trkpt>
      <trkpt lat="46.61932" lon="-0.26543">
        <ele>156</ele>
        <time>2012-09-16T08:26:10Z</time>
      </trkpt>
      <trkpt lat="46.61926" lon="-0.26548">
        <ele>156</ele>
        <time>2012-09-16T08:26:15Z</time>
      </trkpt>
      <trkpt lat="46.6192" lon="-0.26553">
        <ele>156</ele>
        <time>2012-09-16T08:26:20Z</time>
      </trkpt>
      <trkpt lat="46.61913" lon="-0.26559">
        <ele>157</ele>
        <time>2012-09-16T08:26:27Z</time>
      </trkpt>
      <trkpt lat="46.61906" lon="-0.26561">
        <ele>157</ele>
        <time>2012-09-16T08:26:32Z</time>
      </trkpt>
      <trkpt lat="46.61899" lon="-0.26566">
        <ele>157</ele>
        <time>2012-09-16T08:26:39Z</time>
      </trkpt>
      <trkpt lat="46.61893" lon="-0.2657">
        <ele>157</ele>
        <time>2012-09-16T08:26:44Z</time>
      </trkpt>
      <trkpt lat="46.61885" lon="-0.26575">
        <ele>158</ele>
        <time>2012-09-16T08:26:50Z</time>
      </trkpt>
      <trkpt lat="46.61878" lon="-0.26583">
        <ele>158</ele>
        <time>2012-09-16T08:26:57Z</time>
      </trkpt>
      <trkpt lat="46.61872" lon="-0.26586">
        <ele>158</ele>
        <time>2012-09-16T08:27:02Z</time>
      </trkpt>
      <trkpt lat="46.61867" lon="-0.2659">
        <ele>159</ele>
        <time>2012-09-16T08:27:07Z</time>
      </trkpt>
      <trkpt lat="46.61861" lon="-0.26594">
        <ele>159</ele>
        <time>2012-09-16T08:27:12Z</time>
      </trkpt>
      <trkpt lat="46.61856" lon="-0.26599">
        <ele>159</ele>
        <time>2012-09-16T08:27:17Z</time>
      </trkpt>
      <trkpt lat="46.6185" lon="-0.26601">
        <ele>159</ele>
        <time>2012-09-16T08:27:22Z</time>
      </trkpt>
      <trkpt lat="46.61842" lon="-0.26606">
        <ele>159</ele>
        <time>2012-09-16T08:27:29Z</time>
      </trkpt>
      <trkpt lat="46.61836" lon="-0.26612">
        <ele>159</ele>
        <time>2012-09-16T08:27:34Z</time>
      </trkpt>
      <trkpt lat="46.61831" lon="-0.26616">
        <ele>161</ele>
        <time>2012-09-16T08:27:39Z</time>
      </trkpt>
      <trkpt lat="46.61825" lon="-0.26619">
        <ele>161</ele>
        <time>2012-09-16T08:27:44Z</time>
      </trkpt>
      <trkpt lat="46.61819" lon="-0.26625">
        <ele>162</ele>
        <time>2012-09-16T08:27:49Z</time>
      </trkpt>
      <trkpt lat="46.61813" lon="-0.26629">
        <ele>162</ele>
        <time>2012-09-16T08:27:55Z</time>
      </trkpt>
      <trkpt lat="46.61806" lon="-0.26631">
        <ele>162</ele>
        <time>2012-09-16T08:28:00Z</time>
      </trkpt>
      <trkpt lat="46.61797" lon="-0.26633">
        <ele>162</ele>
        <time>2012-09-16T08:28:07Z</time>
      </trkpt>
      <trkpt lat="46.61789" lon="-0.26636">
        <ele>162</ele>
        <time>2012-09-16T08:28:13Z</time>
      </trkpt>
      <trkpt lat="46.61783" lon="-0.26637">
        <ele>162</ele>
        <time>2012-09-16T08:28:18Z</time>
      </trkpt>
      <trkpt lat="46.61777" lon="-0.26638">
        <ele>163</ele>
        <time>2012-09-16T08:28:23Z</time>
      </trkpt>
      <trkpt lat="46.61769" lon="-0.26641">
        <ele>163</ele>
        <time>2012-09-16T08:28:29Z</time>
      </trkpt>
      <trkpt lat="46.61762" lon="-0.26642">
        <ele>163</ele>
        <time>2012-09-16T08:28:34Z</time>
      </trkpt>
      <trkpt lat="46.61755" lon="-0.26644">
        <ele>163</ele>
        <time>2012-09-16T08:28:40Z</time>
      </trkpt>
      <trkpt lat="46.61749" lon="-0.26645">
        <ele>163</ele>
        <time>2012-09-16T08:28:45Z</time>
      </trkpt>
      <trkpt lat="46.61741" lon="-0.26647">
        <ele>163</ele>
        <time>2012-09-16T08:28:51Z</time>
      </trkpt>
      <trkpt lat="46.61734" lon="-0.26648">
        <ele>163</ele>
        <time>2012-09-16T08:28:56Z</time>
      </trkpt>
      <trkpt lat="46.61728" lon="-0.2665">
        <ele>163</ele>
        <time>2012-09-16T08:29:01Z</time>
      </trkpt>
      <trkpt lat="46.61719" lon="-0.26651">
        <ele>163</ele>
        <time>2012-09-16T08:29:07Z</time>
      </trkpt>
      <trkpt lat="46.61711" lon="-0.26652">
        <ele>163</ele>
        <time>2012-09-16T08:29:13Z</time>
      </trkpt>
      <trkpt lat="46.61703" lon="-0.26654">
        <ele>163</ele>
        <time>2012-09-16T08:29:19Z</time>
      </trkpt>
      <trkpt lat="46.61695" lon="-0.26654">
        <ele>163</ele>
        <time>2012-09-16T08:29:24Z</time>
      </trkpt>
      <trkpt lat="46.61689" lon="-0.26655">
        <ele>162</ele>
        <time>2012-09-16T08:29:29Z</time>
      </trkpt>
      <trkpt lat="46.61683" lon="-0.26657">
        <ele>162</ele>
        <time>2012-09-16T08:29:34Z</time>
      </trkpt>
      <trkpt lat="46.61677" lon="-0.26659">
        <ele>162</ele>
        <time>2012-09-16T08:29:39Z</time>
      </trkpt>
      <trkpt lat="46.61672" lon="-0.2666">
        <ele>162</ele>
        <time>2012-09-16T08:29:44Z</time>
      </trkpt>
      <trkpt lat="46.61664" lon="-0.26661">
        <ele>162</ele>
        <time>2012-09-16T08:29:50Z</time>
      </trkpt>
      <trkpt lat="46.61658" lon="-0.26658">
        <ele>162</ele>
        <time>2012-09-16T08:29:55Z</time>
      </trkpt>
      <trkpt lat="46.61655" lon="-0.26651">
        <ele>161</ele>
        <time>2012-09-16T08:30:00Z</time>
      </trkpt>
      <trkpt lat="46.61654" lon="-0.26641">
        <ele>161</ele>
        <time>2012-09-16T08:30:05Z</time>
      </trkpt>
      <trkpt lat="46.61654" lon="-0.2663">
        <ele>161</ele>
        <time>2012-09-16T08:30:11Z</time>
      </trkpt>
      <trkpt lat="46.61654" lon="-0.26621">
        <ele>161</ele>
        <time>2012-09-16T08:30:16Z</time>
      </trkpt>
      <trkpt lat="46.61654" lon="-0.2661">
        <ele>161</ele>
        <time>2012-09-16T08:30:21Z</time>
      </trkpt>
      <trkpt lat="46.61655" lon="-0.266">
        <ele>161</ele>
        <time>2012-09-16T08:30:26Z</time>
      </trkpt>
      <trkpt lat="46.61656" lon="-0.2659">
        <ele>162</ele>
        <time>2012-09-16T08:30:31Z</time>
      </trkpt>
      <trkpt lat="46.61656" lon="-0.26581">
        <ele>161</ele>
        <time>2012-09-16T08:30:36Z</time>
      </trkpt>
      <trkpt lat="46.61655" lon="-0.26569">
        <ele>161</ele>
        <time>2012-09-16T08:30:42Z</time>
      </trkpt>
      <trkpt lat="46.61653" lon="-0.26561">
        <ele>161</ele>
        <time>2012-09-16T08:30:47Z</time>
      </trkpt>
      <trkpt lat="46.61652" lon="-0.26552">
        <ele>161</ele>
        <time>2012-09-16T08:30:52Z</time>
      </trkpt>
      <trkpt lat="46.61651" lon="-0.26544">
        <ele>160</ele>
        <time>2012-09-16T08:30:57Z</time>
      </trkpt>
      <trkpt lat="46.6165" lon="-0.26533">
        <ele>160</ele>
        <time>2012-09-16T08:31:03Z</time>
      </trkpt>
      <trkpt lat="46.61647" lon="-0.2652">
        <ele>160</ele>
        <time>2012-09-16T08:31:09Z</time>
      </trkpt>
      <trkpt lat="46.61646" lon="-0.26509">
        <ele>160</ele>
        <time>2012-09-16T08:31:15Z</time>
      </trkpt>
      <trkpt lat="46.61645" lon="-0.26498">
        <ele>159</ele>
        <time>2012-09-16T08:31:20Z</time>
      </trkpt>
      <trkpt lat="46.61645" lon="-0.26488">
        <ele>159</ele>
        <time>2012-09-16T08:31:25Z</time>
      </trkpt>
      <trkpt lat="46.61646" lon="-0.26476">
        <ele>159</ele>
        <time>2012-09-16T08:31:31Z</time>
      </trkpt>
      <trkpt lat="46.61648" lon="-0.26466">
        <ele>159</ele>
        <time>2012-09-16T08:31:36Z</time>
      </trkpt>
      <trkpt lat="46.61649" lon="-0.26456">
        <ele>158</ele>
        <time>2012-09-16T08:31:41Z</time>
      </trkpt>
      <trkpt lat="46.61649" lon="-0.26448">
        <ele>158</ele>
        <time>2012-09-16T08:31:46Z</time>
      </trkpt>
      <trkpt lat="46.61651" lon="-0.26436">
        <ele>158</ele>
        <time>2012-09-16T08:31:52Z</time>
      </trkpt>
      <trkpt lat="46.61653" lon="-0.26427">
        <ele>158</ele>
        <time>2012-09-16T08:31:57Z</time>
      </trkpt>
      <trkpt lat="46.61654" lon="-0.26417">
        <ele>158</ele>
        <time>2012-09-16T08:32:02Z</time>
      </trkpt>
      <trkpt lat="46.61655" lon="-0.26407">
        <ele>157</ele>
        <time>2012-09-16T08:32:07Z</time>
      </trkpt>
      <trkpt lat="46.61655" lon="-0.26394">
        <ele>157</ele>
        <time>2012-09-16T08:32:13Z</time>
      </trkpt>
      <trkpt lat="46.61655" lon="-0.26383">
        <ele>157</ele>
        <time>2012-09-16T08:32:19Z</time>
      </trkpt>
      <trkpt lat="46.61655" lon="-0.26371">
        <ele>157</ele>
        <time>2012-09-16T08:32:25Z</time>
      </trkpt>
      <trkpt lat="46.61654" lon="-0.26362">
        <ele>157</ele>
        <time>2012-09-16T08:32:30Z</time>
      </trkpt>
      <trkpt lat="46.61654" lon="-0.26351">
        <ele>156</ele>
        <time>2012-09-16T08:32:36Z</time>
      </trkpt>
      <trkpt lat="46.61654" lon="-0.2634">
        <ele>156</ele>
        <time>2012-09-16T08:32:42Z</time>
      </trkpt>
      <trkpt lat="46.61649" lon="-0.26332">
        <ele>156</ele>
        <time>2012-09-16T08:32:48Z</time>
      </trkpt>
      <trkpt lat="46.61642" lon="-0.26333">
        <ele>156</ele>
        <time>2012-09-16T08:32:54Z</time>
      </trkpt>
      <trkpt lat="46.61636" lon="-0.26335">
        <ele>156</ele>
        <time>2012-09-16T08:32:59Z</time>
      </trkpt>
      <trkpt lat="46.6163" lon="-0.26336">
        <ele>156</ele>
        <time>2012-09-16T08:33:04Z</time>
      </trkpt>
      <trkpt lat="46.61624" lon="-0.26338">
        <ele>156</ele>
        <time>2012-09-16T08:33:09Z</time>
      </trkpt>
      <trkpt lat="46.61616" lon="-0.26341">
        <ele>156</ele>
        <time>2012-09-16T08:33:15Z</time>
      </trkpt>
      <trkpt lat="46.61609" lon="-0.26345">
        <ele>156</ele>
        <time>2012-09-16T08:33:21Z</time>
      </trkpt>
      <trkpt lat="46.61603" lon="-0.26347">
        <ele>156</ele>
        <time>2012-09-16T08:33:26Z</time>
      </trkpt>
      <trkpt lat="46.61596" lon="-0.26353">
        <ele>156</ele>
        <time>2012-09-16T08:33:32Z</time>
      </trkpt>
      <trkpt lat="46.6159" lon="-0.26356">
        <ele>156</ele>
        <time>2012-09-16T08:33:37Z</time>
      </trkpt>
      <trkpt lat="46.61583" lon="-0.26359">
        <ele>156</ele>
        <time>2012-09-16T08:33:42Z</time>
      </trkpt>
      <trkpt lat="46.61577" lon="-0.26364">
        <ele>156</ele>
        <time>2012-09-16T08:33:48Z</time>
      </trkpt>
      <trkpt lat="46.6157" lon="-0.26369">
        <ele>156</ele>
        <time>2012-09-16T08:33:54Z</time>
      </trkpt>
      <trkpt lat="46.61564" lon="-0.26373">
        <ele>156</ele>
        <time>2012-09-16T08:33:59Z</time>
      </trkpt>
      <trkpt lat="46.61558" lon="-0.26376">
        <ele>156</ele>
        <time>2012-09-16T08:34:04Z</time>
      </trkpt>
      <trkpt lat="46.61552" lon="-0.2638">
        <ele>156</ele>
        <time>2012-09-16T08:34:09Z</time>
      </trkpt>
      <trkpt lat="46.61546" lon="-0.26384">
        <ele>156</ele>
        <time>2012-09-16T08:34:14Z</time>
      </trkpt>
      <trkpt lat="46.61538" lon="-0.26388">
        <ele>156</ele>
        <time>2012-09-16T08:34:20Z</time>
      </trkpt>
      <trkpt lat="46.61532" lon="-0.2639">
        <ele>156</ele>
        <time>2012-09-16T08:34:25Z</time>
      </trkpt>
      <trkpt lat="46.61527" lon="-0.2639">
        <ele>156</ele>
        <time>2012-09-16T08:34:32Z</time>
      </trkpt>
      <trkpt lat="46.6152" lon="-0.26398">
        <ele>156</ele>
        <time>2012-09-16T08:34:52Z</time>
      </trkpt>
      <trkpt lat="46.61515" lon="-0.264">
        <ele>156</ele>
        <time>2012-09-16T08:34:58Z</time>
      </trkpt>
      <trkpt lat="46.6151" lon="-0.26403">
        <ele>156</ele>
        <time>2012-09-16T08:35:03Z</time>
      </trkpt>
      <trkpt lat="46.61505" lon="-0.26406">
        <ele>156</ele>
        <time>2012-09-16T08:35:09Z</time>
      </trkpt>
      <trkpt lat="46.61499" lon="-0.26407">
        <ele>155</ele>
        <time>2012-09-16T08:35:14Z</time>
      </trkpt>
      <trkpt lat="46.61492" lon="-0.2641">
        <ele>155</ele>
        <time>2012-09-16T08:35:20Z</time>
      </trkpt>
      <trkpt lat="46.61488" lon="-0.26413">
        <ele>155</ele>
        <time>2012-09-16T08:35:25Z</time>
      </trkpt>
      <trkpt lat="46.61482" lon="-0.26415">
        <ele>155</ele>
        <time>2012-09-16T08:35:30Z</time>
      </trkpt>
      <trkpt lat="46.61475" lon="-0.26418">
        <ele>155</ele>
        <time>2012-09-16T08:35:37Z</time>
      </trkpt>
      <trkpt lat="46.6147" lon="-0.2642">
        <ele>155</ele>
        <time>2012-09-16T08:35:42Z</time>
      </trkpt>
      <trkpt lat="46.61464" lon="-0.26424">
        <ele>155</ele>
        <time>2012-09-16T08:35:47Z</time>
      </trkpt>
      <trkpt lat="46.61458" lon="-0.26427">
        <ele>155</ele>
        <time>2012-09-16T08:35:52Z</time>
      </trkpt>
      <trkpt lat="46.61452" lon="-0.26428">
        <ele>155</ele>
        <time>2012-09-16T08:35:57Z</time>
      </trkpt>
      <trkpt lat="46.61447" lon="-0.26432">
        <ele>155</ele>
        <time>2012-09-16T08:36:02Z</time>
      </trkpt>
      <trkpt lat="46.61439" lon="-0.26433">
        <ele>155</ele>
        <time>2012-09-16T08:36:08Z</time>
      </trkpt>
      <trkpt lat="46.61433" lon="-0.26434">
        <ele>154</ele>
        <time>2012-09-16T08:36:13Z</time>
      </trkpt>
      <trkpt lat="46.61426" lon="-0.26435">
        <ele>154</ele>
        <time>2012-09-16T08:36:18Z</time>
      </trkpt>
      <trkpt lat="46.6142" lon="-0.26436">
        <ele>154</ele>
        <time>2012-09-16T08:36:23Z</time>
      </trkpt>
      <trkpt lat="46.61414" lon="-0.26439">
        <ele>153</ele>
        <time>2012-09-16T08:36:28Z</time>
      </trkpt>
      <trkpt lat="46.61407" lon="-0.26441">
        <ele>153</ele>
        <time>2012-09-16T08:36:34Z</time>
      </trkpt>
      <trkpt lat="46.61401" lon="-0.26443">
        <ele>153</ele>
        <time>2012-09-16T08:36:39Z</time>
      </trkpt>
      <trkpt lat="46.61395" lon="-0.26446">
        <ele>153</ele>
        <time>2012-09-16T08:36:44Z</time>
      </trkpt>
      <trkpt lat="46.61389" lon="-0.26449">
        <ele>153</ele>
        <time>2012-09-16T08:36:49Z</time>
      </trkpt>
      <trkpt lat="46.61382" lon="-0.26452">
        <ele>153</ele>
        <time>2012-09-16T08:36:55Z</time>
      </trkpt>
      <trkpt lat="46.61377" lon="-0.26455">
        <ele>153</ele>
        <time>2012-09-16T08:37:00Z</time>
      </trkpt>
      <trkpt lat="46.61371" lon="-0.26457">
        <ele>153</ele>
        <time>2012-09-16T08:37:05Z</time>
      </trkpt>
      <trkpt lat="46.61365" lon="-0.26459">
        <ele>153</ele>
        <time>2012-09-16T08:37:10Z</time>
      </trkpt>
      <trkpt lat="46.61359" lon="-0.26461">
        <ele>153</ele>
        <time>2012-09-16T08:37:16Z</time>
      </trkpt>
      <trkpt lat="46.61354" lon="-0.26462">
        <ele>153</ele>
        <time>2012-09-16T08:37:21Z</time>
      </trkpt>
      <trkpt lat="46.61347" lon="-0.26462">
        <ele>153</ele>
        <time>2012-09-16T08:37:26Z</time>
      </trkpt>
      <trkpt lat="46.6133" lon="-0.26456">
        <ele>154</ele>
        <time>2012-09-16T08:37:32Z</time>
      </trkpt>
      <trkpt lat="46.61317" lon="-0.26448">
        <ele>154</ele>
        <time>2012-09-16T08:37:37Z</time>
      </trkpt>
      <trkpt lat="46.61306" lon="-0.26435">
        <ele>154</ele>
        <time>2012-09-16T08:37:42Z</time>
      </trkpt>
      <trkpt lat="46.61298" lon="-0.26425">
        <ele>154</ele>
        <time>2012-09-16T08:37:48Z</time>
      </trkpt>
      <trkpt lat="46.61292" lon="-0.26418">
        <ele>154</ele>
        <time>2012-09-16T08:37:53Z</time>
      </trkpt>
      <trkpt lat="46.61287" lon="-0.26413">
        <ele>153</ele>
        <time>2012-09-16T08:37:58Z</time>
      </trkpt>
      <trkpt lat="46.61281" lon="-0.26407">
        <ele>153</ele>
        <time>2012-09-16T08:38:03Z</time>
      </trkpt>
      <trkpt lat="46.61275" lon="-0.26403">
        <ele>153</ele>
        <time>2012-09-16T08:38:08Z</time>
      </trkpt>
      <trkpt lat="46.6127" lon="-0.26395">
        <ele>153</ele>
        <time>2012-09-16T08:38:14Z</time>
      </trkpt>
      <trkpt lat="46.61266" lon="-0.26387">
        <ele>153</ele>
        <time>2012-09-16T08:38:19Z</time>
      </trkpt>
      <trkpt lat="46.61261" lon="-0.26378">
        <ele>153</ele>
        <time>2012-09-16T08:38:26Z</time>
      </trkpt>
      <trkpt lat="46.61255" lon="-0.26382">
        <ele>153</ele>
        <time>2012-09-16T08:38:32Z</time>
      </trkpt>
      <trkpt lat="46.6125" lon="-0.26386">
        <ele>155</ele>
        <time>2012-09-16T08:38:38Z</time>
      </trkpt>
      <trkpt lat="46.61245" lon="-0.2639">
        <ele>155</ele>
        <time>2012-09-16T08:38:44Z</time>
      </trkpt>
      <trkpt lat="46.61239" lon="-0.26393">
        <ele>155</ele>
        <time>2012-09-16T08:38:50Z</time>
      </trkpt>
      <trkpt lat="46.61234" lon="-0.26396">
        <ele>155</ele>
        <time>2012-09-16T08:38:55Z</time>
      </trkpt>
      <trkpt lat="46.61226" lon="-0.26401">
        <ele>155</ele>
        <time>2012-09-16T08:39:02Z</time>
      </trkpt>
      <trkpt lat="46.6122" lon="-0.26405">
        <ele>155</ele>
        <time>2012-09-16T08:39:07Z</time>
      </trkpt>
      <trkpt lat="46.61215" lon="-0.26409">
        <ele>155</ele>
        <time>2012-09-16T08:39:12Z</time>
      </trkpt>
      <trkpt lat="46.61209" lon="-0.26413">
        <ele>155</ele>
        <time>2012-09-16T08:39:17Z</time>
      </trkpt>
      <trkpt lat="46.61204" lon="-0.26418">
        <ele>157</ele>
        <time>2012-09-16T08:39:22Z</time>
      </trkpt>
      <trkpt lat="46.61198" lon="-0.26422">
        <ele>157</ele>
        <time>2012-09-16T08:39:27Z</time>
      </trkpt>
      <trkpt lat="46.61192" lon="-0.26424">
        <ele>157</ele>
        <time>2012-09-16T08:39:32Z</time>
      </trkpt>
      <trkpt lat="46.61186" lon="-0.26428">
        <ele>157</ele>
        <time>2012-09-16T08:39:37Z</time>
      </trkpt>
      <trkpt lat="46.6118" lon="-0.26431">
        <ele>157</ele>
        <time>2012-09-16T08:39:42Z</time>
      </trkpt>
      <trkpt lat="46.61174" lon="-0.26435">
        <ele>157</ele>
        <time>2012-09-16T08:39:47Z</time>
      </trkpt>
      <trkpt lat="46.61169" lon="-0.2644">
        <ele>157</ele>
        <time>2012-09-16T08:39:52Z</time>
      </trkpt>
      <trkpt lat="46.61163" lon="-0.26443">
        <ele>158</ele>
        <time>2012-09-16T08:39:57Z</time>
      </trkpt>
      <trkpt lat="46.61156" lon="-0.2645">
        <ele>158</ele>
        <time>2012-09-16T08:40:04Z</time>
      </trkpt>
      <trkpt lat="46.61151" lon="-0.26454">
        <ele>158</ele>
        <time>2012-09-16T08:40:09Z</time>
      </trkpt>
      <trkpt lat="46.61144" lon="-0.26458">
        <ele>158</ele>
        <time>2012-09-16T08:40:15Z</time>
      </trkpt>
      <trkpt lat="46.61137" lon="-0.26463">
        <ele>158</ele>
        <time>2012-09-16T08:40:21Z</time>
      </trkpt>
      <trkpt lat="46.61132" lon="-0.26467">
        <ele>158</ele>
        <time>2012-09-16T08:40:26Z</time>
      </trkpt>
      <trkpt lat="46.61127" lon="-0.26471">
        <ele>158</ele>
        <time>2012-09-16T08:40:31Z</time>
      </trkpt>
      <trkpt lat="46.61121" lon="-0.26475">
        <ele>158</ele>
        <time>2012-09-16T08:40:36Z</time>
      </trkpt>
      <trkpt lat="46.61115" lon="-0.26478">
        <ele>159</ele>
        <time>2012-09-16T08:40:41Z</time>
      </trkpt>
      <trkpt lat="46.6111" lon="-0.26483">
        <ele>159</ele>
        <time>2012-09-16T08:40:46Z</time>
      </trkpt>
      <trkpt lat="46.61104" lon="-0.26486">
        <ele>159</ele>
        <time>2012-09-16T08:40:51Z</time>
      </trkpt>
      <trkpt lat="46.61098" lon="-0.26491">
        <ele>159</ele>
        <time>2012-09-16T08:40:57Z</time>
      </trkpt>
      <trkpt lat="46.61091" lon="-0.26497">
        <ele>159</ele>
        <time>2012-09-16T08:41:03Z</time>
      </trkpt>
      <trkpt lat="46.61085" lon="-0.265">
        <ele>160</ele>
        <time>2012-09-16T08:41:08Z</time>
      </trkpt>
      <trkpt lat="46.61078" lon="-0.265">
        <ele>160</ele>
        <time>2012-09-16T08:41:13Z</time>
      </trkpt>
      <trkpt lat="46.61072" lon="-0.26505">
        <ele>160</ele>
        <time>2012-09-16T08:41:19Z</time>
      </trkpt>
      <trkpt lat="46.61066" lon="-0.26509">
        <ele>160</ele>
        <time>2012-09-16T08:41:24Z</time>
      </trkpt>
      <trkpt lat="46.6106" lon="-0.26514">
        <ele>160</ele>
        <time>2012-09-16T08:41:29Z</time>
      </trkpt>
      <trkpt lat="46.61054" lon="-0.26518">
        <ele>160</ele>
        <time>2012-09-16T08:41:34Z</time>
      </trkpt>
      <trkpt lat="46.61049" lon="-0.26524">
        <ele>160</ele>
        <time>2012-09-16T08:41:39Z</time>
      </trkpt>
      <trkpt lat="46.61043" lon="-0.26526">
        <ele>160</ele>
        <time>2012-09-16T08:41:44Z</time>
      </trkpt>
      <trkpt lat="46.61037" lon="-0.2653">
        <ele>160</ele>
        <time>2012-09-16T08:41:49Z</time>
      </trkpt>
      <trkpt lat="46.61032" lon="-0.26535">
        <ele>160</ele>
        <time>2012-09-16T08:41:54Z</time>
      </trkpt>
      <trkpt lat="46.61026" lon="-0.26537">
        <ele>160</ele>
        <time>2012-09-16T08:41:59Z</time>
      </trkpt>
      <trkpt lat="46.61019" lon="-0.2654">
        <ele>160</ele>
        <time>2012-09-16T08:42:04Z</time>
      </trkpt>
      <trkpt lat="46.61014" lon="-0.26544">
        <ele>160</ele>
        <time>2012-09-16T08:42:09Z</time>
      </trkpt>
      <trkpt lat="46.61008" lon="-0.26548">
        <ele>160</ele>
        <time>2012-09-16T08:42:14Z</time>
      </trkpt>
      <trkpt lat="46.61002" lon="-0.26555">
        <ele>160</ele>
        <time>2012-09-16T08:42:20Z</time>
      </trkpt>
      <trkpt lat="46.60996" lon="-0.2656">
        <ele>158</ele>
        <time>2012-09-16T08:42:26Z</time>
      </trkpt>
      <trkpt lat="46.6099" lon="-0.26565">
        <ele>158</ele>
        <time>2012-09-16T08:42:31Z</time>
      </trkpt>
      <trkpt lat="46.60983" lon="-0.26571">
        <ele>158</ele>
        <time>2012-09-16T08:42:37Z</time>
      </trkpt>
      <trkpt lat="46.60977" lon="-0.26576">
        <ele>157</ele>
        <time>2012-09-16T08:42:43Z</time>
      </trkpt>
      <trkpt lat="46.6097" lon="-0.26581">
        <ele>157</ele>
        <time>2012-09-16T08:42:49Z</time>
      </trkpt>
      <trkpt lat="46.60962" lon="-0.26585">
        <ele>157</ele>
        <time>2012-09-16T08:42:55Z</time>
      </trkpt>
      <trkpt lat="46.60953" lon="-0.26588">
        <ele>156</ele>
        <time>2012-09-16T08:43:01Z</time>
      </trkpt>
      <trkpt lat="46.60947" lon="-0.26594">
        <ele>156</ele>
        <time>2012-09-16T08:43:07Z</time>
      </trkpt>
      <trkpt lat="46.60941" lon="-0.266">
        <ele>156</ele>
        <time>2012-09-16T08:43:13Z</time>
      </trkpt>
      <trkpt lat="46.60936" lon="-0.26605">
        <ele>156</ele>
        <time>2012-09-16T08:43:18Z</time>
      </trkpt>
      <trkpt lat="46.6093" lon="-0.2661">
        <ele>156</ele>
        <time>2012-09-16T08:43:23Z</time>
      </trkpt>
      <trkpt lat="46.60924" lon="-0.26615">
        <ele>156</ele>
        <time>2012-09-16T08:43:28Z</time>
      </trkpt>
      <trkpt lat="46.60916" lon="-0.2662">
        <ele>154</ele>
        <time>2012-09-16T08:43:34Z</time>
      </trkpt>
      <trkpt lat="46.6091" lon="-0.26626">
        <ele>154</ele>
        <time>2012-09-16T08:43:39Z</time>
      </trkpt>
      <trkpt lat="46.60904" lon="-0.26631">
        <ele>154</ele>
        <time>2012-09-16T08:43:44Z</time>
      </trkpt>
      <trkpt lat="46.60898" lon="-0.26637">
        <ele>154</ele>
        <time>2012-09-16T08:43:49Z</time>
      </trkpt>
      <trkpt lat="46.60891" lon="-0.26643">
        <ele>154</ele>
        <time>2012-09-16T08:43:55Z</time>
      </trkpt>
      <trkpt lat="46.60883" lon="-0.26649">
        <ele>154</ele>
        <time>2012-09-16T08:44:01Z</time>
      </trkpt>
      <trkpt lat="46.60876" lon="-0.26655">
        <ele>154</ele>
        <time>2012-09-16T08:44:07Z</time>
      </trkpt>
      <trkpt lat="46.6087" lon="-0.2666">
        <ele>154</ele>
        <time>2012-09-16T08:44:12Z</time>
      </trkpt>
      <trkpt lat="46.60865" lon="-0.26666">
        <ele>154</ele>
        <time>2012-09-16T08:44:17Z</time>
      </trkpt>
      <trkpt lat="46.60858" lon="-0.2667">
        <ele>155</ele>
        <time>2012-09-16T08:44:22Z</time>
      </trkpt>
      <trkpt lat="46.6085" lon="-0.26679">
        <ele>155</ele>
        <time>2012-09-16T08:44:29Z</time>
      </trkpt>
      <trkpt lat="46.60843" lon="-0.26686">
        <ele>155</ele>
        <time>2012-09-16T08:44:35Z</time>
      </trkpt>
      <trkpt lat="46.60838" lon="-0.26693">
        <ele>155</ele>
        <time>2012-09-16T08:44:40Z</time>
      </trkpt>
      <trkpt lat="46.60833" lon="-0.267">
        <ele>154</ele>
        <time>2012-09-16T08:44:45Z</time>
      </trkpt>
      <trkpt lat="46.60827" lon="-0.26706">
        <ele>154</ele>
        <time>2012-09-16T08:44:50Z</time>
      </trkpt>
      <trkpt lat="46.60821" lon="-0.26714">
        <ele>154</ele>
        <time>2012-09-16T08:44:56Z</time>
      </trkpt>
      <trkpt lat="46.60816" lon="-0.26722">
        <ele>154</ele>
        <time>2012-09-16T08:45:02Z</time>
      </trkpt>
      <trkpt lat="46.6081" lon="-0.2673">
        <ele>154</ele>
        <time>2012-09-16T08:45:08Z</time>
      </trkpt>
      <trkpt lat="46.60805" lon="-0.26737">
        <ele>154</ele>
        <time>2012-09-16T08:45:13Z</time>
      </trkpt>
      <trkpt lat="46.60799" lon="-0.26745">
        <ele>154</ele>
        <time>2012-09-16T08:45:19Z</time>
      </trkpt>
      <trkpt lat="46.60793" lon="-0.26754">
        <ele>155</ele>
        <time>2012-09-16T08:45:25Z</time>
      </trkpt>
      <trkpt lat="46.60787" lon="-0.26762">
        <ele>155</ele>
        <time>2012-09-16T08:45:31Z</time>
      </trkpt>
      <trkpt lat="46.60781" lon="-0.2677">
        <ele>155</ele>
        <time>2012-09-16T08:45:37Z</time>
      </trkpt>
      <trkpt lat="46.60773" lon="-0.26777">
        <ele>155</ele>
        <time>2012-09-16T08:45:43Z</time>
      </trkpt>
      <trkpt lat="46.60768" lon="-0.26785">
        <ele>155</ele>
        <time>2012-09-16T08:45:49Z</time>
      </trkpt>
      <trkpt lat="46.60762" lon="-0.26795">
        <ele>155</ele>
        <time>2012-09-16T08:45:56Z</time>
      </trkpt>
      <trkpt lat="46.60756" lon="-0.26801">
        <ele>155</ele>
        <time>2012-09-16T08:46:02Z</time>
      </trkpt>
      <trkpt lat="46.60751" lon="-0.26811">
        <ele>155</ele>
        <time>2012-09-16T08:46:08Z</time>
      </trkpt>
      <trkpt lat="46.60746" lon="-0.26818">
        <ele>155</ele>
        <time>2012-09-16T08:46:13Z</time>
      </trkpt>
      <trkpt lat="46.60741" lon="-0.26825">
        <ele>155</ele>
        <time>2012-09-16T08:46:18Z</time>
      </trkpt>
      <trkpt lat="46.60736" lon="-0.26832">
        <ele>155</ele>
        <time>2012-09-16T08:46:23Z</time>
      </trkpt>
      <trkpt lat="46.60731" lon="-0.26839">
        <ele>156</ele>
        <time>2012-09-16T08:46:28Z</time>
      </trkpt>
      <trkpt lat="46.60724" lon="-0.26845">
        <ele>156</ele>
        <time>2012-09-16T08:46:33Z</time>
      </trkpt>
      <trkpt lat="46.60719" lon="-0.26851">
        <ele>156</ele>
        <time>2012-09-16T08:46:38Z</time>
      </trkpt>
      <trkpt lat="46.60714" lon="-0.26857">
        <ele>156</ele>
        <time>2012-09-16T08:46:43Z</time>
      </trkpt>
      <trkpt lat="46.60709" lon="-0.26863">
        <ele>156</ele>
        <time>2012-09-16T08:46:48Z</time>
      </trkpt>
      <trkpt lat="46.60705" lon="-0.2687">
        <ele>156</ele>
        <time>2012-09-16T08:46:53Z</time>
      </trkpt>
      <trkpt lat="46.60699" lon="-0.26878">
        <ele>156</ele>
        <time>2012-09-16T08:46:59Z</time>
      </trkpt>
      <trkpt lat="46.60693" lon="-0.26885">
        <ele>156</ele>
        <time>2012-09-16T08:47:04Z</time>
      </trkpt>
      <trkpt lat="46.60688" lon="-0.26892">
        <ele>156</ele>
        <time>2012-09-16T08:47:09Z</time>
      </trkpt>
      <trkpt lat="46.60682" lon="-0.269">
        <ele>156</ele>
        <time>2012-09-16T08:47:15Z</time>
      </trkpt>
      <trkpt lat="46.60678" lon="-0.26907">
        <ele>156</ele>
        <time>2012-09-16T08:47:20Z</time>
      </trkpt>
      <trkpt lat="46.60672" lon="-0.26914">
        <ele>156</ele>
        <time>2012-09-16T08:47:26Z</time>
      </trkpt>
      <trkpt lat="46.60667" lon="-0.26921">
        <ele>156</ele>
        <time>2012-09-16T08:47:31Z</time>
      </trkpt>
      <trkpt lat="46.60662" lon="-0.26928">
        <ele>156</ele>
        <time>2012-09-16T08:47:36Z</time>
      </trkpt>
      <trkpt lat="46.60656" lon="-0.26936">
        <ele>156</ele>
        <time>2012-09-16T08:47:42Z</time>
      </trkpt>
      <trkpt lat="46.6065" lon="-0.26944">
        <ele>156</ele>
        <time>2012-09-16T08:47:48Z</time>
      </trkpt>
      <trkpt lat="46.60645" lon="-0.2695">
        <ele>156</ele>
        <time>2012-09-16T08:47:53Z</time>
      </trkpt>
      <trkpt lat="46.6064" lon="-0.26958">
        <ele>156</ele>
        <time>2012-09-16T08:47:58Z</time>
      </trkpt>
      <trkpt lat="46.60635" lon="-0.26964">
        <ele>156</ele>
        <time>2012-09-16T08:48:03Z</time>
      </trkpt>
      <trkpt lat="46.6063" lon="-0.26972">
        <ele>156</ele>
        <time>2012-09-16T08:48:09Z</time>
      </trkpt>
      <trkpt lat="46.60624" lon="-0.2698">
        <ele>156</ele>
        <time>2012-09-16T08:48:15Z</time>
      </trkpt>
      <trkpt lat="46.60618" lon="-0.26989">
        <ele>156</ele>
        <time>2012-09-16T08:48:21Z</time>
      </trkpt>
      <trkpt lat="46.60613" lon="-0.26996">
        <ele>156</ele>
        <time>2012-09-16T08:48:26Z</time>
      </trkpt>
      <trkpt lat="46.60609" lon="-0.27003">
        <ele>157</ele>
        <time>2012-09-16T08:48:31Z</time>
      </trkpt>
      <trkpt lat="46.60603" lon="-0.27011">
        <ele>157</ele>
        <time>2012-09-16T08:48:37Z</time>
      </trkpt>
      <trkpt lat="46.60598" lon="-0.27017">
        <ele>157</ele>
        <time>2012-09-16T08:48:42Z</time>
      </trkpt>
      <trkpt lat="46.60592" lon="-0.27025">
        <ele>157</ele>
        <time>2012-09-16T08:48:48Z</time>
      </trkpt>
      <trkpt lat="46.60587" lon="-0.27031">
        <ele>158</ele>
        <time>2012-09-16T08:48:54Z</time>
      </trkpt>
      <trkpt lat="46.60581" lon="-0.27038">
        <ele>157</ele>
        <time>2012-09-16T08:49:00Z</time>
      </trkpt>
      <trkpt lat="46.60576" lon="-0.27044">
        <ele>157</ele>
        <time>2012-09-16T08:49:05Z</time>
      </trkpt>
      <trkpt lat="46.60571" lon="-0.2705">
        <ele>157</ele>
        <time>2012-09-16T08:49:10Z</time>
      </trkpt>
      <trkpt lat="46.60565" lon="-0.27055">
        <ele>157</ele>
        <time>2012-09-16T08:49:15Z</time>
      </trkpt>
      <trkpt lat="46.6056" lon="-0.2706">
        <ele>157</ele>
        <time>2012-09-16T08:49:20Z</time>
      </trkpt>
      <trkpt lat="46.60555" lon="-0.27065">
        <ele>157</ele>
        <time>2012-09-16T08:49:25Z</time>
      </trkpt>
      <trkpt lat="46.60549" lon="-0.27071">
        <ele>157</ele>
        <time>2012-09-16T08:49:30Z</time>
      </trkpt>
      <trkpt lat="46.60542" lon="-0.27076">
        <ele>157</ele>
        <time>2012-09-16T08:49:36Z</time>
      </trkpt>
      <trkpt lat="46.60535" lon="-0.27082">
        <ele>157</ele>
        <time>2012-09-16T08:49:42Z</time>
      </trkpt>
      <trkpt lat="46.60529" lon="-0.27086">
        <ele>157</ele>
        <time>2012-09-16T08:49:47Z</time>
      </trkpt>
      <trkpt lat="46.60523" lon="-0.27092">
        <ele>157</ele>
        <time>2012-09-16T08:49:53Z</time>
      </trkpt>
      <trkpt lat="46.60515" lon="-0.27097">
        <ele>157</ele>
        <time>2012-09-16T08:49:59Z</time>
      </trkpt>
      <trkpt lat="46.6051" lon="-0.27103">
        <ele>157</ele>
        <time>2012-09-16T08:50:05Z</time>
      </trkpt>
      <trkpt lat="46.60509" lon="-0.27106">
        <ele>157</ele>
        <time>2012-09-16T08:50:10Z</time>
      </trkpt>
      <trkpt lat="46.60509" lon="-0.2711">
        <ele>157</ele>
        <time>2012-09-16T08:50:17Z</time>
      </trkpt>
      <trkpt lat="46.60512" lon="-0.27112">
        <ele>157</ele>
        <time>2012-09-16T08:50:24Z</time>
      </trkpt>
      <trkpt lat="46.60516" lon="-0.271">
        <ele>157</ele>
        <time>2012-09-16T08:50:30Z</time>
      </trkpt>
      <trkpt lat="46.60517" lon="-0.27096">
        <ele>157</ele>
        <time>2012-09-16T08:50:35Z</time>
      </trkpt>
      <trkpt lat="46.60512" lon="-0.27089">
        <ele>157</ele>
        <time>2012-09-16T08:50:41Z</time>
      </trkpt>
      <trkpt lat="46.60508" lon="-0.27085">
        <ele>156</ele>
        <time>2012-09-16T08:50:46Z</time>
      </trkpt>
      <trkpt lat="46.60505" lon="-0.27084">
        <ele>156</ele>
        <time>2012-09-16T08:50:51Z</time>
      </trkpt>
      <trkpt lat="46.60509" lon="-0.27087">
        <ele>156</ele>
        <time>2012-09-16T08:50:59Z</time>
      </trkpt>
      <trkpt lat="46.60518" lon="-0.27103">
        <ele>157</ele>
        <time>2012-09-16T08:51:04Z</time>
      </trkpt>
      <trkpt lat="46.60523" lon="-0.27111">
        <ele>157</ele>
        <time>2012-09-16T08:51:09Z</time>
      </trkpt>
      <trkpt lat="46.6053" lon="-0.27113">
        <ele>157</ele>
        <time>2012-09-16T08:51:15Z</time>
      </trkpt>
      <trkpt lat="46.60536" lon="-0.27115">
        <ele>157</ele>
        <time>2012-09-16T08:51:20Z</time>
      </trkpt>
      <trkpt lat="46.60541" lon="-0.27117">
        <ele>157</ele>
        <time>2012-09-16T08:51:25Z</time>
      </trkpt>
      <trkpt lat="46.60543" lon="-0.27119">
        <ele>157</ele>
        <time>2012-09-16T08:51:31Z</time>
      </trkpt>
      <trkpt lat="46.60548" lon="-0.27119">
        <ele>158</ele>
        <time>2012-09-16T08:51:36Z</time>
      </trkpt>
      <trkpt lat="46.60556" lon="-0.27123">
        <ele>158</ele>
        <time>2012-09-16T08:51:43Z</time>
      </trkpt>
      <trkpt lat="46.60561" lon="-0.27126">
        <ele>158</ele>
        <time>2012-09-16T08:51:48Z</time>
      </trkpt>
      <trkpt lat="46.60566" lon="-0.2713">
        <ele>158</ele>
        <time>2012-09-16T08:51:53Z</time>
      </trkpt>
      <trkpt lat="46.60572" lon="-0.27134">
        <ele>158</ele>
        <time>2012-09-16T08:51:58Z</time>
      </trkpt>
      <trkpt lat="46.60578" lon="-0.27141">
        <ele>158</ele>
        <time>2012-09-16T08:52:04Z</time>
      </trkpt>
      <trkpt lat="46.60584" lon="-0.27146">
        <ele>159</ele>
        <time>2012-09-16T08:52:09Z</time>
      </trkpt>
      <trkpt lat="46.6059" lon="-0.2715">
        <ele>159</ele>
        <time>2012-09-16T08:52:14Z</time>
      </trkpt>
      <trkpt lat="46.60597" lon="-0.27153">
        <ele>159</ele>
        <time>2012-09-16T08:52:20Z</time>
      </trkpt>
      <trkpt lat="46.60604" lon="-0.27156">
        <ele>159</ele>
        <time>2012-09-16T08:52:25Z</time>
      </trkpt>
      <trkpt lat="46.60611" lon="-0.27159">
        <ele>160</ele>
        <time>2012-09-16T08:52:30Z</time>
      </trkpt>
      <trkpt lat="46.60617" lon="-0.27159">
        <ele>160</ele>
        <time>2012-09-16T08:52:35Z</time>
      </trkpt>
      <trkpt lat="46.60621" lon="-0.27161">
        <ele>160</ele>
        <time>2012-09-16T08:52:40Z</time>
      </trkpt>
      <trkpt lat="46.60627" lon="-0.27164">
        <ele>160</ele>
        <time>2012-09-16T08:52:45Z</time>
      </trkpt>
      <trkpt lat="46.60635" lon="-0.27166">
        <ele>160</ele>
        <time>2012-09-16T08:52:50Z</time>
      </trkpt>
      <trkpt lat="46.60641" lon="-0.27169">
        <ele>162</ele>
        <time>2012-09-16T08:52:55Z</time>
      </trkpt>
      <trkpt lat="46.60648" lon="-0.27171">
        <ele>162</ele>
        <time>2012-09-16T08:53:00Z</time>
      </trkpt>
      <trkpt lat="46.60654" lon="-0.27174">
        <ele>162</ele>
        <time>2012-09-16T08:53:05Z</time>
      </trkpt>
      <trkpt lat="46.60661" lon="-0.27174">
        <ele>162</ele>
        <time>2012-09-16T08:53:10Z</time>
      </trkpt>
      <trkpt lat="46.60668" lon="-0.27175">
        <ele>162</ele>
        <time>2012-09-16T08:53:15Z</time>
      </trkpt>
      <trkpt lat="46.60675" lon="-0.27175">
        <ele>162</ele>
        <time>2012-09-16T08:53:20Z</time>
      </trkpt>
      <trkpt lat="46.60682" lon="-0.27175">
        <ele>162</ele>
        <time>2012-09-16T08:53:25Z</time>
      </trkpt>
      <trkpt lat="46.60689" lon="-0.27176">
        <ele>162</ele>
        <time>2012-09-16T08:53:30Z</time>
      </trkpt>
      <trkpt lat="46.60697" lon="-0.27176">
        <ele>162</ele>
        <time>2012-09-16T08:53:35Z</time>
      </trkpt>
      <trkpt lat="46.60704" lon="-0.27176">
        <ele>162</ele>
        <time>2012-09-16T08:53:40Z</time>
      </trkpt>
      <trkpt lat="46.60711" lon="-0.27176">
        <ele>162</ele>
        <time>2012-09-16T08:53:45Z</time>
      </trkpt>
      <trkpt lat="46.60719" lon="-0.27176">
        <ele>161</ele>
        <time>2012-09-16T08:53:50Z</time>
      </trkpt>
      <trkpt lat="46.60726" lon="-0.27177">
        <ele>161</ele>
        <time>2012-09-16T08:53:55Z</time>
      </trkpt>
      <trkpt lat="46.60732" lon="-0.27177">
        <ele>161</ele>
        <time>2012-09-16T08:54:00Z</time>
      </trkpt>
      <trkpt lat="46.60739" lon="-0.27178">
        <ele>161</ele>
        <time>2012-09-16T08:54:05Z</time>
      </trkpt>
      <trkpt lat="46.60747" lon="-0.27178">
        <ele>161</ele>
        <time>2012-09-16T08:54:10Z</time>
      </trkpt>
      <trkpt lat="46.60754" lon="-0.27178">
        <ele>160</ele>
        <time>2012-09-16T08:54:15Z</time>
      </trkpt>
      <trkpt lat="46.60761" lon="-0.27178">
        <ele>160</ele>
        <time>2012-09-16T08:54:20Z</time>
      </trkpt>
      <trkpt lat="46.60767" lon="-0.27179">
        <ele>161</ele>
        <time>2012-09-16T08:54:25Z</time>
      </trkpt>
      <trkpt lat="46.60773" lon="-0.27179">
        <ele>161</ele>
        <time>2012-09-16T08:54:30Z</time>
      </trkpt>
      <trkpt lat="46.6078" lon="-0.27181">
        <ele>161</ele>
        <time>2012-09-16T08:54:35Z</time>
      </trkpt>
      <trkpt lat="46.60787" lon="-0.27183">
        <ele>161</ele>
        <time>2012-09-16T08:54:41Z</time>
      </trkpt>
      <trkpt lat="46.60794" lon="-0.27183">
        <ele>161</ele>
        <time>2012-09-16T08:54:46Z</time>
      </trkpt>
      <trkpt lat="46.608" lon="-0.27183">
        <ele>161</ele>
        <time>2012-09-16T08:54:52Z</time>
      </trkpt>
      <trkpt lat="46.60807" lon="-0.27182">
        <ele>161</ele>
        <time>2012-09-16T08:54:57Z</time>
      </trkpt>
      <trkpt lat="46.60814" lon="-0.27179">
        <ele>161</ele>
        <time>2012-09-16T08:55:03Z</time>
      </trkpt>
      <trkpt lat="46.60821" lon="-0.27176">
        <ele>161</ele>
        <time>2012-09-16T08:55:09Z</time>
      </trkpt>
      <trkpt lat="46.60826" lon="-0.27175">
        <ele>161</ele>
        <time>2012-09-16T08:55:15Z</time>
      </trkpt>
      <trkpt lat="46.60832" lon="-0.27174">
        <ele>162</ele>
        <time>2012-09-16T08:55:20Z</time>
      </trkpt>
      <trkpt lat="46.60837" lon="-0.27171">
        <ele>162</ele>
        <time>2012-09-16T08:55:25Z</time>
      </trkpt>
      <trkpt lat="46.60843" lon="-0.2717">
        <ele>161</ele>
        <time>2012-09-16T08:55:30Z</time>
      </trkpt>
      <trkpt lat="46.60849" lon="-0.27168">
        <ele>161</ele>
        <time>2012-09-16T08:55:35Z</time>
      </trkpt>
      <trkpt lat="46.60855" lon="-0.27166">
        <ele>161</ele>
        <time>2012-09-16T08:55:40Z</time>
      </trkpt>
      <trkpt lat="46.60861" lon="-0.27163">
        <ele>161</ele>
        <time>2012-09-16T08:55:46Z</time>
      </trkpt>
      <trkpt lat="46.60867" lon="-0.27162">
        <ele>161</ele>
        <time>2012-09-16T08:55:51Z</time>
      </trkpt>
      <trkpt lat="46.60872" lon="-0.27169">
        <ele>161</ele>
        <time>2012-09-16T08:55:57Z</time>
      </trkpt>
      <trkpt lat="46.60874" lon="-0.27179">
        <ele>160</ele>
        <time>2012-09-16T08:56:02Z</time>
      </trkpt>
      <trkpt lat="46.60877" lon="-0.27187">
        <ele>160</ele>
        <time>2012-09-16T08:56:07Z</time>
      </trkpt>
      <trkpt lat="46.60879" lon="-0.27193">
        <ele>160</ele>
        <time>2012-09-16T08:56:12Z</time>
      </trkpt>
      <trkpt lat="46.60881" lon="-0.27201">
        <ele>160</ele>
        <time>2012-09-16T08:56:17Z</time>
      </trkpt>
      <trkpt lat="46.60883" lon="-0.27208">
        <ele>160</ele>
        <time>2012-09-16T08:56:24Z</time>
      </trkpt>
      <trkpt lat="46.60886" lon="-0.27217">
        <ele>160</ele>
        <time>2012-09-16T08:56:29Z</time>
      </trkpt>
      <trkpt lat="46.60889" lon="-0.27226">
        <ele>160</ele>
        <time>2012-09-16T08:56:34Z</time>
      </trkpt>
      <trkpt lat="46.60891" lon="-0.27235">
        <ele>160</ele>
        <time>2012-09-16T08:56:39Z</time>
      </trkpt>
      <trkpt lat="46.60893" lon="-0.27245">
        <ele>160</ele>
        <time>2012-09-16T08:56:44Z</time>
      </trkpt>
      <trkpt lat="46.60894" lon="-0.27255">
        <ele>160</ele>
        <time>2012-09-16T08:56:49Z</time>
      </trkpt>
      <trkpt lat="46.60897" lon="-0.27263">
        <ele>160</ele>
        <time>2012-09-16T08:56:55Z</time>
      </trkpt>
      <trkpt lat="46.60902" lon="-0.2727">
        <ele>160</ele>
        <time>2012-09-16T08:57:00Z</time>
      </trkpt>
      <trkpt lat="46.60907" lon="-0.27275">
        <ele>160</ele>
        <time>2012-09-16T08:57:06Z</time>
      </trkpt>
      <trkpt lat="46.60911" lon="-0.27271">
        <ele>160</ele>
        <time>2012-09-16T08:57:13Z</time>
      </trkpt>
      <trkpt lat="46.60918" lon="-0.27259">
        <ele>160</ele>
        <time>2012-09-16T08:57:19Z</time>
      </trkpt>
      <trkpt lat="46.60921" lon="-0.27252">
        <ele>160</ele>
        <time>2012-09-16T08:57:24Z</time>
      </trkpt>
      <trkpt lat="46.60924" lon="-0.27244">
        <ele>160</ele>
        <time>2012-09-16T08:57:29Z</time>
      </trkpt>
      <trkpt lat="46.60927" lon="-0.27237">
        <ele>160</ele>
        <time>2012-09-16T08:57:34Z</time>
      </trkpt>
      <trkpt lat="46.60929" lon="-0.2723">
        <ele>160</ele>
        <time>2012-09-16T08:57:39Z</time>
      </trkpt>
      <trkpt lat="46.60935" lon="-0.27223">
        <ele>160</ele>
        <time>2012-09-16T08:57:45Z</time>
      </trkpt>
      <trkpt lat="46.60938" lon="-0.27217">
        <ele>160</ele>
        <time>2012-09-16T08:57:50Z</time>
      </trkpt>
      <trkpt lat="46.60945" lon="-0.2721">
        <ele>160</ele>
        <time>2012-09-16T08:57:56Z</time>
      </trkpt>
      <trkpt lat="46.6095" lon="-0.27201">
        <ele>160</ele>
        <time>2012-09-16T08:58:02Z</time>
      </trkpt>
      <trkpt lat="46.60954" lon="-0.27194">
        <ele>160</ele>
        <time>2012-09-16T08:58:07Z</time>
      </trkpt>
      <trkpt lat="46.60957" lon="-0.27188">
        <ele>160</ele>
        <time>2012-09-16T08:58:12Z</time>
      </trkpt>
      <trkpt lat="46.60962" lon="-0.27182">
        <ele>161</ele>
        <time>2012-09-16T08:58:18Z</time>
      </trkpt>
      <trkpt lat="46.60968" lon="-0.27176">
        <ele>161</ele>
        <time>2012-09-16T08:58:24Z</time>
      </trkpt>
      <trkpt lat="46.60974" lon="-0.27172">
        <ele>161</ele>
        <time>2012-09-16T08:58:30Z</time>
      </trkpt>
      <trkpt lat="46.6098" lon="-0.27166">
        <ele>161</ele>
        <time>2012-09-16T08:58:35Z</time>
      </trkpt>
      <trkpt lat="46.60985" lon="-0.2716">
        <ele>161</ele>
        <time>2012-09-16T08:58:40Z</time>
      </trkpt>
      <trkpt lat="46.60992" lon="-0.27153">
        <ele>161</ele>
        <time>2012-09-16T08:58:45Z</time>
      </trkpt>
      <trkpt lat="46.60997" lon="-0.27149">
        <ele>161</ele>
        <time>2012-09-16T08:58:51Z</time>
      </trkpt>
      <trkpt lat="46.61002" lon="-0.27144">
        <ele>162</ele>
        <time>2012-09-16T08:58:56Z</time>
      </trkpt>
      <trkpt lat="46.61009" lon="-0.2714">
        <ele>163</ele>
        <time>2012-09-16T08:59:02Z</time>
      </trkpt>
      <trkpt lat="46.61015" lon="-0.27136">
        <ele>163</ele>
        <time>2012-09-16T08:59:07Z</time>
      </trkpt>
      <trkpt lat="46.61021" lon="-0.27131">
        <ele>163</ele>
        <time>2012-09-16T08:59:13Z</time>
      </trkpt>
      <trkpt lat="46.61026" lon="-0.27128">
        <ele>163</ele>
        <time>2012-09-16T08:59:18Z</time>
      </trkpt>
      <trkpt lat="46.61031" lon="-0.27124">
        <ele>163</ele>
        <time>2012-09-16T08:59:23Z</time>
      </trkpt>
      <trkpt lat="46.61039" lon="-0.27118">
        <ele>164</ele>
        <time>2012-09-16T08:59:29Z</time>
      </trkpt>
      <trkpt lat="46.61046" lon="-0.27114">
        <ele>164</ele>
        <time>2012-09-16T08:59:34Z</time>
      </trkpt>
      <trkpt lat="46.61053" lon="-0.27109">
        <ele>164</ele>
        <time>2012-09-16T08:59:40Z</time>
      </trkpt>
      <trkpt lat="46.61059" lon="-0.27104">
        <ele>164</ele>
        <time>2012-09-16T08:59:46Z</time>
      </trkpt>
      <trkpt lat="46.61066" lon="-0.27099">
        <ele>165</ele>
        <time>2012-09-16T08:59:52Z</time>
      </trkpt>
      <trkpt lat="46.61071" lon="-0.27095">
        <ele>165</ele>
        <time>2012-09-16T08:59:57Z</time>
      </trkpt>
      <trkpt lat="46.61076" lon="-0.27092">
        <ele>166</ele>
        <time>2012-09-16T09:00:02Z</time>
      </trkpt>
      <trkpt lat="46.61081" lon="-0.27086">
        <ele>167</ele>
        <time>2012-09-16T09:00:08Z</time>
      </trkpt>
      <trkpt lat="46.61087" lon="-0.27081">
        <ele>167</ele>
        <time>2012-09-16T09:00:13Z</time>
      </trkpt>
      <trkpt lat="46.61092" lon="-0.27076">
        <ele>167</ele>
        <time>2012-09-16T09:00:18Z</time>
      </trkpt>
      <trkpt lat="46.61098" lon="-0.2707">
        <ele>167</ele>
        <time>2012-09-16T09:00:24Z</time>
      </trkpt>
      <trkpt lat="46.61103" lon="-0.27065">
        <ele>167</ele>
        <time>2012-09-16T09:00:29Z</time>
      </trkpt>
      <trkpt lat="46.61109" lon="-0.27062">
        <ele>167</ele>
        <time>2012-09-16T09:00:34Z</time>
      </trkpt>
      <trkpt lat="46.61116" lon="-0.27057">
        <ele>167</ele>
        <time>2012-09-16T09:00:40Z</time>
      </trkpt>
      <trkpt lat="46.61122" lon="-0.27053">
        <ele>167</ele>
        <time>2012-09-16T09:00:45Z</time>
      </trkpt>
      <trkpt lat="46.61128" lon="-0.27049">
        <ele>168</ele>
        <time>2012-09-16T09:00:50Z</time>
      </trkpt>
      <trkpt lat="46.61134" lon="-0.27045">
        <ele>168</ele>
        <time>2012-09-16T09:00:56Z</time>
      </trkpt>
      <trkpt lat="46.61141" lon="-0.27042">
        <ele>168</ele>
        <time>2012-09-16T09:01:01Z</time>
      </trkpt>
      <trkpt lat="46.61149" lon="-0.27039">
        <ele>168</ele>
        <time>2012-09-16T09:01:06Z</time>
      </trkpt>
      <trkpt lat="46.61154" lon="-0.27038">
        <ele>168</ele>
        <time>2012-09-16T09:01:11Z</time>
      </trkpt>
      <trkpt lat="46.6116" lon="-0.27036">
        <ele>168</ele>
        <time>2012-09-16T09:01:16Z</time>
      </trkpt>
      <trkpt lat="46.61166" lon="-0.27032">
        <ele>168</ele>
        <time>2012-09-16T09:01:22Z</time>
      </trkpt>
      <trkpt lat="46.61176" lon="-0.27024">
        <ele>168</ele>
        <time>2012-09-16T09:01:27Z</time>
      </trkpt>
      <trkpt lat="46.61183" lon="-0.27018">
        <ele>168</ele>
        <time>2012-09-16T09:01:32Z</time>
      </trkpt>
      <trkpt lat="46.61189" lon="-0.27016">
        <ele>168</ele>
        <time>2012-09-16T09:01:37Z</time>
      </trkpt>
      <trkpt lat="46.61194" lon="-0.27012">
        <ele>168</ele>
        <time>2012-09-16T09:01:42Z</time>
      </trkpt>
      <trkpt lat="46.61201" lon="-0.27009">
        <ele>168</ele>
        <time>2012-09-16T09:01:47Z</time>
      </trkpt>
      <trkpt lat="46.61207" lon="-0.27005">
        <ele>167</ele>
        <time>2012-09-16T09:01:52Z</time>
      </trkpt>
      <trkpt lat="46.61213" lon="-0.27">
        <ele>167</ele>
        <time>2012-09-16T09:01:57Z</time>
      </trkpt>
      <trkpt lat="46.61219" lon="-0.26995">
        <ele>166</ele>
        <time>2012-09-16T09:02:02Z</time>
      </trkpt>
      <trkpt lat="46.61226" lon="-0.2699">
        <ele>166</ele>
        <time>2012-09-16T09:02:07Z</time>
      </trkpt>
      <trkpt lat="46.61232" lon="-0.26984">
        <ele>166</ele>
        <time>2012-09-16T09:02:13Z</time>
      </trkpt>
      <trkpt lat="46.61239" lon="-0.26978">
        <ele>166</ele>
        <time>2012-09-16T09:02:18Z</time>
      </trkpt>
      <trkpt lat="46.61244" lon="-0.26971">
        <ele>166</ele>
        <time>2012-09-16T09:02:23Z</time>
      </trkpt>
      <trkpt lat="46.61249" lon="-0.26967">
        <ele>165</ele>
        <time>2012-09-16T09:02:28Z</time>
      </trkpt>
      <trkpt lat="46.61256" lon="-0.2696">
        <ele>164</ele>
        <time>2012-09-16T09:02:34Z</time>
      </trkpt>
      <trkpt lat="46.61263" lon="-0.26952">
        <ele>164</ele>
        <time>2012-09-16T09:02:40Z</time>
      </trkpt>
      <trkpt lat="46.61268" lon="-0.26948">
        <ele>164</ele>
        <time>2012-09-16T09:02:45Z</time>
      </trkpt>
      <trkpt lat="46.61274" lon="-0.26942">
        <ele>164</ele>
        <time>2012-09-16T09:02:51Z</time>
      </trkpt>
      <trkpt lat="46.61279" lon="-0.26936">
        <ele>164</ele>
        <time>2012-09-16T09:02:56Z</time>
      </trkpt>
      <trkpt lat="46.61285" lon="-0.26931">
        <ele>164</ele>
        <time>2012-09-16T09:03:01Z</time>
      </trkpt>
      <trkpt lat="46.61292" lon="-0.26928">
        <ele>164</ele>
        <time>2012-09-16T09:03:07Z</time>
      </trkpt>
      <trkpt lat="46.61299" lon="-0.26921">
        <ele>163</ele>
        <time>2012-09-16T09:03:13Z</time>
      </trkpt>
      <trkpt lat="46.61306" lon="-0.26915">
        <ele>162</ele>
        <time>2012-09-16T09:03:19Z</time>
      </trkpt>
      <trkpt lat="46.61311" lon="-0.2691">
        <ele>162</ele>
        <time>2012-09-16T09:03:24Z</time>
      </trkpt>
      <trkpt lat="46.61317" lon="-0.26902">
        <ele>162</ele>
        <time>2012-09-16T09:03:29Z</time>
      </trkpt>
      <trkpt lat="46.61324" lon="-0.26895">
        <ele>162</ele>
        <time>2012-09-16T09:03:35Z</time>
      </trkpt>
      <trkpt lat="46.6133" lon="-0.2689">
        <ele>162</ele>
        <time>2012-09-16T09:03:40Z</time>
      </trkpt>
      <trkpt lat="46.61336" lon="-0.26885">
        <ele>161</ele>
        <time>2012-09-16T09:03:45Z</time>
      </trkpt>
      <trkpt lat="46.61341" lon="-0.26881">
        <ele>161</ele>
        <time>2012-09-16T09:03:50Z</time>
      </trkpt>
      <trkpt lat="46.61347" lon="-0.26875">
        <ele>161</ele>
        <time>2012-09-16T09:03:55Z</time>
      </trkpt>
      <trkpt lat="46.61355" lon="-0.26866">
        <ele>161</ele>
        <time>2012-09-16T09:04:01Z</time>
      </trkpt>
      <trkpt lat="46.6136" lon="-0.26862">
        <ele>161</ele>
        <time>2012-09-16T09:04:06Z</time>
      </trkpt>
      <trkpt lat="46.61365" lon="-0.26856">
        <ele>161</ele>
        <time>2012-09-16T09:04:12Z</time>
      </trkpt>
      <trkpt lat="46.6137" lon="-0.2685">
        <ele>161</ele>
        <time>2012-09-16T09:04:18Z</time>
      </trkpt>
      <trkpt lat="46.61373" lon="-0.26845">
        <ele>161</ele>
        <time>2012-09-16T09:04:23Z</time>
      </trkpt>
      <trkpt lat="46.61377" lon="-0.26841">
        <ele>160</ele>
        <time>2012-09-16T09:04:28Z</time>
      </trkpt>
      <trkpt lat="46.61382" lon="-0.26837">
        <ele>160</ele>
        <time>2012-09-16T09:04:33Z</time>
      </trkpt>
      <trkpt lat="46.61388" lon="-0.26833">
        <ele>160</ele>
        <time>2012-09-16T09:04:38Z</time>
      </trkpt>
      <trkpt lat="46.61396" lon="-0.26829">
        <ele>160</ele>
        <time>2012-09-16T09:04:44Z</time>
      </trkpt>
      <trkpt lat="46.61402" lon="-0.26825">
        <ele>160</ele>
        <time>2012-09-16T09:04:49Z</time>
      </trkpt>
      <trkpt lat="46.61409" lon="-0.26823">
        <ele>160</ele>
        <time>2012-09-16T09:04:54Z</time>
      </trkpt>
      <trkpt lat="46.61417" lon="-0.2682">
        <ele>160</ele>
        <time>2012-09-16T09:04:59Z</time>
      </trkpt>
      <trkpt lat="46.61425" lon="-0.26819">
        <ele>160</ele>
        <time>2012-09-16T09:05:04Z</time>
      </trkpt>
      <trkpt lat="46.61431" lon="-0.26818">
        <ele>160</ele>
        <time>2012-09-16T09:05:09Z</time>
      </trkpt>
      <trkpt lat="46.61436" lon="-0.26817">
        <ele>160</ele>
        <time>2012-09-16T09:05:14Z</time>
      </trkpt>
      <trkpt lat="46.61441" lon="-0.26818">
        <ele>160</ele>
        <time>2012-09-16T09:05:19Z</time>
      </trkpt>
      <trkpt lat="46.61443" lon="-0.2682">
        <ele>160</ele>
        <time>2012-09-16T09:05:24Z</time>
      </trkpt>
      <trkpt lat="46.61448" lon="-0.2682">
        <ele>160</ele>
        <time>2012-09-16T09:05:30Z</time>
      </trkpt>
      <trkpt lat="46.61455" lon="-0.26818">
        <ele>160</ele>
        <time>2012-09-16T09:05:35Z</time>
      </trkpt>
      <trkpt lat="46.61461" lon="-0.26817">
        <ele>160</ele>
        <time>2012-09-16T09:05:40Z</time>
      </trkpt>
      <trkpt lat="46.61467" lon="-0.26816">
        <ele>160</ele>
        <time>2012-09-16T09:05:45Z</time>
      </trkpt>
      <trkpt lat="46.61474" lon="-0.26811">
        <ele>160</ele>
        <time>2012-09-16T09:05:50Z</time>
      </trkpt>
      <trkpt lat="46.61479" lon="-0.26807">
        <ele>160</ele>
        <time>2012-09-16T09:05:55Z</time>
      </trkpt>
      <trkpt lat="46.61486" lon="-0.26803">
        <ele>160</ele>
        <time>2012-09-16T09:06:00Z</time>
      </trkpt>
      <trkpt lat="46.61494" lon="-0.26798">
        <ele>160</ele>
        <time>2012-09-16T09:06:06Z</time>
      </trkpt>
      <trkpt lat="46.61499" lon="-0.26793">
        <ele>160</ele>
        <time>2012-09-16T09:06:12Z</time>
      </trkpt>
      <trkpt lat="46.61506" lon="-0.26786">
        <ele>160</ele>
        <time>2012-09-16T09:06:18Z</time>
      </trkpt>
      <trkpt lat="46.6151" lon="-0.26781">
        <ele>160</ele>
        <time>2012-09-16T09:06:23Z</time>
      </trkpt>
      <trkpt lat="46.61518" lon="-0.26774">
        <ele>160</ele>
        <time>2012-09-16T09:06:28Z</time>
      </trkpt>
      <trkpt lat="46.61525" lon="-0.26768">
        <ele>160</ele>
        <time>2012-09-16T09:06:33Z</time>
      </trkpt>
      <trkpt lat="46.61533" lon="-0.26761">
        <ele>160</ele>
        <time>2012-09-16T09:06:38Z</time>
      </trkpt>
      <trkpt lat="46.61537" lon="-0.26755">
        <ele>160</ele>
        <time>2012-09-16T09:06:43Z</time>
      </trkpt>
      <trkpt lat="46.61543" lon="-0.26748">
        <ele>159</ele>
        <time>2012-09-16T09:06:49Z</time>
      </trkpt>
      <trkpt lat="46.61549" lon="-0.26741">
        <ele>159</ele>
        <time>2012-09-16T09:06:55Z</time>
      </trkpt>
      <trkpt lat="46.61555" lon="-0.26735">
        <ele>159</ele>
        <time>2012-09-16T09:07:00Z</time>
      </trkpt>
      <trkpt lat="46.61561" lon="-0.26728">
        <ele>159</ele>
        <time>2012-09-16T09:07:06Z</time>
      </trkpt>
      <trkpt lat="46.61567" lon="-0.26722">
        <ele>159</ele>
        <time>2012-09-16T09:07:12Z</time>
      </trkpt>
      <trkpt lat="46.61572" lon="-0.26715">
        <ele>159</ele>
        <time>2012-09-16T09:07:17Z</time>
      </trkpt>
      <trkpt lat="46.61578" lon="-0.26711">
        <ele>159</ele>
        <time>2012-09-16T09:07:22Z</time>
      </trkpt>
      <trkpt lat="46.61584" lon="-0.26706">
        <ele>160</ele>
        <time>2012-09-16T09:07:27Z</time>
      </trkpt>
      <trkpt lat="46.61591" lon="-0.26701">
        <ele>160</ele>
        <time>2012-09-16T09:07:33Z</time>
      </trkpt>
      <trkpt lat="46.61598" lon="-0.26698">
        <ele>160</ele>
        <time>2012-09-16T09:07:39Z</time>
      </trkpt>
      <trkpt lat="46.61604" lon="-0.26693">
        <ele>160</ele>
        <time>2012-09-16T09:07:45Z</time>
      </trkpt>
      <trkpt lat="46.61609" lon="-0.26687">
        <ele>161</ele>
        <time>2012-09-16T09:07:51Z</time>
      </trkpt>
      <trkpt lat="46.61616" lon="-0.26683">
        <ele>161</ele>
        <time>2012-09-16T09:07:57Z</time>
      </trkpt>
      <trkpt lat="46.61623" lon="-0.26678">
        <ele>161</ele>
        <time>2012-09-16T09:08:02Z</time>
      </trkpt>
      <trkpt lat="46.6163" lon="-0.26677">
        <ele>161</ele>
        <time>2012-09-16T09:08:07Z</time>
      </trkpt>
      <trkpt lat="46.61636" lon="-0.26674">
        <ele>161</ele>
        <time>2012-09-16T09:08:12Z</time>
      </trkpt>
      <trkpt lat="46.61641" lon="-0.26669">
        <ele>161</ele>
        <time>2012-09-16T09:08:18Z</time>
      </trkpt>
      <trkpt lat="46.61644" lon="-0.26667">
        <ele>161</ele>
        <time>2012-09-16T09:08:23Z</time>
      </trkpt>
      <trkpt lat="46.61649" lon="-0.26665">
        <ele>161</ele>
        <time>2012-09-16T09:08:28Z</time>
      </trkpt>
      <trkpt lat="46.6165" lon="-0.26658">
        <ele>161</ele>
        <time>2012-09-16T09:08:36Z</time>
      </trkpt>
      <trkpt lat="46.61652" lon="-0.26661">
        <ele>161</ele>
        <time>2012-09-16T09:08:44Z</time>
      </trkpt>
      <trkpt lat="46.61655" lon="-0.26661">
        <ele>161</ele>
        <time>2012-09-16T09:08:49Z</time>
      </trkpt>
      <trkpt lat="46.61654" lon="-0.26668">
        <ele>162</ele>
        <time>2012-09-16T09:08:58Z</time>
      </trkpt>
      <trkpt lat="46.6166" lon="-0.2666">
        <ele>162</ele>
        <time>2012-09-16T09:09:06Z</time>
      </trkpt>
      <trkpt lat="46.61667" lon="-0.26658">
        <ele>162</ele>
        <time>2012-09-16T09:09:12Z</time>
      </trkpt>
      <trkpt lat="46.61673" lon="-0.26657">
        <ele>162</ele>
        <time>2012-09-16T09:09:17Z</time>
      </trkpt>
      <trkpt lat="46.6168" lon="-0.26656">
        <ele>162</ele>
        <time>2012-09-16T09:09:22Z</time>
      </trkpt>
      <trkpt lat="46.61685" lon="-0.26655">
        <ele>162</ele>
        <time>2012-09-16T09:09:27Z</time>
      </trkpt>
      <trkpt lat="46.61692" lon="-0.26653">
        <ele>163</ele>
        <time>2012-09-16T09:09:32Z</time>
      </trkpt>
      <trkpt lat="46.61698" lon="-0.26653">
        <ele>163</ele>
        <time>2012-09-16T09:09:37Z</time>
      </trkpt>
      <trkpt lat="46.61705" lon="-0.26651">
        <ele>163</ele>
        <time>2012-09-16T09:09:42Z</time>
      </trkpt>
      <trkpt lat="46.61712" lon="-0.26649">
        <ele>163</ele>
        <time>2012-09-16T09:09:47Z</time>
      </trkpt>
      <trkpt lat="46.61718" lon="-0.26649">
        <ele>163</ele>
        <time>2012-09-16T09:09:52Z</time>
      </trkpt>
      <trkpt lat="46.61724" lon="-0.26648">
        <ele>163</ele>
        <time>2012-09-16T09:09:57Z</time>
      </trkpt>
      <trkpt lat="46.6173" lon="-0.26646">
        <ele>163</ele>
        <time>2012-09-16T09:10:02Z</time>
      </trkpt>
      <trkpt lat="46.61736" lon="-0.26645">
        <ele>163</ele>
        <time>2012-09-16T09:10:07Z</time>
      </trkpt>
      <trkpt lat="46.61741" lon="-0.26644">
        <ele>163</ele>
        <time>2012-09-16T09:10:12Z</time>
      </trkpt>
      <trkpt lat="46.61748" lon="-0.26644">
        <ele>163</ele>
        <time>2012-09-16T09:10:17Z</time>
      </trkpt>
      <trkpt lat="46.61755" lon="-0.26644">
        <ele>163</ele>
        <time>2012-09-16T09:10:22Z</time>
      </trkpt>
      <trkpt lat="46.61763" lon="-0.26642">
        <ele>163</ele>
        <time>2012-09-16T09:10:27Z</time>
      </trkpt>
      <trkpt lat="46.6177" lon="-0.26641">
        <ele>163</ele>
        <time>2012-09-16T09:10:33Z</time>
      </trkpt>
      <trkpt lat="46.61777" lon="-0.26639">
        <ele>163</ele>
        <time>2012-09-16T09:10:38Z</time>
      </trkpt>
      <trkpt lat="46.61784" lon="-0.26637">
        <ele>162</ele>
        <time>2012-09-16T09:10:43Z</time>
      </trkpt>
      <trkpt lat="46.61789" lon="-0.26636">
        <ele>162</ele>
        <time>2012-09-16T09:10:48Z</time>
      </trkpt>
      <trkpt lat="46.61796" lon="-0.26634">
        <ele>162</ele>
        <time>2012-09-16T09:10:53Z</time>
      </trkpt>
      <trkpt lat="46.61802" lon="-0.26633">
        <ele>162</ele>
        <time>2012-09-16T09:10:58Z</time>
      </trkpt>
      <trkpt lat="46.61808" lon="-0.26631">
        <ele>162</ele>
        <time>2012-09-16T09:11:03Z</time>
      </trkpt>
      <trkpt lat="46.61815" lon="-0.26627">
        <ele>162</ele>
        <time>2012-09-16T09:11:08Z</time>
      </trkpt>
      <trkpt lat="46.61822" lon="-0.26622">
        <ele>162</ele>
        <time>2012-09-16T09:11:14Z</time>
      </trkpt>
      <trkpt lat="46.61829" lon="-0.26618">
        <ele>161</ele>
        <time>2012-09-16T09:11:19Z</time>
      </trkpt>
      <trkpt lat="46.61836" lon="-0.26615">
        <ele>159</ele>
        <time>2012-09-16T09:11:24Z</time>
      </trkpt>
      <trkpt lat="46.61842" lon="-0.26611">
        <ele>159</ele>
        <time>2012-09-16T09:11:29Z</time>
      </trkpt>
      <trkpt lat="46.61848" lon="-0.26607">
        <ele>159</ele>
        <time>2012-09-16T09:11:34Z</time>
      </trkpt>
      <trkpt lat="46.61855" lon="-0.26603">
        <ele>159</ele>
        <time>2012-09-16T09:11:39Z</time>
      </trkpt>
      <trkpt lat="46.61861" lon="-0.26597">
        <ele>159</ele>
        <time>2012-09-16T09:11:45Z</time>
      </trkpt>
      <trkpt lat="46.61867" lon="-0.26592">
        <ele>159</ele>
        <time>2012-09-16T09:11:50Z</time>
      </trkpt>
      <trkpt lat="46.61873" lon="-0.26588">
        <ele>158</ele>
        <time>2012-09-16T09:11:55Z</time>
      </trkpt>
      <trkpt lat="46.6188" lon="-0.26585">
        <ele>158</ele>
        <time>2012-09-16T09:12:01Z</time>
      </trkpt>
      <trkpt lat="46.61885" lon="-0.2658">
        <ele>158</ele>
        <time>2012-09-16T09:12:06Z</time>
      </trkpt>
      <trkpt lat="46.6189" lon="-0.26576">
        <ele>157</ele>
        <time>2012-09-16T09:12:11Z</time>
      </trkpt>
      <trkpt lat="46.61897" lon="-0.26571">
        <ele>157</ele>
        <time>2012-09-16T09:12:16Z</time>
      </trkpt>
      <trkpt lat="46.61904" lon="-0.26566">
        <ele>157</ele>
        <time>2012-09-16T09:12:21Z</time>
      </trkpt>
      <trkpt lat="46.6191" lon="-0.26562">
        <ele>157</ele>
        <time>2012-09-16T09:12:26Z</time>
      </trkpt>
      <trkpt lat="46.61917" lon="-0.26557">
        <ele>156</ele>
        <time>2012-09-16T09:12:31Z</time>
      </trkpt>
      <trkpt lat="46.61923" lon="-0.26553">
        <ele>156</ele>
        <time>2012-09-16T09:12:37Z</time>
      </trkpt>
      <trkpt lat="46.61929" lon="-0.26547">
        <ele>156</ele>
        <time>2012-09-16T09:12:42Z</time>
      </trkpt>
      <trkpt lat="46.61935" lon="-0.26542">
        <ele>156</ele>
        <time>2012-09-16T09:12:47Z</time>
      </trkpt>
      <trkpt lat="46.61943" lon="-0.26537">
        <ele>156</ele>
        <time>2012-09-16T09:12:52Z</time>
      </trkpt>
      <trkpt lat="46.61948" lon="-0.26532">
        <ele>156</ele>
        <time>2012-09-16T09:12:57Z</time>
      </trkpt>
      <trkpt lat="46.61953" lon="-0.26526">
        <ele>156</ele>
        <time>2012-09-16T09:13:03Z</time>
      </trkpt>
      <trkpt lat="46.61958" lon="-0.26525">
        <ele>156</ele>
        <time>2012-09-16T09:13:09Z</time>
      </trkpt>
      <trkpt lat="46.6196" lon="-0.26522">
        <ele>156</ele>
        <time>2012-09-16T09:13:23Z</time>
      </trkpt>
      <trkpt lat="46.61957" lon="-0.26523">
        <ele>156</ele>
        <time>2012-09-16T09:13:31Z</time>
      </trkpt>
      <trkpt lat="46.61965" lon="-0.26518">
        <ele>156</ele>
        <time>2012-09-16T09:13:43Z</time>
      </trkpt>
      <trkpt lat="46.6197" lon="-0.26514">
        <ele>156</ele>
        <time>2012-09-16T09:13:49Z</time>
      </trkpt>
      <trkpt lat="46.61976" lon="-0.2651">
        <ele>156</ele>
        <time>2012-09-16T09:13:55Z</time>
      </trkpt>
      <trkpt lat="46.61982" lon="-0.26508">
        <ele>156</ele>
        <time>2012-09-16T09:14:00Z</time>
      </trkpt>
      <trkpt lat="46.61986" lon="-0.26505">
        <ele>156</ele>
        <time>2012-09-16T09:14:05Z</time>
      </trkpt>
      <trkpt lat="46.61991" lon="-0.26502">
        <ele>156</ele>
        <time>2012-09-16T09:14:10Z</time>
      </trkpt>
      <trkpt lat="46.61997" lon="-0.265">
        <ele>156</ele>
        <time>2012-09-16T09:14:15Z</time>
      </trkpt>
      <trkpt lat="46.62003" lon="-0.26498">
        <ele>156</ele>
        <time>2012-09-16T09:14:20Z</time>
      </trkpt>
      <trkpt lat="46.62009" lon="-0.26497">
        <ele>155</ele>
        <time>2012-09-16T09:14:25Z</time>
      </trkpt>
      <trkpt lat="46.62015" lon="-0.26496">
        <ele>155</ele>
        <time>2012-09-16T09:14:30Z</time>
      </trkpt>
      <trkpt lat="46.62022" lon="-0.26494">
        <ele>154</ele>
        <time>2012-09-16T09:14:36Z</time>
      </trkpt>
      <trkpt lat="46.62031" lon="-0.26495">
        <ele>154</ele>
        <time>2012-09-16T09:14:42Z</time>
      </trkpt>
      <trkpt lat="46.62038" lon="-0.26496">
        <ele>154</ele>
        <time>2012-09-16T09:14:47Z</time>
      </trkpt>
      <trkpt lat="46.62045" lon="-0.26496">
        <ele>154</ele>
        <time>2012-09-16T09:14:52Z</time>
      </trkpt>
      <trkpt lat="46.62051" lon="-0.26498">
        <ele>153</ele>
        <time>2012-09-16T09:14:57Z</time>
      </trkpt>
      <trkpt lat="46.62058" lon="-0.265">
        <ele>153</ele>
        <time>2012-09-16T09:15:02Z</time>
      </trkpt>
      <trkpt lat="46.62065" lon="-0.26502">
        <ele>153</ele>
        <time>2012-09-16T09:15:07Z</time>
      </trkpt>
      <trkpt lat="46.62071" lon="-0.26505">
        <ele>152</ele>
        <time>2012-09-16T09:15:12Z</time>
      </trkpt>
      <trkpt lat="46.62077" lon="-0.26506">
        <ele>152</ele>
        <time>2012-09-16T09:15:17Z</time>
      </trkpt>
      <trkpt lat="46.62083" lon="-0.26508">
        <ele>152</ele>
        <time>2012-09-16T09:15:22Z</time>
      </trkpt>
      <trkpt lat="46.6209" lon="-0.26508">
        <ele>151</ele>
        <time>2012-09-16T09:15:27Z</time>
      </trkpt>
      <trkpt lat="46.62097" lon="-0.26508">
        <ele>151</ele>
        <time>2012-09-16T09:15:33Z</time>
      </trkpt>
      <trkpt lat="46.62104" lon="-0.26506">
        <ele>151</ele>
        <time>2012-09-16T09:15:38Z</time>
      </trkpt>
      <trkpt lat="46.62111" lon="-0.26504">
        <ele>151</ele>
        <time>2012-09-16T09:15:43Z</time>
      </trkpt>
      <trkpt lat="46.62118" lon="-0.26501">
        <ele>150</ele>
        <time>2012-09-16T09:15:49Z</time>
      </trkpt>
      <trkpt lat="46.62125" lon="-0.26499">
        <ele>150</ele>
        <time>2012-09-16T09:15:54Z</time>
      </trkpt>
      <trkpt lat="46.6213" lon="-0.26496">
        <ele>150</ele>
        <time>2012-09-16T09:15:59Z</time>
      </trkpt>
      <trkpt lat="46.62135" lon="-0.26492">
        <ele>150</ele>
        <time>2012-09-16T09:16:04Z</time>
      </trkpt>
      <trkpt lat="46.6214" lon="-0.26489">
        <ele>150</ele>
        <time>2012-09-16T09:16:09Z</time>
      </trkpt>
      <trkpt lat="46.62146" lon="-0.26485">
        <ele>150</ele>
        <time>2012-09-16T09:16:15Z</time>
      </trkpt>
      <trkpt lat="46.62151" lon="-0.26479">
        <ele>150</ele>
        <time>2012-09-16T09:16:20Z</time>
      </trkpt>
      <trkpt lat="46.62157" lon="-0.26476">
        <ele>150</ele>
        <time>2012-09-16T09:16:25Z</time>
      </trkpt>
      <trkpt lat="46.62162" lon="-0.26475">
        <ele>150</ele>
        <time>2012-09-16T09:16:30Z</time>
      </trkpt>
      <trkpt lat="46.62166" lon="-0.2647">
        <ele>150</ele>
        <time>2012-09-16T09:16:35Z</time>
      </trkpt>
      <trkpt lat="46.6217" lon="-0.26466">
        <ele>148</ele>
        <time>2012-09-16T09:16:40Z</time>
      </trkpt>
      <trkpt lat="46.62177" lon="-0.26461">
        <ele>148</ele>
        <time>2012-09-16T09:16:46Z</time>
      </trkpt>
      <trkpt lat="46.62185" lon="-0.26457">
        <ele>148</ele>
        <time>2012-09-16T09:16:51Z</time>
      </trkpt>
      <trkpt lat="46.62185" lon="-0.26448">
        <ele>148</ele>
        <time>2012-09-16T09:16:57Z</time>
      </trkpt>
      <trkpt lat="46.6219" lon="-0.26445">
        <ele>148</ele>
        <time>2012-09-16T09:17:02Z</time>
      </trkpt>
      <trkpt lat="46.62196" lon="-0.26439">
        <ele>147</ele>
        <time>2012-09-16T09:17:07Z</time>
      </trkpt>
      <trkpt lat="46.62201" lon="-0.26434">
        <ele>147</ele>
        <time>2012-09-16T09:17:12Z</time>
      </trkpt>
      <trkpt lat="46.62206" lon="-0.26428">
        <ele>147</ele>
        <time>2012-09-16T09:17:17Z</time>
      </trkpt>
      <trkpt lat="46.62211" lon="-0.26421">
        <ele>147</ele>
        <time>2012-09-16T09:17:23Z</time>
      </trkpt>
      <trkpt lat="46.62213" lon="-0.26417">
        <ele>147</ele>
        <time>2012-09-16T09:17:28Z</time>
      </trkpt>
      <trkpt lat="46.62215" lon="-0.26412">
        <ele>144</ele>
        <time>2012-09-16T09:17:33Z</time>
      </trkpt>
      <trkpt lat="46.6222" lon="-0.26405">
        <ele>144</ele>
        <time>2012-09-16T09:17:38Z</time>
      </trkpt>
      <trkpt lat="46.62227" lon="-0.26402">
        <ele>144</ele>
        <time>2012-09-16T09:17:44Z</time>
      </trkpt>
      <trkpt lat="46.62231" lon="-0.26396">
        <ele>144</ele>
        <time>2012-09-16T09:17:50Z</time>
      </trkpt>
      <trkpt lat="46.62238" lon="-0.26392">
        <ele>143</ele>
        <time>2012-09-16T09:17:56Z</time>
      </trkpt>
      <trkpt lat="46.62243" lon="-0.26389">
        <ele>143</ele>
        <time>2012-09-16T09:18:01Z</time>
      </trkpt>
      <trkpt lat="46.62249" lon="-0.26387">
        <ele>143</ele>
        <time>2012-09-16T09:18:06Z</time>
      </trkpt>
      <trkpt lat="46.62255" lon="-0.26386">
        <ele>142</ele>
        <time>2012-09-16T09:18:12Z</time>
      </trkpt>
      <trkpt lat="46.6226" lon="-0.26381">
        <ele>142</ele>
        <time>2012-09-16T09:18:18Z</time>
      </trkpt>
      <trkpt lat="46.62268" lon="-0.26383">
        <ele>142</ele>
        <time>2012-09-16T09:18:23Z</time>
      </trkpt>
      <trkpt lat="46.62274" lon="-0.26377">
        <ele>142</ele>
        <time>2012-09-16T09:18:29Z</time>
      </trkpt>
      <trkpt lat="46.62279" lon="-0.26375">
        <ele>142</ele>
        <time>2012-09-16T09:18:34Z</time>
      </trkpt>
      <trkpt lat="46.62285" lon="-0.26373">
        <ele>142</ele>
        <time>2012-09-16T09:18:39Z</time>
      </trkpt>
      <trkpt lat="46.62291" lon="-0.26369">
        <ele>142</ele>
        <time>2012-09-16T09:18:44Z</time>
      </trkpt>
      <trkpt lat="46.62297" lon="-0.26367">
        <ele>142</ele>
        <time>2012-09-16T09:18:49Z</time>
      </trkpt>
      <trkpt lat="46.62303" lon="-0.26362">
        <ele>142</ele>
        <time>2012-09-16T09:18:54Z</time>
      </trkpt>
      <trkpt lat="46.62311" lon="-0.26358">
        <ele>142</ele>
        <time>2012-09-16T09:18:59Z</time>
      </trkpt>
      <trkpt lat="46.62318" lon="-0.26356">
        <ele>142</ele>
        <time>2012-09-16T09:19:04Z</time>
      </trkpt>
      <trkpt lat="46.62324" lon="-0.2635">
        <ele>142</ele>
        <time>2012-09-16T09:19:10Z</time>
      </trkpt>
      <trkpt lat="46.62326" lon="-0.26345">
        <ele>142</ele>
        <time>2012-09-16T09:19:15Z</time>
      </trkpt>
      <trkpt lat="46.62331" lon="-0.26338">
        <ele>141</ele>
        <time>2012-09-16T09:19:20Z</time>
      </trkpt>
      <trkpt lat="46.62336" lon="-0.26333">
        <ele>141</ele>
        <time>2012-09-16T09:19:26Z</time>
      </trkpt>
      <trkpt lat="46.62336" lon="-0.26325">
        <ele>142</ele>
        <time>2012-09-16T09:19:31Z</time>
      </trkpt>
      <trkpt lat="46.62334" lon="-0.26317">
        <ele>142</ele>
        <time>2012-09-16T09:19:36Z</time>
      </trkpt>
      <trkpt lat="46.62328" lon="-0.26308">
        <ele>141</ele>
        <time>2012-09-16T09:19:42Z</time>
      </trkpt>
      <trkpt lat="46.62325" lon="-0.26302">
        <ele>141</ele>
        <time>2012-09-16T09:19:50Z</time>
      </trkpt>
      <trkpt lat="46.62324" lon="-0.26296">
        <ele>141</ele>
        <time>2012-09-16T09:19:56Z</time>
      </trkpt>
      <trkpt lat="46.62327" lon="-0.26298">
        <ele>141</ele>
        <time>2012-09-16T09:20:01Z</time>
      </trkpt>
      <trkpt lat="46.62325" lon="-0.26294">
        <ele>141</ele>
        <time>2012-09-16T09:20:07Z</time>
      </trkpt>
      <trkpt lat="46.62322" lon="-0.26288">
        <ele>141</ele>
        <time>2012-09-16T09:20:13Z</time>
      </trkpt>
      <trkpt lat="46.62316" lon="-0.26282">
        <ele>141</ele>
        <time>2012-09-16T09:20:19Z</time>
      </trkpt>
      <trkpt lat="46.62312" lon="-0.26277">
        <ele>141</ele>
        <time>2012-09-16T09:20:25Z</time>
      </trkpt>
      <trkpt lat="46.62312" lon="-0.26271">
        <ele>142</ele>
        <time>2012-09-16T09:20:31Z</time>
      </trkpt>
      <trkpt lat="46.62307" lon="-0.26267">
        <ele>142</ele>
        <time>2012-09-16T09:20:36Z</time>
      </trkpt>
      <trkpt lat="46.62304" lon="-0.2626">
        <ele>142</ele>
        <time>2012-09-16T09:20:42Z</time>
      </trkpt>
      <trkpt lat="46.62301" lon="-0.26254">
        <ele>141</ele>
        <time>2012-09-16T09:20:47Z</time>
      </trkpt>
      <trkpt lat="46.62297" lon="-0.26252">
        <ele>141</ele>
        <time>2012-09-16T09:20:52Z</time>
      </trkpt>
      <trkpt lat="46.62293" lon="-0.26249">
        <ele>143</ele>
        <time>2012-09-16T09:20:58Z</time>
      </trkpt>
      <trkpt lat="46.62288" lon="-0.26243">
        <ele>143</ele>
        <time>2012-09-16T09:21:03Z</time>
      </trkpt>
      <trkpt lat="46.62285" lon="-0.26237">
        <ele>143</ele>
        <time>2012-09-16T09:21:08Z</time>
      </trkpt>
      <trkpt lat="46.62283" lon="-0.26229">
        <ele>143</ele>
        <time>2012-09-16T09:21:13Z</time>
      </trkpt>
      <trkpt lat="46.62282" lon="-0.26222">
        <ele>143</ele>
        <time>2012-09-16T09:21:18Z</time>
      </trkpt>
      <trkpt lat="46.62281" lon="-0.26212">
        <ele>143</ele>
        <time>2012-09-16T09:21:24Z</time>
      </trkpt>
      <trkpt lat="46.6228" lon="-0.26204">
        <ele>144</ele>
        <time>2012-09-16T09:21:30Z</time>
      </trkpt>
      <trkpt lat="46.62281" lon="-0.26197">
        <ele>144</ele>
        <time>2012-09-16T09:21:35Z</time>
      </trkpt>
      <trkpt lat="46.62281" lon="-0.26188">
        <ele>144</ele>
        <time>2012-09-16T09:21:40Z</time>
      </trkpt>
      <trkpt lat="46.62284" lon="-0.26178">
        <ele>144</ele>
        <time>2012-09-16T09:21:46Z</time>
      </trkpt>
      <trkpt lat="46.62289" lon="-0.26169">
        <ele>144</ele>
        <time>2012-09-16T09:21:52Z</time>
      </trkpt>
      <trkpt lat="46.62292" lon="-0.26167">
        <ele>145</ele>
        <time>2012-09-16T09:21:57Z</time>
      </trkpt>
      <trkpt lat="46.62296" lon="-0.26165">
        <ele>147</ele>
        <time>2012-09-16T09:22:03Z</time>
      </trkpt>
      <trkpt lat="46.62302" lon="-0.26165">
        <ele>147</ele>
        <time>2012-09-16T09:22:09Z</time>
      </trkpt>
      <trkpt lat="46.62307" lon="-0.26168">
        <ele>145</ele>
        <time>2012-09-16T09:22:14Z</time>
      </trkpt>
      <trkpt lat="46.62313" lon="-0.26171">
        <ele>146</ele>
        <time>2012-09-16T09:22:19Z</time>
      </trkpt>
      <trkpt lat="46.62321" lon="-0.26173">
        <ele>146</ele>
        <time>2012-09-16T09:22:25Z</time>
      </trkpt>
      <trkpt lat="46.62328" lon="-0.26176">
        <ele>147</ele>
        <time>2012-09-16T09:22:31Z</time>
      </trkpt>
      <trkpt lat="46.62332" lon="-0.26176">
        <ele>147</ele>
        <time>2012-09-16T09:22:36Z</time>
      </trkpt>
      <trkpt lat="46.62337" lon="-0.26176">
        <ele>148</ele>
        <time>2012-09-16T09:22:41Z</time>
      </trkpt>
      <trkpt lat="46.6234" lon="-0.26177">
        <ele>148</ele>
        <time>2012-09-16T09:22:46Z</time>
      </trkpt>
      <trkpt lat="46.62345" lon="-0.26178">
        <ele>148</ele>
        <time>2012-09-16T09:22:51Z</time>
      </trkpt>
      <trkpt lat="46.62352" lon="-0.26177">
        <ele>148</ele>
        <time>2012-09-16T09:22:56Z</time>
      </trkpt>
      <trkpt lat="46.62358" lon="-0.26177">
        <ele>149</ele>
        <time>2012-09-16T09:23:02Z</time>
      </trkpt>
      <trkpt lat="46.62364" lon="-0.26177">
        <ele>149</ele>
        <time>2012-09-16T09:23:08Z</time>
      </trkpt>
      <trkpt lat="46.62369" lon="-0.26176">
        <ele>149</ele>
        <time>2012-09-16T09:23:13Z</time>
      </trkpt>
      <trkpt lat="46.62376" lon="-0.26175">
        <ele>149</ele>
        <time>2012-09-16T09:23:20Z</time>
      </trkpt>
      <trkpt lat="46.62381" lon="-0.26175">
        <ele>150</ele>
        <time>2012-09-16T09:23:25Z</time>
      </trkpt>
      <trkpt lat="46.62387" lon="-0.26174">
        <ele>150</ele>
        <time>2012-09-16T09:23:30Z</time>
      </trkpt>
      <trkpt lat="46.62394" lon="-0.26173">
        <ele>151</ele>
        <time>2012-09-16T09:23:36Z</time>
      </trkpt>
      <trkpt lat="46.624" lon="-0.26173">
        <ele>151</ele>
        <time>2012-09-16T09:23:41Z</time>
      </trkpt>
      <trkpt lat="46.62405" lon="-0.26173">
        <ele>152</ele>
        <time>2012-09-16T09:23:46Z</time>
      </trkpt>
      <trkpt lat="46.62411" lon="-0.26173">
        <ele>152</ele>
        <time>2012-09-16T09:23:51Z</time>
      </trkpt>
      <trkpt lat="46.62417" lon="-0.2617">
        <ele>154</ele>
        <time>2012-09-16T09:23:56Z</time>
      </trkpt>
      <trkpt lat="46.62424" lon="-0.26169">
        <ele>154</ele>
        <time>2012-09-16T09:24:01Z</time>
      </trkpt>
      <trkpt lat="46.62429" lon="-0.26168">
        <ele>154</ele>
        <time>2012-09-16T09:24:06Z</time>
      </trkpt>
      <trkpt lat="46.62434" lon="-0.26167">
        <ele>154</ele>
        <time>2012-09-16T09:24:11Z</time>
      </trkpt>
      <trkpt lat="46.62439" lon="-0.26166">
        <ele>156</ele>
        <time>2012-09-16T09:24:16Z</time>
      </trkpt>
      <trkpt lat="46.62446" lon="-0.26166">
        <ele>157</ele>
        <time>2012-09-16T09:24:22Z</time>
      </trkpt>
      <trkpt lat="46.62452" lon="-0.26165">
        <ele>157</ele>
        <time>2012-09-16T09:24:28Z</time>
      </trkpt>
      <trkpt lat="46.62457" lon="-0.26163">
        <ele>157</ele>
        <time>2012-09-16T09:24:33Z</time>
      </trkpt>
      <trkpt lat="46.62463" lon="-0.26162">
        <ele>158</ele>
        <time>2012-09-16T09:24:38Z</time>
      </trkpt>
      <trkpt lat="46.62469" lon="-0.2616">
        <ele>158</ele>
        <time>2012-09-16T09:24:44Z</time>
      </trkpt>
      <trkpt lat="46.62475" lon="-0.26159">
        <ele>158</ele>
        <time>2012-09-16T09:24:49Z</time>
      </trkpt>
      <trkpt lat="46.62481" lon="-0.26158">
        <ele>158</ele>
        <time>2012-09-16T09:24:54Z</time>
      </trkpt>
      <trkpt lat="46.62486" lon="-0.26156">
        <ele>158</ele>
        <time>2012-09-16T09:24:59Z</time>
      </trkpt>
      <trkpt lat="46.62492" lon="-0.26155">
        <ele>159</ele>
        <time>2012-09-16T09:25:04Z</time>
      </trkpt>
      <trkpt lat="46.62496" lon="-0.26152">
        <ele>159</ele>
        <time>2012-09-16T09:25:09Z</time>
      </trkpt>
      <trkpt lat="46.62502" lon="-0.2615">
        <ele>160</ele>
        <time>2012-09-16T09:25:14Z</time>
      </trkpt>
      <trkpt lat="46.62508" lon="-0.2615">
        <ele>161</ele>
        <time>2012-09-16T09:25:19Z</time>
      </trkpt>
      <trkpt lat="46.62514" lon="-0.26147">
        <ele>161</ele>
        <time>2012-09-16T09:25:24Z</time>
      </trkpt>
      <trkpt lat="46.6252" lon="-0.26146">
        <ele>161</ele>
        <time>2012-09-16T09:25:30Z</time>
      </trkpt>
      <trkpt lat="46.62526" lon="-0.26144">
        <ele>161</ele>
        <time>2012-09-16T09:25:35Z</time>
      </trkpt>
      <trkpt lat="46.62533" lon="-0.26141">
        <ele>162</ele>
        <time>2012-09-16T09:25:41Z</time>
      </trkpt>
      <trkpt lat="46.62539" lon="-0.2614">
        <ele>162</ele>
        <time>2012-09-16T09:25:47Z</time>
      </trkpt>
      <trkpt lat="46.62546" lon="-0.26138">
        <ele>162</ele>
        <time>2012-09-16T09:25:53Z</time>
      </trkpt>
      <trkpt lat="46.62551" lon="-0.26137">
        <ele>162</ele>
        <time>2012-09-16T09:25:58Z</time>
      </trkpt>
      <trkpt lat="46.62558" lon="-0.26135">
        <ele>162</ele>
        <time>2012-09-16T09:26:04Z</time>
      </trkpt>
      <trkpt lat="46.62564" lon="-0.26134">
        <ele>162</ele>
        <time>2012-09-16T09:26:09Z</time>
      </trkpt>
      <trkpt lat="46.62571" lon="-0.26132">
        <ele>162</ele>
        <time>2012-09-16T09:26:14Z</time>
      </trkpt>
      <trkpt lat="46.62579" lon="-0.2613">
        <ele>162</ele>
        <time>2012-09-16T09:26:20Z</time>
      </trkpt>
      <trkpt lat="46.62584" lon="-0.26129">
        <ele>164</ele>
        <time>2012-09-16T09:26:25Z</time>
      </trkpt>
      <trkpt lat="46.6259" lon="-0.26129">
        <ele>164</ele>
        <time>2012-09-16T09:26:30Z</time>
      </trkpt>
      <trkpt lat="46.62596" lon="-0.26129">
        <ele>164</ele>
        <time>2012-09-16T09:26:35Z</time>
      </trkpt>
      <trkpt lat="46.62602" lon="-0.26127">
        <ele>164</ele>
        <time>2012-09-16T09:26:40Z</time>
      </trkpt>
      <trkpt lat="46.62608" lon="-0.26127">
        <ele>164</ele>
        <time>2012-09-16T09:26:45Z</time>
      </trkpt>
      <trkpt lat="46.62614" lon="-0.26126">
        <ele>164</ele>
        <time>2012-09-16T09:26:50Z</time>
      </trkpt>
      <trkpt lat="46.62618" lon="-0.26125">
        <ele>164</ele>
        <time>2012-09-16T09:26:55Z</time>
      </trkpt>
      <trkpt lat="46.62623" lon="-0.26126">
        <ele>164</ele>
        <time>2012-09-16T09:27:00Z</time>
      </trkpt>
      <trkpt lat="46.62629" lon="-0.26125">
        <ele>164</ele>
        <time>2012-09-16T09:27:05Z</time>
      </trkpt>
      <trkpt lat="46.62633" lon="-0.26125">
        <ele>164</ele>
        <time>2012-09-16T09:27:10Z</time>
      </trkpt>
      <trkpt lat="46.62638" lon="-0.26124">
        <ele>164</ele>
        <time>2012-09-16T09:27:15Z</time>
      </trkpt>
      <trkpt lat="46.62645" lon="-0.26124">
        <ele>164</ele>
        <time>2012-09-16T09:27:20Z</time>
      </trkpt>
      <trkpt lat="46.62651" lon="-0.26124">
        <ele>164</ele>
        <time>2012-09-16T09:27:25Z</time>
      </trkpt>
      <trkpt lat="46.62658" lon="-0.26122">
        <ele>164</ele>
        <time>2012-09-16T09:27:30Z</time>
      </trkpt>
      <trkpt lat="46.62664" lon="-0.26121">
        <ele>164</ele>
        <time>2012-09-16T09:27:35Z</time>
      </trkpt>
      <trkpt lat="46.6267" lon="-0.26121">
        <ele>165</ele>
        <time>2012-09-16T09:27:40Z</time>
      </trkpt>
      <trkpt lat="46.62677" lon="-0.26121">
        <ele>165</ele>
        <time>2012-09-16T09:27:46Z</time>
      </trkpt>
      <trkpt lat="46.62683" lon="-0.2612">
        <ele>165</ele>
        <time>2012-09-16T09:27:51Z</time>
      </trkpt>
      <trkpt lat="46.62688" lon="-0.26118">
        <ele>165</ele>
        <time>2012-09-16T09:27:56Z</time>
      </trkpt>
      <trkpt lat="46.62694" lon="-0.26117">
        <ele>165</ele>
        <time>2012-09-16T09:28:01Z</time>
      </trkpt>
      <trkpt lat="46.62701" lon="-0.26117">
        <ele>165</ele>
        <time>2012-09-16T09:28:07Z</time>
      </trkpt>
      <trkpt lat="46.62706" lon="-0.26117">
        <ele>165</ele>
        <time>2012-09-16T09:28:12Z</time>
      </trkpt>
      <trkpt lat="46.62711" lon="-0.26117">
        <ele>164</ele>
        <time>2012-09-16T09:28:17Z</time>
      </trkpt>
      <trkpt lat="46.62717" lon="-0.26117">
        <ele>165</ele>
        <time>2012-09-16T09:28:22Z</time>
      </trkpt>
      <trkpt lat="46.62722" lon="-0.26116">
        <ele>165</ele>
        <time>2012-09-16T09:28:27Z</time>
      </trkpt>
      <trkpt lat="46.62729" lon="-0.26115">
        <ele>165</ele>
        <time>2012-09-16T09:28:32Z</time>
      </trkpt>
      <trkpt lat="46.62735" lon="-0.26115">
        <ele>165</ele>
        <time>2012-09-16T09:28:38Z</time>
      </trkpt>
      <trkpt lat="46.62741" lon="-0.26113">
        <ele>165</ele>
        <time>2012-09-16T09:28:43Z</time>
      </trkpt>
      <trkpt lat="46.62748" lon="-0.26113">
        <ele>165</ele>
        <time>2012-09-16T09:28:49Z</time>
      </trkpt>
      <trkpt lat="46.62755" lon="-0.26111">
        <ele>164</ele>
        <time>2012-09-16T09:28:54Z</time>
      </trkpt>
      <trkpt lat="46.6276" lon="-0.26109">
        <ele>164</ele>
        <time>2012-09-16T09:28:59Z</time>
      </trkpt>
      <trkpt lat="46.62766" lon="-0.26105">
        <ele>164</ele>
        <time>2012-09-16T09:29:04Z</time>
      </trkpt>
      <trkpt lat="46.62771" lon="-0.26102">
        <ele>164</ele>
        <time>2012-09-16T09:29:09Z</time>
      </trkpt>
      <trkpt lat="46.62776" lon="-0.26098">
        <ele>164</ele>
        <time>2012-09-16T09:29:14Z</time>
      </trkpt>
      <trkpt lat="46.62781" lon="-0.26092">
        <ele>164</ele>
        <time>2012-09-16T09:29:20Z</time>
      </trkpt>
      <trkpt lat="46.62787" lon="-0.26086">
        <ele>164</ele>
        <time>2012-09-16T09:29:26Z</time>
      </trkpt>
      <trkpt lat="46.62792" lon="-0.2608">
        <ele>166</ele>
        <time>2012-09-16T09:29:31Z</time>
      </trkpt>
      <trkpt lat="46.62797" lon="-0.26073">
        <ele>166</ele>
        <time>2012-09-16T09:29:37Z</time>
      </trkpt>
      <trkpt lat="46.62803" lon="-0.26067">
        <ele>166</ele>
        <time>2012-09-16T09:29:43Z</time>
      </trkpt>
      <trkpt lat="46.62809" lon="-0.2606">
        <ele>166</ele>
        <time>2012-09-16T09:29:49Z</time>
      </trkpt>
      <trkpt lat="46.62814" lon="-0.26053">
        <ele>166</ele>
        <time>2012-09-16T09:29:55Z</time>
      </trkpt>
      <trkpt lat="46.6282" lon="-0.26048">
        <ele>166</ele>
        <time>2012-09-16T09:30:00Z</time>
      </trkpt>
      <trkpt lat="46.62825" lon="-0.26041">
        <ele>166</ele>
        <time>2012-09-16T09:30:06Z</time>
      </trkpt>
      <trkpt lat="46.62831" lon="-0.26035">
        <ele>166</ele>
        <time>2012-09-16T09:30:11Z</time>
      </trkpt>
      <trkpt lat="46.62836" lon="-0.2603">
        <ele>165</ele>
        <time>2012-09-16T09:30:16Z</time>
      </trkpt>
      <trkpt lat="46.62841" lon="-0.26024">
        <ele>165</ele>
        <time>2012-09-16T09:30:21Z</time>
      </trkpt>
      <trkpt lat="46.62845" lon="-0.26018">
        <ele>165</ele>
        <time>2012-09-16T09:30:26Z</time>
      </trkpt>
      <trkpt lat="46.62851" lon="-0.26012">
        <ele>165</ele>
        <time>2012-09-16T09:30:31Z</time>
      </trkpt>
      <trkpt lat="46.62858" lon="-0.26007">
        <ele>165</ele>
        <time>2012-09-16T09:30:36Z</time>
      </trkpt>
      <trkpt lat="46.62863" lon="-0.26003">
        <ele>165</ele>
        <time>2012-09-16T09:30:41Z</time>
      </trkpt>
      <trkpt lat="46.62868" lon="-0.25995">
        <ele>167</ele>
        <time>2012-09-16T09:30:47Z</time>
      </trkpt>
      <trkpt lat="46.62874" lon="-0.25991">
        <ele>167</ele>
        <time>2012-09-16T09:30:53Z</time>
      </trkpt>
      <trkpt lat="46.6288" lon="-0.25983">
        <ele>166</ele>
        <time>2012-09-16T09:30:58Z</time>
      </trkpt>
      <trkpt lat="46.62887" lon="-0.25975">
        <ele>166</ele>
        <time>2012-09-16T09:31:03Z</time>
      </trkpt>
      <trkpt lat="46.62894" lon="-0.25967">
        <ele>167</ele>
        <time>2012-09-16T09:31:08Z</time>
      </trkpt>
      <trkpt lat="46.62901" lon="-0.2596">
        <ele>167</ele>
        <time>2012-09-16T09:31:13Z</time>
      </trkpt>
      <trkpt lat="46.62908" lon="-0.25954">
        <ele>167</ele>
        <time>2012-09-16T09:31:18Z</time>
      </trkpt>
      <trkpt lat="46.62914" lon="-0.25946">
        <ele>167</ele>
        <time>2012-09-16T09:31:24Z</time>
      </trkpt>
      <trkpt lat="46.62923" lon="-0.25939">
        <ele>166</ele>
        <time>2012-09-16T09:31:29Z</time>
      </trkpt>
      <trkpt lat="46.62933" lon="-0.25931">
        <ele>166</ele>
        <time>2012-09-16T09:31:34Z</time>
      </trkpt>
      <trkpt lat="46.6294" lon="-0.25924">
        <ele>166</ele>
        <time>2012-09-16T09:31:39Z</time>
      </trkpt>
      <trkpt lat="46.62948" lon="-0.25917">
        <ele>166</ele>
        <time>2012-09-16T09:31:44Z</time>
      </trkpt>
      <trkpt lat="46.62954" lon="-0.2591">
        <ele>167</ele>
        <time>2012-09-16T09:31:49Z</time>
      </trkpt>
      <trkpt lat="46.62962" lon="-0.25903">
        <ele>167</ele>
        <time>2012-09-16T09:31:54Z</time>
      </trkpt>
      <trkpt lat="46.6297" lon="-0.25898">
        <ele>167</ele>
        <time>2012-09-16T09:31:59Z</time>
      </trkpt>
      <trkpt lat="46.62979" lon="-0.25892">
        <ele>166</ele>
        <time>2012-09-16T09:32:04Z</time>
      </trkpt>
      <trkpt lat="46.62986" lon="-0.25888">
        <ele>166</ele>
        <time>2012-09-16T09:32:09Z</time>
      </trkpt>
      <trkpt lat="46.62993" lon="-0.25883">
        <ele>166</ele>
        <time>2012-09-16T09:32:14Z</time>
      </trkpt>
      <trkpt lat="46.63001" lon="-0.25879">
        <ele>165</ele>
        <time>2012-09-16T09:32:19Z</time>
      </trkpt>
      <trkpt lat="46.6301" lon="-0.25874">
        <ele>165</ele>
        <time>2012-09-16T09:32:24Z</time>
      </trkpt>
      <trkpt lat="46.63017" lon="-0.2587">
        <ele>165</ele>
        <time>2012-09-16T09:32:29Z</time>
      </trkpt>
      <trkpt lat="46.63026" lon="-0.25867">
        <ele>165</ele>
        <time>2012-09-16T09:32:34Z</time>
      </trkpt>
      <trkpt lat="46.63032" lon="-0.25865">
        <ele>164</ele>
        <time>2012-09-16T09:32:39Z</time>
      </trkpt>
      <trkpt lat="46.63039" lon="-0.25863">
        <ele>164</ele>
        <time>2012-09-16T09:32:44Z</time>
      </trkpt>
      <trkpt lat="46.63045" lon="-0.25863">
        <ele>164</ele>
        <time>2012-09-16T09:32:49Z</time>
      </trkpt>
      <trkpt lat="46.63054" lon="-0.25864">
        <ele>164</ele>
        <time>2012-09-16T09:32:55Z</time>
      </trkpt>
      <trkpt lat="46.63062" lon="-0.25865">
        <ele>164</ele>
        <time>2012-09-16T09:33:00Z</time>
      </trkpt>
      <trkpt lat="46.63069" lon="-0.25866">
        <ele>164</ele>
        <time>2012-09-16T09:33:05Z</time>
      </trkpt>
      <trkpt lat="46.63075" lon="-0.25867">
        <ele>164</ele>
        <time>2012-09-16T09:33:10Z</time>
      </trkpt>
      <trkpt lat="46.63082" lon="-0.25868">
        <ele>164</ele>
        <time>2012-09-16T09:33:15Z</time>
      </trkpt>
      <trkpt lat="46.63088" lon="-0.25867">
        <ele>163</ele>
        <time>2012-09-16T09:33:20Z</time>
      </trkpt>
      <trkpt lat="46.63094" lon="-0.25865">
        <ele>163</ele>
        <time>2012-09-16T09:33:25Z</time>
      </trkpt>
      <trkpt lat="46.63098" lon="-0.25859">
        <ele>163</ele>
        <time>2012-09-16T09:33:30Z</time>
      </trkpt>
      <trkpt lat="46.63104" lon="-0.25857">
        <ele>163</ele>
        <time>2012-09-16T09:33:35Z</time>
      </trkpt>
      <trkpt lat="46.6311" lon="-0.25854">
        <ele>163</ele>
        <time>2012-09-16T09:33:40Z</time>
      </trkpt>
      <trkpt lat="46.63116" lon="-0.2585">
        <ele>164</ele>
        <time>2012-09-16T09:33:45Z</time>
      </trkpt>
      <trkpt lat="46.63123" lon="-0.25847">
        <ele>164</ele>
        <time>2012-09-16T09:33:50Z</time>
      </trkpt>
      <trkpt lat="46.63129" lon="-0.25844">
        <ele>164</ele>
        <time>2012-09-16T09:33:55Z</time>
      </trkpt>
      <trkpt lat="46.63135" lon="-0.25841">
        <ele>164</ele>
        <time>2012-09-16T09:34:00Z</time>
      </trkpt>
      <trkpt lat="46.63141" lon="-0.25837">
        <ele>164</ele>
        <time>2012-09-16T09:34:05Z</time>
      </trkpt>
      <trkpt lat="46.63148" lon="-0.25833">
        <ele>165</ele>
        <time>2012-09-16T09:34:11Z</time>
      </trkpt>
      <trkpt lat="46.63154" lon="-0.25831">
        <ele>165</ele>
        <time>2012-09-16T09:34:16Z</time>
      </trkpt>
      <trkpt lat="46.6316" lon="-0.25827">
        <ele>165</ele>
        <time>2012-09-16T09:34:22Z</time>
      </trkpt>
      <trkpt lat="46.63167" lon="-0.25824">
        <ele>165</ele>
        <time>2012-09-16T09:34:28Z</time>
      </trkpt>
      <trkpt lat="46.63173" lon="-0.2582">
        <ele>165</ele>
        <time>2012-09-16T09:34:34Z</time>
      </trkpt>
      <trkpt lat="46.6318" lon="-0.25816">
        <ele>165</ele>
        <time>2012-09-16T09:34:40Z</time>
      </trkpt>
      <trkpt lat="46.63186" lon="-0.25812">
        <ele>166</ele>
        <time>2012-09-16T09:34:45Z</time>
      </trkpt>
      <trkpt lat="46.63192" lon="-0.25808">
        <ele>166</ele>
        <time>2012-09-16T09:34:50Z</time>
      </trkpt>
      <trkpt lat="46.63197" lon="-0.25805">
        <ele>166</ele>
        <time>2012-09-16T09:34:55Z</time>
      </trkpt>
      <trkpt lat="46.63204" lon="-0.25802">
        <ele>166</ele>
        <time>2012-09-16T09:35:00Z</time>
      </trkpt>
      <trkpt lat="46.63211" lon="-0.25798">
        <ele>166</ele>
        <time>2012-09-16T09:35:05Z</time>
      </trkpt>
      <trkpt lat="46.63218" lon="-0.25795">
        <ele>166</ele>
        <time>2012-09-16T09:35:10Z</time>
      </trkpt>
      <trkpt lat="46.63224" lon="-0.25794">
        <ele>166</ele>
        <time>2012-09-16T09:35:15Z</time>
      </trkpt>
      <trkpt lat="46.63231" lon="-0.25793">
        <ele>166</ele>
        <time>2012-09-16T09:35:20Z</time>
      </trkpt>
      <trkpt lat="46.63237" lon="-0.25792">
        <ele>166</ele>
        <time>2012-09-16T09:35:25Z</time>
      </trkpt>
      <trkpt lat="46.63242" lon="-0.2579">
        <ele>166</ele>
        <time>2012-09-16T09:35:30Z</time>
      </trkpt>
      <trkpt lat="46.63248" lon="-0.25789">
        <ele>166</ele>
        <time>2012-09-16T09:35:35Z</time>
      </trkpt>
      <trkpt lat="46.63255" lon="-0.25789">
        <ele>166</ele>
        <time>2012-09-16T09:35:41Z</time>
      </trkpt>
      <trkpt lat="46.63263" lon="-0.25787">
        <ele>166</ele>
        <time>2012-09-16T09:35:47Z</time>
      </trkpt>
      <trkpt lat="46.63269" lon="-0.25786">
        <ele>166</ele>
        <time>2012-09-16T09:35:52Z</time>
      </trkpt>
      <trkpt lat="46.63275" lon="-0.25784">
        <ele>166</ele>
        <time>2012-09-16T09:35:57Z</time>
      </trkpt>
      <trkpt lat="46.63283" lon="-0.25782">
        <ele>167</ele>
        <time>2012-09-16T09:36:03Z</time>
      </trkpt>
      <trkpt lat="46.63289" lon="-0.25781">
        <ele>167</ele>
        <time>2012-09-16T09:36:08Z</time>
      </trkpt>
      <trkpt lat="46.63295" lon="-0.2578">
        <ele>167</ele>
        <time>2012-09-16T09:36:13Z</time>
      </trkpt>
      <trkpt lat="46.63302" lon="-0.25779">
        <ele>167</ele>
        <time>2012-09-16T09:36:18Z</time>
      </trkpt>
      <trkpt lat="46.63308" lon="-0.25778">
        <ele>167</ele>
        <time>2012-09-16T09:36:23Z</time>
      </trkpt>
      <trkpt lat="46.63315" lon="-0.25777">
        <ele>167</ele>
        <time>2012-09-16T09:36:28Z</time>
      </trkpt>
      <trkpt lat="46.63321" lon="-0.25779">
        <ele>167</ele>
        <time>2012-09-16T09:36:33Z</time>
      </trkpt>
      <trkpt lat="46.63328" lon="-0.25779">
        <ele>167</ele>
        <time>2012-09-16T09:36:38Z</time>
      </trkpt>
      <trkpt lat="46.63335" lon="-0.25778">
        <ele>168</ele>
        <time>2012-09-16T09:36:43Z</time>
      </trkpt>
      <trkpt lat="46.63342" lon="-0.25778">
        <ele>168</ele>
        <time>2012-09-16T09:36:48Z</time>
      </trkpt>
      <trkpt lat="46.63348" lon="-0.25777">
        <ele>168</ele>
        <time>2012-09-16T09:36:53Z</time>
      </trkpt>
      <trkpt lat="46.63355" lon="-0.25777">
        <ele>168</ele>
        <time>2012-09-16T09:36:59Z</time>
      </trkpt>
      <trkpt lat="46.63361" lon="-0.25775">
        <ele>168</ele>
        <time>2012-09-16T09:37:04Z</time>
      </trkpt>
      <trkpt lat="46.63368" lon="-0.25774">
        <ele>168</ele>
        <time>2012-09-16T09:37:09Z</time>
      </trkpt>
      <trkpt lat="46.63374" lon="-0.25772">
        <ele>168</ele>
        <time>2012-09-16T09:37:14Z</time>
      </trkpt>
      <trkpt lat="46.63381" lon="-0.2577">
        <ele>168</ele>
        <time>2012-09-16T09:37:19Z</time>
      </trkpt>
      <trkpt lat="46.63388" lon="-0.25767">
        <ele>168</ele>
        <time>2012-09-16T09:37:25Z</time>
      </trkpt>
      <trkpt lat="46.63395" lon="-0.25766">
        <ele>168</ele>
        <time>2012-09-16T09:37:30Z</time>
      </trkpt>
      <trkpt lat="46.63402" lon="-0.25764">
        <ele>168</ele>
        <time>2012-09-16T09:37:36Z</time>
      </trkpt>
      <trkpt lat="46.63408" lon="-0.25763">
        <ele>168</ele>
        <time>2012-09-16T09:37:41Z</time>
      </trkpt>
      <trkpt lat="46.63415" lon="-0.25762">
        <ele>168</ele>
        <time>2012-09-16T09:37:46Z</time>
      </trkpt>
      <trkpt lat="46.63422" lon="-0.2576">
        <ele>168</ele>
        <time>2012-09-16T09:37:51Z</time>
      </trkpt>
      <trkpt lat="46.63428" lon="-0.25759">
        <ele>168</ele>
        <time>2012-09-16T09:37:56Z</time>
      </trkpt>
      <trkpt lat="46.63434" lon="-0.25757">
        <ele>167</ele>
        <time>2012-09-16T09:38:01Z</time>
      </trkpt>
      <trkpt lat="46.6344" lon="-0.25755">
        <ele>167</ele>
        <time>2012-09-16T09:38:06Z</time>
      </trkpt>
      <trkpt lat="46.63447" lon="-0.25752">
        <ele>167</ele>
        <time>2012-09-16T09:38:12Z</time>
      </trkpt>
      <trkpt lat="46.63453" lon="-0.25748">
        <ele>167</ele>
        <time>2012-09-16T09:38:17Z</time>
      </trkpt>
      <trkpt lat="46.63458" lon="-0.25746">
        <ele>167</ele>
        <time>2012-09-16T09:38:22Z</time>
      </trkpt>
      <trkpt lat="46.63465" lon="-0.25742">
        <ele>167</ele>
        <time>2012-09-16T09:38:28Z</time>
      </trkpt>
      <trkpt lat="46.63472" lon="-0.25738">
        <ele>167</ele>
        <time>2012-09-16T09:38:34Z</time>
      </trkpt>
      <trkpt lat="46.63477" lon="-0.25733">
        <ele>166</ele>
        <time>2012-09-16T09:38:40Z</time>
      </trkpt>
      <trkpt lat="46.63481" lon="-0.25726">
        <ele>166</ele>
        <time>2012-09-16T09:38:45Z</time>
      </trkpt>
      <trkpt lat="46.63481" lon="-0.25718">
        <ele>166</ele>
        <time>2012-09-16T09:38:50Z</time>
      </trkpt>
      <trkpt lat="46.63483" lon="-0.25713">
        <ele>166</ele>
        <time>2012-09-16T09:38:55Z</time>
      </trkpt>
      <trkpt lat="46.63488" lon="-0.25711">
        <ele>166</ele>
        <time>2012-09-16T09:39:01Z</time>
      </trkpt>
      <trkpt lat="46.63492" lon="-0.25717">
        <ele>166</ele>
        <time>2012-09-16T09:39:07Z</time>
      </trkpt>
      <trkpt lat="46.63497" lon="-0.25721">
        <ele>166</ele>
        <time>2012-09-16T09:39:13Z</time>
      </trkpt>
      <trkpt lat="46.63502" lon="-0.2572">
        <ele>164</ele>
        <time>2012-09-16T09:39:18Z</time>
      </trkpt>
      <trkpt lat="46.63506" lon="-0.25716">
        <ele>164</ele>
        <time>2012-09-16T09:39:24Z</time>
      </trkpt>
      <trkpt lat="46.63509" lon="-0.2571">
        <ele>164</ele>
        <time>2012-09-16T09:39:29Z</time>
      </trkpt>
      <trkpt lat="46.63513" lon="-0.25703">
        <ele>164</ele>
        <time>2012-09-16T09:39:35Z</time>
      </trkpt>
      <trkpt lat="46.63518" lon="-0.25694">
        <ele>164</ele>
        <time>2012-09-16T09:39:41Z</time>
      </trkpt>
      <trkpt lat="46.63522" lon="-0.25687">
        <ele>164</ele>
        <time>2012-09-16T09:39:46Z</time>
      </trkpt>
      <trkpt lat="46.63525" lon="-0.2568">
        <ele>163</ele>
        <time>2012-09-16T09:39:51Z</time>
      </trkpt>
      <trkpt lat="46.63522" lon="-0.25684">
        <ele>164</ele>
        <time>2012-09-16T09:39:57Z</time>
      </trkpt>
      <trkpt lat="46.63529" lon="-0.25686">
        <ele>163</ele>
        <time>2012-09-16T09:40:03Z</time>
      </trkpt>
      <trkpt lat="46.63534" lon="-0.25689">
        <ele>163</ele>
        <time>2012-09-16T09:40:08Z</time>
      </trkpt>
      <trkpt lat="46.63537" lon="-0.25695">
        <ele>163</ele>
        <time>2012-09-16T09:40:14Z</time>
      </trkpt>
      <trkpt lat="46.6354" lon="-0.25696">
        <ele>163</ele>
        <time>2012-09-16T09:40:19Z</time>
      </trkpt>
      <trkpt lat="46.63547" lon="-0.25702">
        <ele>163</ele>
        <time>2012-09-16T09:40:25Z</time>
      </trkpt>
      <trkpt lat="46.63551" lon="-0.25708">
        <ele>163</ele>
        <time>2012-09-16T09:40:30Z</time>
      </trkpt>
      <trkpt lat="46.63555" lon="-0.25715">
        <ele>163</ele>
        <time>2012-09-16T09:40:35Z</time>
      </trkpt>
      <trkpt lat="46.63561" lon="-0.25721">
        <ele>163</ele>
        <time>2012-09-16T09:40:41Z</time>
      </trkpt>
      <trkpt lat="46.63566" lon="-0.25724">
        <ele>163</ele>
        <time>2012-09-16T09:40:47Z</time>
      </trkpt>
      <trkpt lat="46.63571" lon="-0.25728">
        <ele>163</ele>
        <time>2012-09-16T09:40:52Z</time>
      </trkpt>
      <trkpt lat="46.63577" lon="-0.25734">
        <ele>162</ele>
        <time>2012-09-16T09:40:57Z</time>
      </trkpt>
      <trkpt lat="46.63582" lon="-0.25739">
        <ele>162</ele>
        <time>2012-09-16T09:41:02Z</time>
      </trkpt>
      <trkpt lat="46.63586" lon="-0.25744">
        <ele>161</ele>
        <time>2012-09-16T09:41:07Z</time>
      </trkpt>
      <trkpt lat="46.63591" lon="-0.25744">
        <ele>161</ele>
        <time>2012-09-16T09:41:12Z</time>
      </trkpt>
      <trkpt lat="46.63596" lon="-0.25747">
        <ele>161</ele>
        <time>2012-09-16T09:41:17Z</time>
      </trkpt>
      <trkpt lat="46.63602" lon="-0.25753">
        <ele>161</ele>
        <time>2012-09-16T09:41:22Z</time>
      </trkpt>
      <trkpt lat="46.63608" lon="-0.25756">
        <ele>161</ele>
        <time>2012-09-16T09:41:27Z</time>
      </trkpt>
      <trkpt lat="46.63614" lon="-0.2576">
        <ele>161</ele>
        <time>2012-09-16T09:41:33Z</time>
      </trkpt>
      <trkpt lat="46.63617" lon="-0.25762">
        <ele>161</ele>
        <time>2012-09-16T09:41:38Z</time>
      </trkpt>
      <trkpt lat="46.63622" lon="-0.25764">
        <ele>160</ele>
        <time>2012-09-16T09:41:43Z</time>
      </trkpt>
      <trkpt lat="46.63628" lon="-0.25768">
        <ele>160</ele>
        <time>2012-09-16T09:41:49Z</time>
      </trkpt>
      <trkpt lat="46.63634" lon="-0.25771">
        <ele>160</ele>
        <time>2012-09-16T09:41:54Z</time>
      </trkpt>
      <trkpt lat="46.63643" lon="-0.25776">
        <ele>160</ele>
        <time>2012-09-16T09:41:59Z</time>
      </trkpt>
      <trkpt lat="46.63649" lon="-0.25781">
        <ele>160</ele>
        <time>2012-09-16T09:42:04Z</time>
      </trkpt>
      <trkpt lat="46.63654" lon="-0.25787">
        <ele>160</ele>
        <time>2012-09-16T09:42:10Z</time>
      </trkpt>
      <trkpt lat="46.6366" lon="-0.25789">
        <ele>160</ele>
        <time>2012-09-16T09:42:15Z</time>
      </trkpt>
      <trkpt lat="46.63667" lon="-0.25792">
        <ele>158</ele>
        <time>2012-09-16T09:42:20Z</time>
      </trkpt>
      <trkpt lat="46.63674" lon="-0.25795">
        <ele>158</ele>
        <time>2012-09-16T09:42:26Z</time>
      </trkpt>
      <trkpt lat="46.63678" lon="-0.25796">
        <ele>158</ele>
        <time>2012-09-16T09:42:31Z</time>
      </trkpt>
      <trkpt lat="46.63685" lon="-0.25799">
        <ele>158</ele>
        <time>2012-09-16T09:42:37Z</time>
      </trkpt>
      <trkpt lat="46.6369" lon="-0.258">
        <ele>157</ele>
        <time>2012-09-16T09:42:42Z</time>
      </trkpt>
      <trkpt lat="46.63696" lon="-0.25802">
        <ele>157</ele>
        <time>2012-09-16T09:42:47Z</time>
      </trkpt>
      <trkpt lat="46.637" lon="-0.25805">
        <ele>157</ele>
        <time>2012-09-16T09:42:52Z</time>
      </trkpt>
      <trkpt lat="46.63708" lon="-0.25807">
        <ele>157</ele>
        <time>2012-09-16T09:42:57Z</time>
      </trkpt>
      <trkpt lat="46.63717" lon="-0.25808">
        <ele>157</ele>
        <time>2012-09-16T09:43:02Z</time>
      </trkpt>
      <trkpt lat="46.63724" lon="-0.25806">
        <ele>157</ele>
        <time>2012-09-16T09:43:07Z</time>
      </trkpt>
      <trkpt lat="46.63727" lon="-0.25803">
        <ele>156</ele>
        <time>2012-09-16T09:43:14Z</time>
      </trkpt>
      <trkpt lat="46.63727" lon="-0.25801">
        <ele>156</ele>
        <time>2012-09-16T09:43:23Z</time>
      </trkpt>
      <trkpt lat="46.63729" lon="-0.25803">
        <ele>156</ele>
        <time>2012-09-16T09:43:28Z</time>
      </trkpt>
      <trkpt lat="46.63727" lon="-0.25805">
        <ele>157</ele>
        <time>2012-09-16T09:43:33Z</time>
      </trkpt>
      <trkpt lat="46.63729" lon="-0.25806">
        <ele>156</ele>
        <time>2012-09-16T09:43:40Z</time>
      </trkpt>
      <trkpt lat="46.63735" lon="-0.25809">
        <ele>156</ele>
        <time>2012-09-16T09:43:45Z</time>
      </trkpt>
      <trkpt lat="46.63741" lon="-0.25812">
        <ele>156</ele>
        <time>2012-09-16T09:43:51Z</time>
      </trkpt>
      <trkpt lat="46.63743" lon="-0.25816">
        <ele>156</ele>
        <time>2012-09-16T09:43:56Z</time>
      </trkpt>
      <trkpt lat="46.63745" lon="-0.25823">
        <ele>156</ele>
        <time>2012-09-16T09:44:02Z</time>
      </trkpt>
      <trkpt lat="46.63746" lon="-0.25827">
        <ele>156</ele>
        <time>2012-09-16T09:44:07Z</time>
      </trkpt>
      <trkpt lat="46.63753" lon="-0.25825">
        <ele>155</ele>
        <time>2012-09-16T09:44:14Z</time>
      </trkpt>
      <trkpt lat="46.63761" lon="-0.25826">
        <ele>154</ele>
        <time>2012-09-16T09:44:19Z</time>
      </trkpt>
      <trkpt lat="46.63772" lon="-0.2583">
        <ele>154</ele>
        <time>2012-09-16T09:44:24Z</time>
      </trkpt>
      <trkpt lat="46.63778" lon="-0.25831">
        <ele>153</ele>
        <time>2012-09-16T09:44:29Z</time>
      </trkpt>
      <trkpt lat="46.63784" lon="-0.25832">
        <ele>153</ele>
        <time>2012-09-16T09:44:34Z</time>
      </trkpt>
      <trkpt lat="46.63789" lon="-0.25834">
        <ele>154</ele>
        <time>2012-09-16T09:44:39Z</time>
      </trkpt>
      <trkpt lat="46.6379" lon="-0.25837">
        <ele>154</ele>
        <time>2012-09-16T09:44:45Z</time>
      </trkpt>
      <trkpt lat="46.63796" lon="-0.25841">
        <ele>154</ele>
        <time>2012-09-16T09:44:52Z</time>
      </trkpt>
      <trkpt lat="46.63803" lon="-0.25843">
        <ele>153</ele>
        <time>2012-09-16T09:44:57Z</time>
      </trkpt>
      <trkpt lat="46.63805" lon="-0.25844">
        <ele>153</ele>
        <time>2012-09-16T09:45:02Z</time>
      </trkpt>
      <trkpt lat="46.63815" lon="-0.25841">
        <ele>152</ele>
        <time>2012-09-16T09:45:07Z</time>
      </trkpt>
      <trkpt lat="46.6383" lon="-0.25841">
        <ele>151</ele>
        <time>2012-09-16T09:45:12Z</time>
      </trkpt>
      <trkpt lat="46.63837" lon="-0.25845">
        <ele>150</ele>
        <time>2012-09-16T09:45:17Z</time>
      </trkpt>
      <trkpt lat="46.63842" lon="-0.25848">
        <ele>150</ele>
        <time>2012-09-16T09:45:22Z</time>
      </trkpt>
      <trkpt lat="46.63848" lon="-0.25852">
        <ele>150</ele>
        <time>2012-09-16T09:45:27Z</time>
      </trkpt>
      <trkpt lat="46.63855" lon="-0.25855">
        <ele>150</ele>
        <time>2012-09-16T09:45:32Z</time>
      </trkpt>
      <trkpt lat="46.63864" lon="-0.25859">
        <ele>150</ele>
        <time>2012-09-16T09:45:38Z</time>
      </trkpt>
      <trkpt lat="46.63869" lon="-0.25863">
        <ele>150</ele>
        <time>2012-09-16T09:45:43Z</time>
      </trkpt>
      <trkpt lat="46.63873" lon="-0.25867">
        <ele>150</ele>
        <time>2012-09-16T09:45:48Z</time>
      </trkpt>
      <trkpt lat="46.63879" lon="-0.25872">
        <ele>150</ele>
        <time>2012-09-16T09:45:53Z</time>
      </trkpt>
      <trkpt lat="46.63883" lon="-0.25877">
        <ele>150</ele>
        <time>2012-09-16T09:45:58Z</time>
      </trkpt>
      <trkpt lat="46.63888" lon="-0.25885">
        <ele>150</ele>
        <time>2012-09-16T09:46:03Z</time>
      </trkpt>
      <trkpt lat="46.63891" lon="-0.25894">
        <ele>150</ele>
        <time>2012-09-16T09:46:09Z</time>
      </trkpt>
      <trkpt lat="46.63892" lon="-0.259">
        <ele>150</ele>
        <time>2012-09-16T09:46:14Z</time>
      </trkpt>
      <trkpt lat="46.63894" lon="-0.25908">
        <ele>150</ele>
        <time>2012-09-16T09:46:19Z</time>
      </trkpt>
      <trkpt lat="46.63895" lon="-0.25916">
        <ele>150</ele>
        <time>2012-09-16T09:46:24Z</time>
      </trkpt>
      <trkpt lat="46.63895" lon="-0.25925">
        <ele>150</ele>
        <time>2012-09-16T09:46:29Z</time>
      </trkpt>
      <trkpt lat="46.63899" lon="-0.25933">
        <ele>150</ele>
        <time>2012-09-16T09:46:34Z</time>
      </trkpt>
      <trkpt lat="46.63902" lon="-0.2594">
        <ele>150</ele>
        <time>2012-09-16T09:46:39Z</time>
      </trkpt>
      <trkpt lat="46.63905" lon="-0.25949">
        <ele>150</ele>
        <time>2012-09-16T09:46:44Z</time>
      </trkpt>
      <trkpt lat="46.63906" lon="-0.2596">
        <ele>151</ele>
        <time>2012-09-16T09:46:50Z</time>
      </trkpt>
      <trkpt lat="46.63911" lon="-0.25969">
        <ele>150</ele>
        <time>2012-09-16T09:46:56Z</time>
      </trkpt>
      <trkpt lat="46.63916" lon="-0.25975">
        <ele>150</ele>
        <time>2012-09-16T09:47:01Z</time>
      </trkpt>
      <trkpt lat="46.63921" lon="-0.25983">
        <ele>148</ele>
        <time>2012-09-16T09:47:06Z</time>
      </trkpt>
      <trkpt lat="46.63923" lon="-0.25991">
        <ele>148</ele>
        <time>2012-09-16T09:47:11Z</time>
      </trkpt>
      <trkpt lat="46.63928" lon="-0.26">
        <ele>148</ele>
        <time>2012-09-16T09:47:16Z</time>
      </trkpt>
      <trkpt lat="46.63932" lon="-0.26009">
        <ele>147</ele>
        <time>2012-09-16T09:47:22Z</time>
      </trkpt>
      <trkpt lat="46.63935" lon="-0.26018">
        <ele>147</ele>
        <time>2012-09-16T09:47:28Z</time>
      </trkpt>
      <trkpt lat="46.63937" lon="-0.26026">
        <ele>147</ele>
        <time>2012-09-16T09:47:33Z</time>
      </trkpt>
      <trkpt lat="46.63936" lon="-0.26033">
        <ele>146</ele>
        <time>2012-09-16T09:47:38Z</time>
      </trkpt>
      <trkpt lat="46.63938" lon="-0.26042">
        <ele>146</ele>
        <time>2012-09-16T09:47:43Z</time>
      </trkpt>
      <trkpt lat="46.63942" lon="-0.26051">
        <ele>146</ele>
        <time>2012-09-16T09:47:48Z</time>
      </trkpt>
      <trkpt lat="46.63944" lon="-0.26058">
        <ele>146</ele>
        <time>2012-09-16T09:47:53Z</time>
      </trkpt>
      <trkpt lat="46.63947" lon="-0.26066">
        <ele>146</ele>
        <time>2012-09-16T09:47:58Z</time>
      </trkpt>
      <trkpt lat="46.6395" lon="-0.26074">
        <ele>146</ele>
        <time>2012-09-16T09:48:03Z</time>
      </trkpt>
      <trkpt lat="46.63952" lon="-0.26082">
        <ele>146</ele>
        <time>2012-09-16T09:48:08Z</time>
      </trkpt>
      <trkpt lat="46.63957" lon="-0.26088">
        <ele>144</ele>
        <time>2012-09-16T09:48:13Z</time>
      </trkpt>
      <trkpt lat="46.63961" lon="-0.26096">
        <ele>144</ele>
        <time>2012-09-16T09:48:19Z</time>
      </trkpt>
      <trkpt lat="46.63964" lon="-0.26104">
        <ele>144</ele>
        <time>2012-09-16T09:48:24Z</time>
      </trkpt>
      <trkpt lat="46.63968" lon="-0.26115">
        <ele>144</ele>
        <time>2012-09-16T09:48:30Z</time>
      </trkpt>
      <trkpt lat="46.63972" lon="-0.26124">
        <ele>143</ele>
        <time>2012-09-16T09:48:36Z</time>
      </trkpt>
      <trkpt lat="46.63972" lon="-0.26132">
        <ele>143</ele>
        <time>2012-09-16T09:48:41Z</time>
      </trkpt>
      <trkpt lat="46.63974" lon="-0.26142">
        <ele>143</ele>
        <time>2012-09-16T09:48:46Z</time>
      </trkpt>
      <trkpt lat="46.63977" lon="-0.2615">
        <ele>143</ele>
        <time>2012-09-16T09:48:51Z</time>
      </trkpt>
      <trkpt lat="46.63978" lon="-0.26159">
        <ele>143</ele>
        <time>2012-09-16T09:48:56Z</time>
      </trkpt>
      <trkpt lat="46.63977" lon="-0.26167">
        <ele>141</ele>
        <time>2012-09-16T09:49:01Z</time>
      </trkpt>
      <trkpt lat="46.63977" lon="-0.26176">
        <ele>141</ele>
        <time>2012-09-16T09:49:06Z</time>
      </trkpt>
      <trkpt lat="46.63977" lon="-0.26184">
        <ele>141</ele>
        <time>2012-09-16T09:49:11Z</time>
      </trkpt>
      <trkpt lat="46.63976" lon="-0.26193">
        <ele>141</ele>
        <time>2012-09-16T09:49:16Z</time>
      </trkpt>
      <trkpt lat="46.63976" lon="-0.26201">
        <ele>141</ele>
        <time>2012-09-16T09:49:21Z</time>
      </trkpt>
      <trkpt lat="46.63977" lon="-0.26211">
        <ele>141</ele>
        <time>2012-09-16T09:49:26Z</time>
      </trkpt>
      <trkpt lat="46.63976" lon="-0.2622">
        <ele>141</ele>
        <time>2012-09-16T09:49:31Z</time>
      </trkpt>
      <trkpt lat="46.63973" lon="-0.26227">
        <ele>140</ele>
        <time>2012-09-16T09:49:36Z</time>
      </trkpt>
      <trkpt lat="46.63969" lon="-0.26234">
        <ele>140</ele>
        <time>2012-09-16T09:49:41Z</time>
      </trkpt>
      <trkpt lat="46.63969" lon="-0.26244">
        <ele>140</ele>
        <time>2012-09-16T09:49:46Z</time>
      </trkpt>
      <trkpt lat="46.63968" lon="-0.26253">
        <ele>138</ele>
        <time>2012-09-16T09:49:51Z</time>
      </trkpt>
      <trkpt lat="46.63969" lon="-0.26261">
        <ele>138</ele>
        <time>2012-09-16T09:49:56Z</time>
      </trkpt>
      <trkpt lat="46.63968" lon="-0.26269">
        <ele>138</ele>
        <time>2012-09-16T09:50:01Z</time>
      </trkpt>
      <trkpt lat="46.63963" lon="-0.26276">
        <ele>138</ele>
        <time>2012-09-16T09:50:06Z</time>
      </trkpt>
      <trkpt lat="46.6396" lon="-0.26282">
        <ele>138</ele>
        <time>2012-09-16T09:50:11Z</time>
      </trkpt>
      <trkpt lat="46.63957" lon="-0.26288">
        <ele>138</ele>
        <time>2012-09-16T09:50:16Z</time>
      </trkpt>
      <trkpt lat="46.6396" lon="-0.26294">
        <ele>138</ele>
        <time>2012-09-16T09:50:21Z</time>
      </trkpt>
      <trkpt lat="46.63965" lon="-0.263">
        <ele>138</ele>
        <time>2012-09-16T09:50:27Z</time>
      </trkpt>
      <trkpt lat="46.6397" lon="-0.26305">
        <ele>137</ele>
        <time>2012-09-16T09:50:32Z</time>
      </trkpt>
      <trkpt lat="46.63975" lon="-0.26308">
        <ele>137</ele>
        <time>2012-09-16T09:50:37Z</time>
      </trkpt>
      <trkpt lat="46.63981" lon="-0.2631">
        <ele>137</ele>
        <time>2012-09-16T09:50:43Z</time>
      </trkpt>
      <trkpt lat="46.63987" lon="-0.26316">
        <ele>137</ele>
        <time>2012-09-16T09:50:49Z</time>
      </trkpt>
      <trkpt lat="46.63991" lon="-0.26323">
        <ele>137</ele>
        <time>2012-09-16T09:50:55Z</time>
      </trkpt>
      <trkpt lat="46.63992" lon="-0.2633">
        <ele>137</ele>
        <time>2012-09-16T09:51:00Z</time>
      </trkpt>
      <trkpt lat="46.63997" lon="-0.26337">
        <ele>136</ele>
        <time>2012-09-16T09:51:06Z</time>
      </trkpt>
      <trkpt lat="46.64001" lon="-0.26343">
        <ele>135</ele>
        <time>2012-09-16T09:51:11Z</time>
      </trkpt>
      <trkpt lat="46.64005" lon="-0.2635">
        <ele>134</ele>
        <time>2012-09-16T09:51:17Z</time>
      </trkpt>
      <trkpt lat="46.64009" lon="-0.26356">
        <ele>134</ele>
        <time>2012-09-16T09:51:23Z</time>
      </trkpt>
      <trkpt lat="46.64014" lon="-0.26361">
        <ele>134</ele>
        <time>2012-09-16T09:51:28Z</time>
      </trkpt>
      <trkpt lat="46.64018" lon="-0.26369">
        <ele>133</ele>
        <time>2012-09-16T09:51:34Z</time>
      </trkpt>
      <trkpt lat="46.64019" lon="-0.26375">
        <ele>133</ele>
        <time>2012-09-16T09:51:39Z</time>
      </trkpt>
      <trkpt lat="46.6402" lon="-0.26383">
        <ele>133</ele>
        <time>2012-09-16T09:51:44Z</time>
      </trkpt>
      <trkpt lat="46.64021" lon="-0.26392">
        <ele>133</ele>
        <time>2012-09-16T09:51:49Z</time>
      </trkpt>
      <trkpt lat="46.64021" lon="-0.26401">
        <ele>132</ele>
        <time>2012-09-16T09:51:54Z</time>
      </trkpt>
      <trkpt lat="46.64018" lon="-0.2641">
        <ele>132</ele>
        <time>2012-09-16T09:51:59Z</time>
      </trkpt>
      <trkpt lat="46.64015" lon="-0.26418">
        <ele>131</ele>
        <time>2012-09-16T09:52:04Z</time>
      </trkpt>
      <trkpt lat="46.64011" lon="-0.26423">
        <ele>132</ele>
        <time>2012-09-16T09:52:09Z</time>
      </trkpt>
      <trkpt lat="46.6401" lon="-0.26431">
        <ele>131</ele>
        <time>2012-09-16T09:52:14Z</time>
      </trkpt>
      <trkpt lat="46.64007" lon="-0.2644">
        <ele>131</ele>
        <time>2012-09-16T09:52:20Z</time>
      </trkpt>
      <trkpt lat="46.64005" lon="-0.26449">
        <ele>131</ele>
        <time>2012-09-16T09:52:26Z</time>
      </trkpt>
      <trkpt lat="46.64001" lon="-0.26455">
        <ele>131</ele>
        <time>2012-09-16T09:52:31Z</time>
      </trkpt>
      <trkpt lat="46.63998" lon="-0.26462">
        <ele>132</ele>
        <time>2012-09-16T09:52:36Z</time>
      </trkpt>
      <trkpt lat="46.63994" lon="-0.26469">
        <ele>132</ele>
        <time>2012-09-16T09:52:41Z</time>
      </trkpt>
      <trkpt lat="46.63992" lon="-0.26477">
        <ele>132</ele>
        <time>2012-09-16T09:52:46Z</time>
      </trkpt>
      <trkpt lat="46.63991" lon="-0.26485">
        <ele>132</ele>
        <time>2012-09-16T09:52:52Z</time>
      </trkpt>
      <trkpt lat="46.63991" lon="-0.26492">
        <ele>132</ele>
        <time>2012-09-16T09:52:57Z</time>
      </trkpt>
      <trkpt lat="46.63989" lon="-0.26501">
        <ele>132</ele>
        <time>2012-09-16T09:53:02Z</time>
      </trkpt>
      <trkpt lat="46.63987" lon="-0.26504">
        <ele>132</ele>
        <time>2012-09-16T09:53:07Z</time>
      </trkpt>
      <trkpt lat="46.63987" lon="-0.26512">
        <ele>132</ele>
        <time>2012-09-16T09:53:12Z</time>
      </trkpt>
      <trkpt lat="46.63985" lon="-0.2652">
        <ele>133</ele>
        <time>2012-09-16T09:53:17Z</time>
      </trkpt>
      <trkpt lat="46.63985" lon="-0.26528">
        <ele>133</ele>
        <time>2012-09-16T09:53:22Z</time>
      </trkpt>
      <trkpt lat="46.63984" lon="-0.26538">
        <ele>133</ele>
        <time>2012-09-16T09:53:27Z</time>
      </trkpt>
      <trkpt lat="46.63985" lon="-0.26548">
        <ele>134</ele>
        <time>2012-09-16T09:53:33Z</time>
      </trkpt>
      <trkpt lat="46.6399" lon="-0.2655">
        <ele>134</ele>
        <time>2012-09-16T09:53:38Z</time>
      </trkpt>
      <trkpt lat="46.63995" lon="-0.26556">
        <ele>134</ele>
        <time>2012-09-16T09:53:43Z</time>
      </trkpt>
      <trkpt lat="46.64" lon="-0.26563">
        <ele>134</ele>
        <time>2012-09-16T09:53:48Z</time>
      </trkpt>
      <trkpt lat="46.64006" lon="-0.2657">
        <ele>134</ele>
        <time>2012-09-16T09:53:54Z</time>
      </trkpt>
      <trkpt lat="46.64007" lon="-0.26578">
        <ele>134</ele>
        <time>2012-09-16T09:54:02Z</time>
      </trkpt>
      <trkpt lat="46.64013" lon="-0.2658">
        <ele>134</ele>
        <time>2012-09-16T09:54:08Z</time>
      </trkpt>
      <trkpt lat="46.64015" lon="-0.26584">
        <ele>136</ele>
        <time>2012-09-16T09:54:13Z</time>
      </trkpt>
      <trkpt lat="46.64088" lon="-0.26685">
        <ele>139</ele>
        <time>2012-09-16T09:54:19Z</time>
      </trkpt>
      <trkpt lat="46.64092" lon="-0.26692">
        <ele>139</ele>
        <time>2012-09-16T09:54:25Z</time>
      </trkpt>
      <trkpt lat="46.64099" lon="-0.267">
        <ele>139</ele>
        <time>2012-09-16T09:54:30Z</time>
      </trkpt>
      <trkpt lat="46.64107" lon="-0.26708">
        <ele>139</ele>
        <time>2012-09-16T09:54:39Z</time>
      </trkpt>
      <trkpt lat="46.6411" lon="-0.26714">
        <ele>140</ele>
        <time>2012-09-16T09:54:44Z</time>
      </trkpt>
      <trkpt lat="46.64121" lon="-0.26723">
        <ele>140</ele>
        <time>2012-09-16T09:54:49Z</time>
      </trkpt>
      <trkpt lat="46.64127" lon="-0.26728">
        <ele>140</ele>
        <time>2012-09-16T09:54:55Z</time>
      </trkpt>
      <trkpt lat="46.64132" lon="-0.26735">
        <ele>140</ele>
        <time>2012-09-16T09:55:01Z</time>
      </trkpt>
      <trkpt lat="46.64136" lon="-0.26739">
        <ele>140</ele>
        <time>2012-09-16T09:55:06Z</time>
      </trkpt>
      <trkpt lat="46.64142" lon="-0.26741">
        <ele>140</ele>
        <time>2012-09-16T09:55:12Z</time>
      </trkpt>
      <trkpt lat="46.64148" lon="-0.26743">
        <ele>140</ele>
        <time>2012-09-16T09:55:18Z</time>
      </trkpt>
      <trkpt lat="46.64155" lon="-0.26741">
        <ele>140</ele>
        <time>2012-09-16T09:55:23Z</time>
      </trkpt>
      <trkpt lat="46.64162" lon="-0.26737">
        <ele>140</ele>
        <time>2012-09-16T09:55:29Z</time>
      </trkpt>
      <trkpt lat="46.64167" lon="-0.26733">
        <ele>140</ele>
        <time>2012-09-16T09:55:34Z</time>
      </trkpt>
      <trkpt lat="46.64173" lon="-0.2673">
        <ele>140</ele>
        <time>2012-09-16T09:55:39Z</time>
      </trkpt>
      <trkpt lat="46.64177" lon="-0.26729">
        <ele>140</ele>
        <time>2012-09-16T09:55:45Z</time>
      </trkpt>
      <trkpt lat="46.64183" lon="-0.26726">
        <ele>140</ele>
        <time>2012-09-16T09:55:51Z</time>
      </trkpt>
      <trkpt lat="46.64186" lon="-0.26727">
        <ele>140</ele>
        <time>2012-09-16T09:55:57Z</time>
      </trkpt>
      <trkpt lat="46.64194" lon="-0.26727">
        <ele>140</ele>
        <time>2012-09-16T09:56:02Z</time>
      </trkpt>
      <trkpt lat="46.64198" lon="-0.26719">
        <ele>140</ele>
        <time>2012-09-16T09:56:07Z</time>
      </trkpt>
      <trkpt lat="46.64199" lon="-0.26713">
        <ele>140</ele>
        <time>2012-09-16T09:56:13Z</time>
      </trkpt>
      <trkpt lat="46.64202" lon="-0.26713">
        <ele>140</ele>
        <time>2012-09-16T09:56:22Z</time>
      </trkpt>
      <trkpt lat="46.64209" lon="-0.26713">
        <ele>140</ele>
        <time>2012-09-16T09:56:28Z</time>
      </trkpt>
      <trkpt lat="46.64213" lon="-0.26714">
        <ele>140</ele>
        <time>2012-09-16T09:56:34Z</time>
      </trkpt>
      <trkpt lat="46.64206" lon="-0.26716">
        <ele>140</ele>
        <time>2012-09-16T09:56:39Z</time>
      </trkpt>
      <trkpt lat="46.64206" lon="-0.26723">
        <ele>140</ele>
        <time>2012-09-16T09:56:44Z</time>
      </trkpt>
      <trkpt lat="46.64199" lon="-0.26727">
        <ele>140</ele>
        <time>2012-09-16T09:56:50Z</time>
      </trkpt>
      <trkpt lat="46.64193" lon="-0.26725">
        <ele>140</ele>
        <time>2012-09-16T09:56:56Z</time>
      </trkpt>
      <trkpt lat="46.64189" lon="-0.26728">
        <ele>140</ele>
        <time>2012-09-16T09:57:01Z</time>
      </trkpt>
      <trkpt lat="46.64185" lon="-0.26735">
        <ele>140</ele>
        <time>2012-09-16T09:57:07Z</time>
      </trkpt>
      <trkpt lat="46.64182" lon="-0.26743">
        <ele>140</ele>
        <time>2012-09-16T09:57:13Z</time>
      </trkpt>
      <trkpt lat="46.64178" lon="-0.26746">
        <ele>141</ele>
        <time>2012-09-16T09:57:26Z</time>
      </trkpt>
      <trkpt lat="46.64178" lon="-0.26739">
        <ele>140</ele>
        <time>2012-09-16T09:57:33Z</time>
      </trkpt>
      <trkpt lat="46.6418" lon="-0.26733">
        <ele>140</ele>
        <time>2012-09-16T09:57:38Z</time>
      </trkpt>
      <trkpt lat="46.64177" lon="-0.26727">
        <ele>140</ele>
        <time>2012-09-16T09:57:43Z</time>
      </trkpt>
      <trkpt lat="46.6417" lon="-0.26728">
        <ele>140</ele>
        <time>2012-09-16T09:57:49Z</time>
      </trkpt>
      <trkpt lat="46.64165" lon="-0.2673">
        <ele>140</ele>
        <time>2012-09-16T09:57:54Z</time>
      </trkpt>
      <trkpt lat="46.64161" lon="-0.26735">
        <ele>140</ele>
        <time>2012-09-16T09:57:59Z</time>
      </trkpt>
      <trkpt lat="46.64159" lon="-0.2674">
        <ele>140</ele>
        <time>2012-09-16T09:58:04Z</time>
      </trkpt>
      <trkpt lat="46.64152" lon="-0.2674">
        <ele>140</ele>
        <time>2012-09-16T09:58:09Z</time>
      </trkpt>
      <trkpt lat="46.64145" lon="-0.26738">
        <ele>140</ele>
        <time>2012-09-16T09:58:14Z</time>
      </trkpt>
      <trkpt lat="46.64139" lon="-0.26736">
        <ele>140</ele>
        <time>2012-09-16T09:58:19Z</time>
      </trkpt>
      <trkpt lat="46.64135" lon="-0.26732">
        <ele>140</ele>
        <time>2012-09-16T09:58:25Z</time>
      </trkpt>
      <trkpt lat="46.64129" lon="-0.26728">
        <ele>140</ele>
        <time>2012-09-16T09:58:30Z</time>
      </trkpt>
      <trkpt lat="46.64123" lon="-0.26724">
        <ele>140</ele>
        <time>2012-09-16T09:58:36Z</time>
      </trkpt>
      <trkpt lat="46.64117" lon="-0.26719">
        <ele>140</ele>
        <time>2012-09-16T09:58:41Z</time>
      </trkpt>
      <trkpt lat="46.64111" lon="-0.26713">
        <ele>140</ele>
        <time>2012-09-16T09:58:47Z</time>
      </trkpt>
      <trkpt lat="46.64106" lon="-0.26707">
        <ele>139</ele>
        <time>2012-09-16T09:58:52Z</time>
      </trkpt>
      <trkpt lat="46.64101" lon="-0.26701">
        <ele>139</ele>
        <time>2012-09-16T09:58:58Z</time>
      </trkpt>
      <trkpt lat="46.64096" lon="-0.26695">
        <ele>139</ele>
        <time>2012-09-16T09:59:04Z</time>
      </trkpt>
      <trkpt lat="46.64091" lon="-0.26687">
        <ele>139</ele>
        <time>2012-09-16T09:59:10Z</time>
      </trkpt>
      <trkpt lat="46.6409" lon="-0.26682">
        <ele>139</ele>
        <time>2012-09-16T09:59:18Z</time>
      </trkpt>
      <trkpt lat="46.6409" lon="-0.26674">
        <ele>138</ele>
        <time>2012-09-16T09:59:23Z</time>
      </trkpt>
      <trkpt lat="46.6409" lon="-0.26665">
        <ele>138</ele>
        <time>2012-09-16T09:59:28Z</time>
      </trkpt>
      <trkpt lat="46.64089" lon="-0.26658">
        <ele>137</ele>
        <time>2012-09-16T09:59:33Z</time>
      </trkpt>
      <trkpt lat="46.64088" lon="-0.2665">
        <ele>137</ele>
        <time>2012-09-16T09:59:38Z</time>
      </trkpt>
      <trkpt lat="46.64088" lon="-0.26643">
        <ele>137</ele>
        <time>2012-09-16T09:59:43Z</time>
      </trkpt>
      <trkpt lat="46.64089" lon="-0.26635">
        <ele>137</ele>
        <time>2012-09-16T09:59:48Z</time>
      </trkpt>
      <trkpt lat="46.64093" lon="-0.26634">
        <ele>137</ele>
        <time>2012-09-16T09:59:58Z</time>
      </trkpt>
    </trkseg>
  </trk>
</gpx>